<?xml version="1.0" encoding="UTF-8" standalone="no" ?>
<gpx xmlns="http://www.topografix.com/GPX/1/1" xmlns:xsi="http://www.w3.org/2001/XMLSchema-instance" xsi:schemaLocation="http://www.topografix.com/GPX/1/1 http://www.topografix.com/GPX/1/1/gpx.xsd" version="1.1" creator="VisuGPX - https://www.visugpx.com">
  <metadata>
    <name>les lacs (12)</name>
    <desc><![CDATA[très beau circuit par beau temps, quelques plaques de neiges nous procurent un rafraichissement]]></desc>
  </metadata>
  <trk>
    <name><![CDATA[les lacs (12)_1]]></name>
    <trkseg>
      <trkpt lat="42.55916" lon="2.00015">
        <ele>2005.4</ele>
        <time>2011-05-04T08:10:39Z</time>
      </trkpt>
      <trkpt lat="42.55916" lon="2.00015">
        <ele>2060</ele>
        <time>2011-05-04T08:11:29Z</time>
      </trkpt>
      <trkpt lat="42.5591" lon="2.00015">
        <ele>2060</ele>
        <time>2011-05-04T08:11:35Z</time>
      </trkpt>
      <trkpt lat="42.55904" lon="2.00015">
        <ele>2060</ele>
        <time>2011-05-04T08:11:42Z</time>
      </trkpt>
      <trkpt lat="42.55897" lon="2.00015">
        <ele>2060</ele>
        <time>2011-05-04T08:11:49Z</time>
      </trkpt>
      <trkpt lat="42.5589" lon="2.00015">
        <ele>2060</ele>
        <time>2011-05-04T08:11:56Z</time>
      </trkpt>
      <trkpt lat="42.55884" lon="2.00013">
        <ele>2060</ele>
        <time>2011-05-04T08:12:03Z</time>
      </trkpt>
      <trkpt lat="42.55877" lon="2.00009">
        <ele>2060</ele>
        <time>2011-05-04T08:12:10Z</time>
      </trkpt>
      <trkpt lat="42.55872" lon="2.00003">
        <ele>2060</ele>
        <time>2011-05-04T08:12:17Z</time>
      </trkpt>
      <trkpt lat="42.55867" lon="1.99997">
        <ele>2061</ele>
        <time>2011-05-04T08:12:23Z</time>
      </trkpt>
      <trkpt lat="42.55863" lon="1.99989">
        <ele>2061</ele>
        <time>2011-05-04T08:12:47Z</time>
      </trkpt>
      <trkpt lat="42.55862" lon="1.99981">
        <ele>2062</ele>
        <time>2011-05-04T08:13:13Z</time>
      </trkpt>
      <trkpt lat="42.55862" lon="1.99971">
        <ele>2062</ele>
        <time>2011-05-04T08:13:20Z</time>
      </trkpt>
      <trkpt lat="42.55867" lon="1.99965">
        <ele>2062</ele>
        <time>2011-05-04T08:13:26Z</time>
      </trkpt>
      <trkpt lat="42.55874" lon="1.99961">
        <ele>2063</ele>
        <time>2011-05-04T08:13:32Z</time>
      </trkpt>
      <trkpt lat="42.55881" lon="1.99956">
        <ele>2063</ele>
        <time>2011-05-04T08:13:38Z</time>
      </trkpt>
      <trkpt lat="42.55886" lon="1.99952">
        <ele>2063</ele>
        <time>2011-05-04T08:13:44Z</time>
      </trkpt>
      <trkpt lat="42.55892" lon="1.99947">
        <ele>2064</ele>
        <time>2011-05-04T08:13:51Z</time>
      </trkpt>
      <trkpt lat="42.55898" lon="1.99942">
        <ele>2064</ele>
        <time>2011-05-04T08:13:58Z</time>
      </trkpt>
      <trkpt lat="42.55904" lon="1.99938">
        <ele>2065</ele>
        <time>2011-05-04T08:14:05Z</time>
      </trkpt>
      <trkpt lat="42.5591" lon="1.99932">
        <ele>2065</ele>
        <time>2011-05-04T08:14:12Z</time>
      </trkpt>
      <trkpt lat="42.55915" lon="1.99927">
        <ele>2066</ele>
        <time>2011-05-04T08:14:18Z</time>
      </trkpt>
      <trkpt lat="42.55921" lon="1.99921">
        <ele>2066</ele>
        <time>2011-05-04T08:14:24Z</time>
      </trkpt>
      <trkpt lat="42.55926" lon="1.99915">
        <ele>2066</ele>
        <time>2011-05-04T08:14:30Z</time>
      </trkpt>
      <trkpt lat="42.55931" lon="1.99909">
        <ele>2067</ele>
        <time>2011-05-04T08:14:36Z</time>
      </trkpt>
      <trkpt lat="42.55936" lon="1.99903">
        <ele>2067</ele>
        <time>2011-05-04T08:14:42Z</time>
      </trkpt>
      <trkpt lat="42.55941" lon="1.99897">
        <ele>2067</ele>
        <time>2011-05-04T08:14:48Z</time>
      </trkpt>
      <trkpt lat="42.55946" lon="1.99891">
        <ele>2068</ele>
        <time>2011-05-04T08:14:54Z</time>
      </trkpt>
      <trkpt lat="42.55951" lon="1.99884">
        <ele>2068</ele>
        <time>2011-05-04T08:15:00Z</time>
      </trkpt>
      <trkpt lat="42.55957" lon="1.99879">
        <ele>2069</ele>
        <time>2011-05-04T08:15:06Z</time>
      </trkpt>
      <trkpt lat="42.55964" lon="1.99878">
        <ele>2069</ele>
        <time>2011-05-04T08:15:13Z</time>
      </trkpt>
      <trkpt lat="42.5597" lon="1.99875">
        <ele>2070</ele>
        <time>2011-05-04T08:15:21Z</time>
      </trkpt>
      <trkpt lat="42.55975" lon="1.99868">
        <ele>2070</ele>
        <time>2011-05-04T08:15:29Z</time>
      </trkpt>
      <trkpt lat="42.55981" lon="1.99863">
        <ele>2071</ele>
        <time>2011-05-04T08:15:36Z</time>
      </trkpt>
      <trkpt lat="42.55992" lon="1.99855">
        <ele>2071</ele>
        <time>2011-05-04T08:15:48Z</time>
      </trkpt>
      <trkpt lat="42.55999" lon="1.9985">
        <ele>2071</ele>
        <time>2011-05-04T08:15:54Z</time>
      </trkpt>
      <trkpt lat="42.56005" lon="1.99846">
        <ele>2072</ele>
        <time>2011-05-04T08:16:00Z</time>
      </trkpt>
      <trkpt lat="42.56011" lon="1.9984">
        <ele>2072</ele>
        <time>2011-05-04T08:16:06Z</time>
      </trkpt>
      <trkpt lat="42.56015" lon="1.99833">
        <ele>2072</ele>
        <time>2011-05-04T08:16:11Z</time>
      </trkpt>
      <trkpt lat="42.56018" lon="1.99825">
        <ele>2072</ele>
        <time>2011-05-04T08:16:16Z</time>
      </trkpt>
      <trkpt lat="42.56022" lon="1.99818">
        <ele>2072</ele>
        <time>2011-05-04T08:16:21Z</time>
      </trkpt>
      <trkpt lat="42.56026" lon="1.9981">
        <ele>2072</ele>
        <time>2011-05-04T08:16:27Z</time>
      </trkpt>
      <trkpt lat="42.56031" lon="1.99802">
        <ele>2072</ele>
        <time>2011-05-04T08:16:33Z</time>
      </trkpt>
      <trkpt lat="42.56036" lon="1.99795">
        <ele>2072</ele>
        <time>2011-05-04T08:16:39Z</time>
      </trkpt>
      <trkpt lat="42.5604" lon="1.99787">
        <ele>2072</ele>
        <time>2011-05-04T08:16:45Z</time>
      </trkpt>
      <trkpt lat="42.56042" lon="1.99778">
        <ele>2073</ele>
        <time>2011-05-04T08:16:51Z</time>
      </trkpt>
      <trkpt lat="42.56043" lon="1.99769">
        <ele>2073</ele>
        <time>2011-05-04T08:16:57Z</time>
      </trkpt>
      <trkpt lat="42.56043" lon="1.9976">
        <ele>2073</ele>
        <time>2011-05-04T08:17:03Z</time>
      </trkpt>
      <trkpt lat="42.56042" lon="1.99751">
        <ele>2073</ele>
        <time>2011-05-04T08:17:09Z</time>
      </trkpt>
      <trkpt lat="42.56038" lon="1.99744">
        <ele>2074</ele>
        <time>2011-05-04T08:17:16Z</time>
      </trkpt>
      <trkpt lat="42.56031" lon="1.99743">
        <ele>2074</ele>
        <time>2011-05-04T08:17:28Z</time>
      </trkpt>
      <trkpt lat="42.56025" lon="1.99742">
        <ele>2075</ele>
        <time>2011-05-04T08:18:10Z</time>
      </trkpt>
      <trkpt lat="42.56019" lon="1.99739">
        <ele>2075</ele>
        <time>2011-05-04T08:18:16Z</time>
      </trkpt>
      <trkpt lat="42.56012" lon="1.99739">
        <ele>2076</ele>
        <time>2011-05-04T08:18:21Z</time>
      </trkpt>
      <trkpt lat="42.56005" lon="1.99738">
        <ele>2076</ele>
        <time>2011-05-04T08:18:26Z</time>
      </trkpt>
      <trkpt lat="42.55999" lon="1.99737">
        <ele>2076</ele>
        <time>2011-05-04T08:18:32Z</time>
      </trkpt>
      <trkpt lat="42.55992" lon="1.99735">
        <ele>2076</ele>
        <time>2011-05-04T08:18:38Z</time>
      </trkpt>
      <trkpt lat="42.55985" lon="1.99731">
        <ele>2077</ele>
        <time>2011-05-04T08:18:44Z</time>
      </trkpt>
      <trkpt lat="42.55981" lon="1.99725">
        <ele>2077</ele>
        <time>2011-05-04T08:18:50Z</time>
      </trkpt>
      <trkpt lat="42.55976" lon="1.99708">
        <ele>2078</ele>
        <time>2011-05-04T08:19:01Z</time>
      </trkpt>
      <trkpt lat="42.55974" lon="1.99699">
        <ele>2078</ele>
        <time>2011-05-04T08:19:07Z</time>
      </trkpt>
      <trkpt lat="42.55971" lon="1.99691">
        <ele>2079</ele>
        <time>2011-05-04T08:19:13Z</time>
      </trkpt>
      <trkpt lat="42.55969" lon="1.99682">
        <ele>2079</ele>
        <time>2011-05-04T08:19:19Z</time>
      </trkpt>
      <trkpt lat="42.5597" lon="1.99672">
        <ele>2080</ele>
        <time>2011-05-04T08:19:26Z</time>
      </trkpt>
      <trkpt lat="42.55974" lon="1.99663">
        <ele>2080</ele>
        <time>2011-05-04T08:19:32Z</time>
      </trkpt>
      <trkpt lat="42.55978" lon="1.99655">
        <ele>2081</ele>
        <time>2011-05-04T08:19:38Z</time>
      </trkpt>
      <trkpt lat="42.55983" lon="1.99647">
        <ele>2081</ele>
        <time>2011-05-04T08:19:44Z</time>
      </trkpt>
      <trkpt lat="42.55987" lon="1.9964">
        <ele>2081</ele>
        <time>2011-05-04T08:19:50Z</time>
      </trkpt>
      <trkpt lat="42.55991" lon="1.99633">
        <ele>2082</ele>
        <time>2011-05-04T08:19:56Z</time>
      </trkpt>
      <trkpt lat="42.55995" lon="1.99625">
        <ele>2082</ele>
        <time>2011-05-04T08:20:04Z</time>
      </trkpt>
      <trkpt lat="42.55996" lon="1.99616">
        <ele>2083</ele>
        <time>2011-05-04T08:20:26Z</time>
      </trkpt>
      <trkpt lat="42.55997" lon="1.99607">
        <ele>2083</ele>
        <time>2011-05-04T08:20:36Z</time>
      </trkpt>
      <trkpt lat="42.56" lon="1.99599">
        <ele>2084</ele>
        <time>2011-05-04T08:20:46Z</time>
      </trkpt>
      <trkpt lat="42.56006" lon="1.99594">
        <ele>2084</ele>
        <time>2011-05-04T08:20:54Z</time>
      </trkpt>
      <trkpt lat="42.5601" lon="1.99587">
        <ele>2084</ele>
        <time>2011-05-04T08:21:04Z</time>
      </trkpt>
      <trkpt lat="42.56011" lon="1.99578">
        <ele>2085</ele>
        <time>2011-05-04T08:21:14Z</time>
      </trkpt>
      <trkpt lat="42.56011" lon="1.99569">
        <ele>2085</ele>
        <time>2011-05-04T08:21:26Z</time>
      </trkpt>
      <trkpt lat="42.56011" lon="1.99551">
        <ele>2087</ele>
        <time>2011-05-04T08:21:46Z</time>
      </trkpt>
      <trkpt lat="42.56012" lon="1.99542">
        <ele>2087</ele>
        <time>2011-05-04T08:21:54Z</time>
      </trkpt>
      <trkpt lat="42.56019" lon="1.99517">
        <ele>2089</ele>
        <time>2011-05-04T08:22:43Z</time>
      </trkpt>
      <trkpt lat="42.56031" lon="1.99496">
        <ele>2090</ele>
        <time>2011-05-04T08:23:28Z</time>
      </trkpt>
      <trkpt lat="42.56033" lon="1.99487">
        <ele>2091</ele>
        <time>2011-05-04T08:23:39Z</time>
      </trkpt>
      <trkpt lat="42.56032" lon="1.9947">
        <ele>2092</ele>
        <time>2011-05-04T08:23:53Z</time>
      </trkpt>
      <trkpt lat="42.56031" lon="1.99461">
        <ele>2093</ele>
        <time>2011-05-04T08:24:03Z</time>
      </trkpt>
      <trkpt lat="42.56031" lon="1.99452">
        <ele>2094</ele>
        <time>2011-05-04T08:24:51Z</time>
      </trkpt>
      <trkpt lat="42.56033" lon="1.99444">
        <ele>2095</ele>
        <time>2011-05-04T08:25:07Z</time>
      </trkpt>
      <trkpt lat="42.56038" lon="1.99439">
        <ele>2096</ele>
        <time>2011-05-04T08:25:26Z</time>
      </trkpt>
      <trkpt lat="42.56038" lon="1.99431">
        <ele>2097</ele>
        <time>2011-05-04T08:25:52Z</time>
      </trkpt>
      <trkpt lat="42.56032" lon="1.99416">
        <ele>2098</ele>
        <time>2011-05-04T08:26:54Z</time>
      </trkpt>
      <trkpt lat="42.56022" lon="1.99405">
        <ele>2100</ele>
        <time>2011-05-04T08:28:21Z</time>
      </trkpt>
      <trkpt lat="42.56017" lon="1.994">
        <ele>2101</ele>
        <time>2011-05-04T08:28:55Z</time>
      </trkpt>
      <trkpt lat="42.56014" lon="1.99392">
        <ele>2106</ele>
        <time>2011-05-04T08:31:24Z</time>
      </trkpt>
      <trkpt lat="42.56012" lon="1.99384">
        <ele>2107</ele>
        <time>2011-05-04T08:32:12Z</time>
      </trkpt>
      <trkpt lat="42.56013" lon="1.99374">
        <ele>2109</ele>
        <time>2011-05-04T08:32:23Z</time>
      </trkpt>
      <trkpt lat="42.56013" lon="1.99365">
        <ele>2110</ele>
        <time>2011-05-04T08:32:37Z</time>
      </trkpt>
      <trkpt lat="42.56013" lon="1.99357">
        <ele>2111</ele>
        <time>2011-05-04T08:32:55Z</time>
      </trkpt>
      <trkpt lat="42.56004" lon="1.99333">
        <ele>2113</ele>
        <time>2011-05-04T08:33:57Z</time>
      </trkpt>
      <trkpt lat="42.56002" lon="1.99324">
        <ele>2114</ele>
        <time>2011-05-04T08:34:10Z</time>
      </trkpt>
      <trkpt lat="42.56001" lon="1.99316">
        <ele>2115</ele>
        <time>2011-05-04T08:34:18Z</time>
      </trkpt>
      <trkpt lat="42.56" lon="1.9929">
        <ele>2116</ele>
        <time>2011-05-04T08:34:50Z</time>
      </trkpt>
      <trkpt lat="42.55999" lon="1.99281">
        <ele>2116</ele>
        <time>2011-05-04T08:35:10Z</time>
      </trkpt>
      <trkpt lat="42.56" lon="1.99272">
        <ele>2117</ele>
        <time>2011-05-04T08:35:20Z</time>
      </trkpt>
      <trkpt lat="42.55997" lon="1.99264">
        <ele>2118</ele>
        <time>2011-05-04T08:35:35Z</time>
      </trkpt>
      <trkpt lat="42.55995" lon="1.99238">
        <ele>2120</ele>
        <time>2011-05-04T08:36:21Z</time>
      </trkpt>
      <trkpt lat="42.55998" lon="1.9923">
        <ele>2120</ele>
        <time>2011-05-04T08:36:33Z</time>
      </trkpt>
      <trkpt lat="42.55999" lon="1.99221">
        <ele>2121</ele>
        <time>2011-05-04T08:36:42Z</time>
      </trkpt>
      <trkpt lat="42.56001" lon="1.99213">
        <ele>2121</ele>
        <time>2011-05-04T08:36:49Z</time>
      </trkpt>
      <trkpt lat="42.56005" lon="1.99206">
        <ele>2121</ele>
        <time>2011-05-04T08:36:58Z</time>
      </trkpt>
      <trkpt lat="42.56008" lon="1.99198">
        <ele>2122</ele>
        <time>2011-05-04T08:37:08Z</time>
      </trkpt>
      <trkpt lat="42.56011" lon="1.99181">
        <ele>2122</ele>
        <time>2011-05-04T08:37:30Z</time>
      </trkpt>
      <trkpt lat="42.5601" lon="1.99164">
        <ele>2123</ele>
        <time>2011-05-04T08:37:42Z</time>
      </trkpt>
      <trkpt lat="42.56013" lon="1.99147">
        <ele>2124</ele>
        <time>2011-05-04T08:38:08Z</time>
      </trkpt>
      <trkpt lat="42.56013" lon="1.99138">
        <ele>2124</ele>
        <time>2011-05-04T08:38:16Z</time>
      </trkpt>
      <trkpt lat="42.56015" lon="1.9913">
        <ele>2124</ele>
        <time>2011-05-04T08:38:26Z</time>
      </trkpt>
      <trkpt lat="42.56017" lon="1.99122">
        <ele>2125</ele>
        <time>2011-05-04T08:38:38Z</time>
      </trkpt>
      <trkpt lat="42.5602" lon="1.99113">
        <ele>2126</ele>
        <time>2011-05-04T08:39:14Z</time>
      </trkpt>
      <trkpt lat="42.56022" lon="1.99105">
        <ele>2126</ele>
        <time>2011-05-04T08:39:25Z</time>
      </trkpt>
      <trkpt lat="42.56025" lon="1.99079">
        <ele>2128</ele>
        <time>2011-05-04T08:40:20Z</time>
      </trkpt>
      <trkpt lat="42.56027" lon="1.99071">
        <ele>2130</ele>
        <time>2011-05-04T08:40:44Z</time>
      </trkpt>
      <trkpt lat="42.56032" lon="1.99065">
        <ele>2131</ele>
        <time>2011-05-04T08:40:56Z</time>
      </trkpt>
      <trkpt lat="42.56044" lon="1.99058">
        <ele>2132</ele>
        <time>2011-05-04T08:41:37Z</time>
      </trkpt>
      <trkpt lat="42.5605" lon="1.99053">
        <ele>2133</ele>
        <time>2011-05-04T08:41:46Z</time>
      </trkpt>
      <trkpt lat="42.56057" lon="1.99038">
        <ele>2134</ele>
        <time>2011-05-04T08:42:03Z</time>
      </trkpt>
      <trkpt lat="42.56067" lon="1.99027">
        <ele>2134</ele>
        <time>2011-05-04T08:42:30Z</time>
      </trkpt>
      <trkpt lat="42.56072" lon="1.99021">
        <ele>2135</ele>
        <time>2011-05-04T08:42:38Z</time>
      </trkpt>
      <trkpt lat="42.56075" lon="1.99013">
        <ele>2135</ele>
        <time>2011-05-04T08:42:46Z</time>
      </trkpt>
      <trkpt lat="42.56073" lon="1.99005">
        <ele>2136</ele>
        <time>2011-05-04T08:43:02Z</time>
      </trkpt>
      <trkpt lat="42.56084" lon="1.98997">
        <ele>2136</ele>
        <time>2011-05-04T08:43:37Z</time>
      </trkpt>
      <trkpt lat="42.5609" lon="1.98982">
        <ele>2137</ele>
        <time>2011-05-04T08:44:03Z</time>
      </trkpt>
      <trkpt lat="42.56094" lon="1.98973">
        <ele>2137</ele>
        <time>2011-05-04T08:44:10Z</time>
      </trkpt>
      <trkpt lat="42.56097" lon="1.98966">
        <ele>2137</ele>
        <time>2011-05-04T08:44:19Z</time>
      </trkpt>
      <trkpt lat="42.56099" lon="1.98958">
        <ele>2137</ele>
        <time>2011-05-04T08:44:30Z</time>
      </trkpt>
      <trkpt lat="42.56102" lon="1.98949">
        <ele>2137</ele>
        <time>2011-05-04T08:44:45Z</time>
      </trkpt>
      <trkpt lat="42.56106" lon="1.98943">
        <ele>2138</ele>
        <time>2011-05-04T08:45:08Z</time>
      </trkpt>
      <trkpt lat="42.56111" lon="1.98937">
        <ele>2138</ele>
        <time>2011-05-04T08:45:25Z</time>
      </trkpt>
      <trkpt lat="42.56114" lon="1.98929">
        <ele>2138</ele>
        <time>2011-05-04T08:45:38Z</time>
      </trkpt>
      <trkpt lat="42.56119" lon="1.98923">
        <ele>2139</ele>
        <time>2011-05-04T08:45:49Z</time>
      </trkpt>
      <trkpt lat="42.56124" lon="1.98918">
        <ele>2139</ele>
        <time>2011-05-04T08:45:57Z</time>
      </trkpt>
      <trkpt lat="42.56128" lon="1.98911">
        <ele>2139</ele>
        <time>2011-05-04T08:46:12Z</time>
      </trkpt>
      <trkpt lat="42.56134" lon="1.98907">
        <ele>2140</ele>
        <time>2011-05-04T08:46:21Z</time>
      </trkpt>
      <trkpt lat="42.5614" lon="1.98903">
        <ele>2140</ele>
        <time>2011-05-04T08:46:27Z</time>
      </trkpt>
      <trkpt lat="42.56146" lon="1.98898">
        <ele>2141</ele>
        <time>2011-05-04T08:46:35Z</time>
      </trkpt>
      <trkpt lat="42.5615" lon="1.98891">
        <ele>2141</ele>
        <time>2011-05-04T08:46:43Z</time>
      </trkpt>
      <trkpt lat="42.56153" lon="1.98883">
        <ele>2141</ele>
        <time>2011-05-04T08:47:06Z</time>
      </trkpt>
      <trkpt lat="42.56153" lon="1.98874">
        <ele>2142</ele>
        <time>2011-05-04T08:47:17Z</time>
      </trkpt>
      <trkpt lat="42.56155" lon="1.98866">
        <ele>2142</ele>
        <time>2011-05-04T08:47:34Z</time>
      </trkpt>
      <trkpt lat="42.5616" lon="1.9886">
        <ele>2143</ele>
        <time>2011-05-04T08:47:52Z</time>
      </trkpt>
      <trkpt lat="42.56165" lon="1.98856">
        <ele>2145</ele>
        <time>2011-05-04T08:48:10Z</time>
      </trkpt>
      <trkpt lat="42.56171" lon="1.9885">
        <ele>2146</ele>
        <time>2011-05-04T08:48:27Z</time>
      </trkpt>
      <trkpt lat="42.56174" lon="1.98843">
        <ele>2147</ele>
        <time>2011-05-04T08:48:57Z</time>
      </trkpt>
      <trkpt lat="42.5618" lon="1.98839">
        <ele>2149</ele>
        <time>2011-05-04T08:50:17Z</time>
      </trkpt>
      <trkpt lat="42.56185" lon="1.98833">
        <ele>2151</ele>
        <time>2011-05-04T08:50:48Z</time>
      </trkpt>
      <trkpt lat="42.56189" lon="1.98827">
        <ele>2152</ele>
        <time>2011-05-04T08:51:03Z</time>
      </trkpt>
      <trkpt lat="42.56191" lon="1.98818">
        <ele>2153</ele>
        <time>2011-05-04T08:51:39Z</time>
      </trkpt>
      <trkpt lat="42.56197" lon="1.98814">
        <ele>2153</ele>
        <time>2011-05-04T08:52:13Z</time>
      </trkpt>
      <trkpt lat="42.56204" lon="1.98815">
        <ele>2154</ele>
        <time>2011-05-04T08:52:31Z</time>
      </trkpt>
      <trkpt lat="42.5621" lon="1.98813">
        <ele>2155</ele>
        <time>2011-05-04T08:52:43Z</time>
      </trkpt>
      <trkpt lat="42.56216" lon="1.98807">
        <ele>2155</ele>
        <time>2011-05-04T08:52:54Z</time>
      </trkpt>
      <trkpt lat="42.5622" lon="1.988">
        <ele>2156</ele>
        <time>2011-05-04T08:53:04Z</time>
      </trkpt>
      <trkpt lat="42.56226" lon="1.98795">
        <ele>2156</ele>
        <time>2011-05-04T08:53:14Z</time>
      </trkpt>
      <trkpt lat="42.56231" lon="1.9879">
        <ele>2156</ele>
        <time>2011-05-04T08:53:31Z</time>
      </trkpt>
      <trkpt lat="42.56236" lon="1.98785">
        <ele>2156</ele>
        <time>2011-05-04T08:53:49Z</time>
      </trkpt>
      <trkpt lat="42.56241" lon="1.98778">
        <ele>2157</ele>
        <time>2011-05-04T08:54:03Z</time>
      </trkpt>
      <trkpt lat="42.56247" lon="1.98777">
        <ele>2157</ele>
        <time>2011-05-04T08:54:28Z</time>
      </trkpt>
      <trkpt lat="42.56253" lon="1.98777">
        <ele>2157</ele>
        <time>2011-05-04T08:54:49Z</time>
      </trkpt>
      <trkpt lat="42.56258" lon="1.9877">
        <ele>2157</ele>
        <time>2011-05-04T08:55:06Z</time>
      </trkpt>
      <trkpt lat="42.5626" lon="1.98762">
        <ele>2158</ele>
        <time>2011-05-04T08:55:30Z</time>
      </trkpt>
      <trkpt lat="42.56263" lon="1.98754">
        <ele>2158</ele>
        <time>2011-05-04T08:55:49Z</time>
      </trkpt>
      <trkpt lat="42.56263" lon="1.98746">
        <ele>2158</ele>
        <time>2011-05-04T08:56:00Z</time>
      </trkpt>
      <trkpt lat="42.56266" lon="1.98738">
        <ele>2159</ele>
        <time>2011-05-04T08:56:14Z</time>
      </trkpt>
      <trkpt lat="42.56272" lon="1.98735">
        <ele>2160</ele>
        <time>2011-05-04T08:56:33Z</time>
      </trkpt>
      <trkpt lat="42.56276" lon="1.98729">
        <ele>2161</ele>
        <time>2011-05-04T08:56:43Z</time>
      </trkpt>
      <trkpt lat="42.5628" lon="1.98721">
        <ele>2162</ele>
        <time>2011-05-04T08:56:55Z</time>
      </trkpt>
      <trkpt lat="42.56293" lon="1.98719">
        <ele>2163</ele>
        <time>2011-05-04T08:57:12Z</time>
      </trkpt>
      <trkpt lat="42.56299" lon="1.98716">
        <ele>2163</ele>
        <time>2011-05-04T08:57:23Z</time>
      </trkpt>
      <trkpt lat="42.56306" lon="1.98712">
        <ele>2164</ele>
        <time>2011-05-04T08:57:34Z</time>
      </trkpt>
      <trkpt lat="42.5631" lon="1.98706">
        <ele>2165</ele>
        <time>2011-05-04T08:57:44Z</time>
      </trkpt>
      <trkpt lat="42.56313" lon="1.98699">
        <ele>2165</ele>
        <time>2011-05-04T08:57:53Z</time>
      </trkpt>
      <trkpt lat="42.56318" lon="1.98692">
        <ele>2166</ele>
        <time>2011-05-04T08:58:13Z</time>
      </trkpt>
      <trkpt lat="42.5632" lon="1.98684">
        <ele>2167</ele>
        <time>2011-05-04T08:58:26Z</time>
      </trkpt>
      <trkpt lat="42.56323" lon="1.98677">
        <ele>2169</ele>
        <time>2011-05-04T08:58:42Z</time>
      </trkpt>
      <trkpt lat="42.56329" lon="1.98672">
        <ele>2171</ele>
        <time>2011-05-04T08:59:01Z</time>
      </trkpt>
      <trkpt lat="42.56335" lon="1.9867">
        <ele>2171</ele>
        <time>2011-05-04T08:59:10Z</time>
      </trkpt>
      <trkpt lat="42.56339" lon="1.98662">
        <ele>2173</ele>
        <time>2011-05-04T08:59:25Z</time>
      </trkpt>
      <trkpt lat="42.56342" lon="1.98655">
        <ele>2174</ele>
        <time>2011-05-04T09:00:22Z</time>
      </trkpt>
      <trkpt lat="42.56338" lon="1.98647">
        <ele>2175</ele>
        <time>2011-05-04T09:00:36Z</time>
      </trkpt>
      <trkpt lat="42.56338" lon="1.98638">
        <ele>2175</ele>
        <time>2011-05-04T09:00:46Z</time>
      </trkpt>
      <trkpt lat="42.56344" lon="1.98633">
        <ele>2176</ele>
        <time>2011-05-04T09:00:57Z</time>
      </trkpt>
      <trkpt lat="42.56349" lon="1.98627">
        <ele>2177</ele>
        <time>2011-05-04T09:01:07Z</time>
      </trkpt>
      <trkpt lat="42.56354" lon="1.98622">
        <ele>2178</ele>
        <time>2011-05-04T09:01:17Z</time>
      </trkpt>
      <trkpt lat="42.5636" lon="1.98618">
        <ele>2178</ele>
        <time>2011-05-04T09:01:27Z</time>
      </trkpt>
      <trkpt lat="42.56366" lon="1.98615">
        <ele>2179</ele>
        <time>2011-05-04T09:01:36Z</time>
      </trkpt>
      <trkpt lat="42.56369" lon="1.98607">
        <ele>2180</ele>
        <time>2011-05-04T09:01:49Z</time>
      </trkpt>
      <trkpt lat="42.56373" lon="1.986">
        <ele>2181</ele>
        <time>2011-05-04T09:02:05Z</time>
      </trkpt>
      <trkpt lat="42.56378" lon="1.98597">
        <ele>2182</ele>
        <time>2011-05-04T09:02:14Z</time>
      </trkpt>
      <trkpt lat="42.56385" lon="1.98594">
        <ele>2183</ele>
        <time>2011-05-04T09:02:30Z</time>
      </trkpt>
      <trkpt lat="42.56392" lon="1.9859">
        <ele>2184</ele>
        <time>2011-05-04T09:02:39Z</time>
      </trkpt>
      <trkpt lat="42.56398" lon="1.98586">
        <ele>2185</ele>
        <time>2011-05-04T09:02:47Z</time>
      </trkpt>
      <trkpt lat="42.56404" lon="1.98583">
        <ele>2186</ele>
        <time>2011-05-04T09:02:57Z</time>
      </trkpt>
      <trkpt lat="42.56409" lon="1.98578">
        <ele>2186</ele>
        <time>2011-05-04T09:03:55Z</time>
      </trkpt>
      <trkpt lat="42.56415" lon="1.98574">
        <ele>2187</ele>
        <time>2011-05-04T09:04:24Z</time>
      </trkpt>
      <trkpt lat="42.5642" lon="1.98569">
        <ele>2188</ele>
        <time>2011-05-04T09:04:32Z</time>
      </trkpt>
      <trkpt lat="42.56426" lon="1.98565">
        <ele>2188</ele>
        <time>2011-05-04T09:04:40Z</time>
      </trkpt>
      <trkpt lat="42.5643" lon="1.98559">
        <ele>2189</ele>
        <time>2011-05-04T09:05:01Z</time>
      </trkpt>
      <trkpt lat="42.56431" lon="1.98549">
        <ele>2190</ele>
        <time>2011-05-04T09:05:10Z</time>
      </trkpt>
      <trkpt lat="42.56432" lon="1.98541">
        <ele>2190</ele>
        <time>2011-05-04T09:05:19Z</time>
      </trkpt>
      <trkpt lat="42.56433" lon="1.98532">
        <ele>2191</ele>
        <time>2011-05-04T09:05:28Z</time>
      </trkpt>
      <trkpt lat="42.56432" lon="1.98523">
        <ele>2191</ele>
        <time>2011-05-04T09:05:37Z</time>
      </trkpt>
      <trkpt lat="42.56433" lon="1.98513">
        <ele>2191</ele>
        <time>2011-05-04T09:06:04Z</time>
      </trkpt>
      <trkpt lat="42.56436" lon="1.98505">
        <ele>2191</ele>
        <time>2011-05-04T09:06:11Z</time>
      </trkpt>
      <trkpt lat="42.56436" lon="1.98496">
        <ele>2192</ele>
        <time>2011-05-04T09:06:19Z</time>
      </trkpt>
      <trkpt lat="42.56433" lon="1.98487">
        <ele>2192</ele>
        <time>2011-05-04T09:06:28Z</time>
      </trkpt>
      <trkpt lat="42.56429" lon="1.98471">
        <ele>2193</ele>
        <time>2011-05-04T09:06:43Z</time>
      </trkpt>
      <trkpt lat="42.56426" lon="1.98462">
        <ele>2194</ele>
        <time>2011-05-04T09:06:50Z</time>
      </trkpt>
      <trkpt lat="42.56424" lon="1.98454">
        <ele>2194</ele>
        <time>2011-05-04T09:06:57Z</time>
      </trkpt>
      <trkpt lat="42.56422" lon="1.98445">
        <ele>2195</ele>
        <time>2011-05-04T09:07:04Z</time>
      </trkpt>
      <trkpt lat="42.56422" lon="1.98437">
        <ele>2195</ele>
        <time>2011-05-04T09:07:22Z</time>
      </trkpt>
      <trkpt lat="42.56425" lon="1.98429">
        <ele>2197</ele>
        <time>2011-05-04T09:10:46Z</time>
      </trkpt>
      <trkpt lat="42.56422" lon="1.9842">
        <ele>2197</ele>
        <time>2011-05-04T09:10:53Z</time>
      </trkpt>
      <trkpt lat="42.56422" lon="1.98411">
        <ele>2198</ele>
        <time>2011-05-04T09:11:00Z</time>
      </trkpt>
      <trkpt lat="42.56422" lon="1.98402">
        <ele>2198</ele>
        <time>2011-05-04T09:11:07Z</time>
      </trkpt>
      <trkpt lat="42.56423" lon="1.98394">
        <ele>2198</ele>
        <time>2011-05-04T09:11:14Z</time>
      </trkpt>
      <trkpt lat="42.56424" lon="1.98384">
        <ele>2198</ele>
        <time>2011-05-04T09:11:21Z</time>
      </trkpt>
      <trkpt lat="42.56424" lon="1.98375">
        <ele>2199</ele>
        <time>2011-05-04T09:11:28Z</time>
      </trkpt>
      <trkpt lat="42.56424" lon="1.98366">
        <ele>2199</ele>
        <time>2011-05-04T09:11:35Z</time>
      </trkpt>
      <trkpt lat="42.56425" lon="1.98356">
        <ele>2199</ele>
        <time>2011-05-04T09:11:42Z</time>
      </trkpt>
      <trkpt lat="42.56427" lon="1.98348">
        <ele>2200</ele>
        <time>2011-05-04T09:11:49Z</time>
      </trkpt>
      <trkpt lat="42.5643" lon="1.9834">
        <ele>2200</ele>
        <time>2011-05-04T09:11:57Z</time>
      </trkpt>
      <trkpt lat="42.56434" lon="1.98333">
        <ele>2201</ele>
        <time>2011-05-04T09:12:04Z</time>
      </trkpt>
      <trkpt lat="42.56438" lon="1.98326">
        <ele>2201</ele>
        <time>2011-05-04T09:12:11Z</time>
      </trkpt>
      <trkpt lat="42.56443" lon="1.9832">
        <ele>2201</ele>
        <time>2011-05-04T09:12:18Z</time>
      </trkpt>
      <trkpt lat="42.56447" lon="1.98313">
        <ele>2202</ele>
        <time>2011-05-04T09:12:25Z</time>
      </trkpt>
      <trkpt lat="42.5645" lon="1.98304">
        <ele>2202</ele>
        <time>2011-05-04T09:12:35Z</time>
      </trkpt>
      <trkpt lat="42.56453" lon="1.98296">
        <ele>2202</ele>
        <time>2011-05-04T09:12:45Z</time>
      </trkpt>
      <trkpt lat="42.56457" lon="1.9829">
        <ele>2202</ele>
        <time>2011-05-04T09:12:57Z</time>
      </trkpt>
      <trkpt lat="42.56463" lon="1.98285">
        <ele>2202</ele>
        <time>2011-05-04T09:13:08Z</time>
      </trkpt>
      <trkpt lat="42.56467" lon="1.98278">
        <ele>2202</ele>
        <time>2011-05-04T09:13:17Z</time>
      </trkpt>
      <trkpt lat="42.56473" lon="1.98273">
        <ele>2202</ele>
        <time>2011-05-04T09:13:27Z</time>
      </trkpt>
      <trkpt lat="42.56479" lon="1.98271">
        <ele>2202</ele>
        <time>2011-05-04T09:13:35Z</time>
      </trkpt>
      <trkpt lat="42.56484" lon="1.98265">
        <ele>2202</ele>
        <time>2011-05-04T09:13:43Z</time>
      </trkpt>
      <trkpt lat="42.56488" lon="1.98258">
        <ele>2203</ele>
        <time>2011-05-04T09:13:52Z</time>
      </trkpt>
      <trkpt lat="42.56492" lon="1.98251">
        <ele>2203</ele>
        <time>2011-05-04T09:14:04Z</time>
      </trkpt>
      <trkpt lat="42.56497" lon="1.98246">
        <ele>2204</ele>
        <time>2011-05-04T09:14:22Z</time>
      </trkpt>
      <trkpt lat="42.56503" lon="1.98242">
        <ele>2204</ele>
        <time>2011-05-04T09:14:38Z</time>
      </trkpt>
      <trkpt lat="42.56509" lon="1.98241">
        <ele>2205</ele>
        <time>2011-05-04T09:14:50Z</time>
      </trkpt>
      <trkpt lat="42.56515" lon="1.98238">
        <ele>2207</ele>
        <time>2011-05-04T09:15:59Z</time>
      </trkpt>
      <trkpt lat="42.56521" lon="1.98233">
        <ele>2208</ele>
        <time>2011-05-04T09:16:07Z</time>
      </trkpt>
      <trkpt lat="42.56525" lon="1.98227">
        <ele>2209</ele>
        <time>2011-05-04T09:16:16Z</time>
      </trkpt>
      <trkpt lat="42.56529" lon="1.9822">
        <ele>2209</ele>
        <time>2011-05-04T09:16:48Z</time>
      </trkpt>
      <trkpt lat="42.56533" lon="1.98212">
        <ele>2210</ele>
        <time>2011-05-04T09:16:57Z</time>
      </trkpt>
      <trkpt lat="42.56536" lon="1.98205">
        <ele>2210</ele>
        <time>2011-05-04T09:17:07Z</time>
      </trkpt>
      <trkpt lat="42.5654" lon="1.98197">
        <ele>2210</ele>
        <time>2011-05-04T09:17:16Z</time>
      </trkpt>
      <trkpt lat="42.56541" lon="1.98189">
        <ele>2210</ele>
        <time>2011-05-04T09:17:27Z</time>
      </trkpt>
      <trkpt lat="42.56542" lon="1.98171">
        <ele>2210</ele>
        <time>2011-05-04T09:17:55Z</time>
      </trkpt>
      <trkpt lat="42.56541" lon="1.98162">
        <ele>2210</ele>
        <time>2011-05-04T09:18:30Z</time>
      </trkpt>
      <trkpt lat="42.56534" lon="1.98147">
        <ele>2211</ele>
        <time>2011-05-04T09:18:50Z</time>
      </trkpt>
      <trkpt lat="42.56531" lon="1.98139">
        <ele>2211</ele>
        <time>2011-05-04T09:18:57Z</time>
      </trkpt>
      <trkpt lat="42.56528" lon="1.98131">
        <ele>2211</ele>
        <time>2011-05-04T09:19:04Z</time>
      </trkpt>
      <trkpt lat="42.56526" lon="1.98122">
        <ele>2211</ele>
        <time>2011-05-04T09:19:12Z</time>
      </trkpt>
      <trkpt lat="42.56521" lon="1.98115">
        <ele>2211</ele>
        <time>2011-05-04T09:19:22Z</time>
      </trkpt>
      <trkpt lat="42.56518" lon="1.98108">
        <ele>2212</ele>
        <time>2011-05-04T09:19:31Z</time>
      </trkpt>
      <trkpt lat="42.56513" lon="1.98092">
        <ele>2213</ele>
        <time>2011-05-04T09:19:52Z</time>
      </trkpt>
      <trkpt lat="42.56509" lon="1.98085">
        <ele>2213</ele>
        <time>2011-05-04T09:20:21Z</time>
      </trkpt>
      <trkpt lat="42.56504" lon="1.98078">
        <ele>2212</ele>
        <time>2011-05-04T09:21:15Z</time>
      </trkpt>
      <trkpt lat="42.56501" lon="1.9807">
        <ele>2212</ele>
        <time>2011-05-04T09:21:22Z</time>
      </trkpt>
      <trkpt lat="42.56499" lon="1.98062">
        <ele>2212</ele>
        <time>2011-05-04T09:21:30Z</time>
      </trkpt>
      <trkpt lat="42.56498" lon="1.98053">
        <ele>2212</ele>
        <time>2011-05-04T09:21:37Z</time>
      </trkpt>
      <trkpt lat="42.56499" lon="1.98044">
        <ele>2212</ele>
        <time>2011-05-04T09:21:43Z</time>
      </trkpt>
      <trkpt lat="42.565" lon="1.98035">
        <ele>2213</ele>
        <time>2011-05-04T09:21:49Z</time>
      </trkpt>
      <trkpt lat="42.56499" lon="1.98026">
        <ele>2213</ele>
        <time>2011-05-04T09:21:56Z</time>
      </trkpt>
      <trkpt lat="42.56496" lon="1.98018">
        <ele>2214</ele>
        <time>2011-05-04T09:22:04Z</time>
      </trkpt>
      <trkpt lat="42.56495" lon="1.98009">
        <ele>2214</ele>
        <time>2011-05-04T09:22:12Z</time>
      </trkpt>
      <trkpt lat="42.56495" lon="1.98001">
        <ele>2215</ele>
        <time>2011-05-04T09:22:19Z</time>
      </trkpt>
      <trkpt lat="42.56493" lon="1.97992">
        <ele>2215</ele>
        <time>2011-05-04T09:22:27Z</time>
      </trkpt>
      <trkpt lat="42.56491" lon="1.97982">
        <ele>2216</ele>
        <time>2011-05-04T09:22:35Z</time>
      </trkpt>
      <trkpt lat="42.56486" lon="1.97977">
        <ele>2217</ele>
        <time>2011-05-04T09:22:48Z</time>
      </trkpt>
      <trkpt lat="42.5648" lon="1.97981">
        <ele>2217</ele>
        <time>2011-05-04T09:23:01Z</time>
      </trkpt>
      <trkpt lat="42.56475" lon="1.97976">
        <ele>2218</ele>
        <time>2011-05-04T09:23:18Z</time>
      </trkpt>
      <trkpt lat="42.56473" lon="1.97967">
        <ele>2219</ele>
        <time>2011-05-04T09:23:31Z</time>
      </trkpt>
      <trkpt lat="42.5647" lon="1.97958">
        <ele>2219</ele>
        <time>2011-05-04T09:23:39Z</time>
      </trkpt>
      <trkpt lat="42.5647" lon="1.97949">
        <ele>2220</ele>
        <time>2011-05-04T09:24:00Z</time>
      </trkpt>
      <trkpt lat="42.5647" lon="1.9794">
        <ele>2220</ele>
        <time>2011-05-04T09:24:10Z</time>
      </trkpt>
      <trkpt lat="42.56472" lon="1.97932">
        <ele>2221</ele>
        <time>2011-05-04T09:24:27Z</time>
      </trkpt>
      <trkpt lat="42.56466" lon="1.97928">
        <ele>2221</ele>
        <time>2011-05-04T09:24:57Z</time>
      </trkpt>
      <trkpt lat="42.5646" lon="1.97925">
        <ele>2221</ele>
        <time>2011-05-04T09:25:05Z</time>
      </trkpt>
      <trkpt lat="42.56458" lon="1.97917">
        <ele>2221</ele>
        <time>2011-05-04T09:25:21Z</time>
      </trkpt>
      <trkpt lat="42.56458" lon="1.97908">
        <ele>2222</ele>
        <time>2011-05-04T09:25:41Z</time>
      </trkpt>
      <trkpt lat="42.5646" lon="1.97899">
        <ele>2223</ele>
        <time>2011-05-04T09:26:04Z</time>
      </trkpt>
      <trkpt lat="42.56461" lon="1.9789">
        <ele>2224</ele>
        <time>2011-05-04T09:26:13Z</time>
      </trkpt>
      <trkpt lat="42.56464" lon="1.97883">
        <ele>2223</ele>
        <time>2011-05-04T09:26:39Z</time>
      </trkpt>
      <trkpt lat="42.56469" lon="1.97876">
        <ele>2222</ele>
        <time>2011-05-04T09:27:05Z</time>
      </trkpt>
      <trkpt lat="42.56471" lon="1.97868">
        <ele>2221</ele>
        <time>2011-05-04T09:27:14Z</time>
      </trkpt>
      <trkpt lat="42.56475" lon="1.9786">
        <ele>2221</ele>
        <time>2011-05-04T09:27:23Z</time>
      </trkpt>
      <trkpt lat="42.56476" lon="1.9785">
        <ele>2220</ele>
        <time>2011-05-04T09:29:12Z</time>
      </trkpt>
      <trkpt lat="42.56473" lon="1.97841">
        <ele>2220</ele>
        <time>2011-05-04T09:29:19Z</time>
      </trkpt>
      <trkpt lat="42.56467" lon="1.97825">
        <ele>2220</ele>
        <time>2011-05-04T09:29:34Z</time>
      </trkpt>
      <trkpt lat="42.56462" lon="1.97818">
        <ele>2220</ele>
        <time>2011-05-04T09:29:43Z</time>
      </trkpt>
      <trkpt lat="42.5646" lon="1.9781">
        <ele>2221</ele>
        <time>2011-05-04T09:29:59Z</time>
      </trkpt>
      <trkpt lat="42.56458" lon="1.97801">
        <ele>2221</ele>
        <time>2011-05-04T09:30:11Z</time>
      </trkpt>
      <trkpt lat="42.56454" lon="1.97793">
        <ele>2221</ele>
        <time>2011-05-04T09:30:23Z</time>
      </trkpt>
      <trkpt lat="42.56454" lon="1.97785">
        <ele>2221</ele>
        <time>2011-05-04T09:31:09Z</time>
      </trkpt>
      <trkpt lat="42.56456" lon="1.97776">
        <ele>2220</ele>
        <time>2011-05-04T09:31:21Z</time>
      </trkpt>
      <trkpt lat="42.56454" lon="1.97767">
        <ele>2220</ele>
        <time>2011-05-04T09:31:33Z</time>
      </trkpt>
      <trkpt lat="42.56453" lon="1.97758">
        <ele>2219</ele>
        <time>2011-05-04T09:31:48Z</time>
      </trkpt>
      <trkpt lat="42.56453" lon="1.97749">
        <ele>2219</ele>
        <time>2011-05-04T09:32:03Z</time>
      </trkpt>
      <trkpt lat="42.5645" lon="1.97741">
        <ele>2219</ele>
        <time>2011-05-04T09:32:13Z</time>
      </trkpt>
      <trkpt lat="42.56447" lon="1.97734">
        <ele>2219</ele>
        <time>2011-05-04T09:32:20Z</time>
      </trkpt>
      <trkpt lat="42.56444" lon="1.97725">
        <ele>2219</ele>
        <time>2011-05-04T09:32:27Z</time>
      </trkpt>
      <trkpt lat="42.56445" lon="1.97717">
        <ele>2219</ele>
        <time>2011-05-04T09:32:53Z</time>
      </trkpt>
      <trkpt lat="42.56448" lon="1.97709">
        <ele>2218</ele>
        <time>2011-05-04T09:33:01Z</time>
      </trkpt>
      <trkpt lat="42.56451" lon="1.97701">
        <ele>2218</ele>
        <time>2011-05-04T09:33:08Z</time>
      </trkpt>
      <trkpt lat="42.56452" lon="1.97692">
        <ele>2218</ele>
        <time>2011-05-04T09:33:15Z</time>
      </trkpt>
      <trkpt lat="42.56455" lon="1.97683">
        <ele>2218</ele>
        <time>2011-05-04T09:33:22Z</time>
      </trkpt>
      <trkpt lat="42.56457" lon="1.97675">
        <ele>2218</ele>
        <time>2011-05-04T09:33:30Z</time>
      </trkpt>
      <trkpt lat="42.56458" lon="1.97666">
        <ele>2218</ele>
        <time>2011-05-04T09:33:39Z</time>
      </trkpt>
      <trkpt lat="42.56461" lon="1.97658">
        <ele>2218</ele>
        <time>2011-05-04T09:33:58Z</time>
      </trkpt>
      <trkpt lat="42.56461" lon="1.97649">
        <ele>2218</ele>
        <time>2011-05-04T09:34:09Z</time>
      </trkpt>
      <trkpt lat="42.56463" lon="1.97641">
        <ele>2219</ele>
        <time>2011-05-04T09:34:20Z</time>
      </trkpt>
      <trkpt lat="42.56467" lon="1.97634">
        <ele>2219</ele>
        <time>2011-05-04T09:34:29Z</time>
      </trkpt>
      <trkpt lat="42.56474" lon="1.97634">
        <ele>2219</ele>
        <time>2011-05-04T09:34:47Z</time>
      </trkpt>
      <trkpt lat="42.56476" lon="1.97625">
        <ele>2219</ele>
        <time>2011-05-04T09:35:01Z</time>
      </trkpt>
      <trkpt lat="42.56479" lon="1.97617">
        <ele>2219</ele>
        <time>2011-05-04T09:35:11Z</time>
      </trkpt>
      <trkpt lat="42.56482" lon="1.97609">
        <ele>2219</ele>
        <time>2011-05-04T09:35:18Z</time>
      </trkpt>
      <trkpt lat="42.56483" lon="1.97601">
        <ele>2219</ele>
        <time>2011-05-04T09:35:25Z</time>
      </trkpt>
      <trkpt lat="42.56483" lon="1.97591">
        <ele>2219</ele>
        <time>2011-05-04T09:35:33Z</time>
      </trkpt>
      <trkpt lat="42.56484" lon="1.97582">
        <ele>2219</ele>
        <time>2011-05-04T09:35:41Z</time>
      </trkpt>
      <trkpt lat="42.56486" lon="1.97573">
        <ele>2219</ele>
        <time>2011-05-04T09:35:50Z</time>
      </trkpt>
      <trkpt lat="42.56492" lon="1.97568">
        <ele>2219</ele>
        <time>2011-05-04T09:36:09Z</time>
      </trkpt>
      <trkpt lat="42.56497" lon="1.97563">
        <ele>2219</ele>
        <time>2011-05-04T09:36:21Z</time>
      </trkpt>
      <trkpt lat="42.56502" lon="1.97558">
        <ele>2219</ele>
        <time>2011-05-04T09:37:05Z</time>
      </trkpt>
      <trkpt lat="42.56508" lon="1.97553">
        <ele>2220</ele>
        <time>2011-05-04T09:37:16Z</time>
      </trkpt>
      <trkpt lat="42.56516" lon="1.97541">
        <ele>2220</ele>
        <time>2011-05-04T09:37:59Z</time>
      </trkpt>
      <trkpt lat="42.5652" lon="1.97534">
        <ele>2220</ele>
        <time>2011-05-04T09:38:13Z</time>
      </trkpt>
      <trkpt lat="42.56524" lon="1.97527">
        <ele>2220</ele>
        <time>2011-05-04T09:38:23Z</time>
      </trkpt>
      <trkpt lat="42.56524" lon="1.97518">
        <ele>2219</ele>
        <time>2011-05-04T09:38:39Z</time>
      </trkpt>
      <trkpt lat="42.56528" lon="1.97512">
        <ele>2219</ele>
        <time>2011-05-04T09:38:51Z</time>
      </trkpt>
      <trkpt lat="42.56532" lon="1.97505">
        <ele>2219</ele>
        <time>2011-05-04T09:38:59Z</time>
      </trkpt>
      <trkpt lat="42.5653" lon="1.97496">
        <ele>2220</ele>
        <time>2011-05-04T09:39:16Z</time>
      </trkpt>
      <trkpt lat="42.56528" lon="1.97488">
        <ele>2221</ele>
        <time>2011-05-04T09:39:30Z</time>
      </trkpt>
      <trkpt lat="42.56528" lon="1.97479">
        <ele>2221</ele>
        <time>2011-05-04T09:39:46Z</time>
      </trkpt>
      <trkpt lat="42.56527" lon="1.97471">
        <ele>2221</ele>
        <time>2011-05-04T09:40:45Z</time>
      </trkpt>
      <trkpt lat="42.56525" lon="1.97479">
        <ele>2221</ele>
        <time>2011-05-04T09:41:34Z</time>
      </trkpt>
      <trkpt lat="42.56528" lon="1.97487">
        <ele>2222</ele>
        <time>2011-05-04T09:41:53Z</time>
      </trkpt>
      <trkpt lat="42.56533" lon="1.97493">
        <ele>2222</ele>
        <time>2011-05-04T09:42:02Z</time>
      </trkpt>
      <trkpt lat="42.56538" lon="1.97488">
        <ele>2222</ele>
        <time>2011-05-04T09:42:12Z</time>
      </trkpt>
      <trkpt lat="42.56545" lon="1.97489">
        <ele>2222</ele>
        <time>2011-05-04T09:42:21Z</time>
      </trkpt>
      <trkpt lat="42.56538" lon="1.97488">
        <ele>2222</ele>
        <time>2011-05-04T09:43:12Z</time>
      </trkpt>
      <trkpt lat="42.56532" lon="1.97491">
        <ele>2222</ele>
        <time>2011-05-04T09:43:25Z</time>
      </trkpt>
      <trkpt lat="42.56528" lon="1.97484">
        <ele>2222</ele>
        <time>2011-05-04T09:43:48Z</time>
      </trkpt>
      <trkpt lat="42.56525" lon="1.97477">
        <ele>2222</ele>
        <time>2011-05-04T09:43:56Z</time>
      </trkpt>
      <trkpt lat="42.56527" lon="1.97468">
        <ele>2223</ele>
        <time>2011-05-04T09:44:13Z</time>
      </trkpt>
      <trkpt lat="42.56532" lon="1.97463">
        <ele>2223</ele>
        <time>2011-05-04T09:44:26Z</time>
      </trkpt>
      <trkpt lat="42.56536" lon="1.97455">
        <ele>2223</ele>
        <time>2011-05-04T09:44:45Z</time>
      </trkpt>
      <trkpt lat="42.5654" lon="1.97448">
        <ele>2223</ele>
        <time>2011-05-04T09:44:55Z</time>
      </trkpt>
      <trkpt lat="42.56546" lon="1.97444">
        <ele>2224</ele>
        <time>2011-05-04T09:45:03Z</time>
      </trkpt>
      <trkpt lat="42.56552" lon="1.97443">
        <ele>2224</ele>
        <time>2011-05-04T09:45:12Z</time>
      </trkpt>
      <trkpt lat="42.56558" lon="1.97438">
        <ele>2224</ele>
        <time>2011-05-04T09:45:39Z</time>
      </trkpt>
      <trkpt lat="42.5656" lon="1.9743">
        <ele>2225</ele>
        <time>2011-05-04T09:45:50Z</time>
      </trkpt>
      <trkpt lat="42.56564" lon="1.97422">
        <ele>2225</ele>
        <time>2011-05-04T09:46:02Z</time>
      </trkpt>
      <trkpt lat="42.56569" lon="1.97418">
        <ele>2225</ele>
        <time>2011-05-04T09:46:10Z</time>
      </trkpt>
      <trkpt lat="42.56574" lon="1.97412">
        <ele>2226</ele>
        <time>2011-05-04T09:46:20Z</time>
      </trkpt>
      <trkpt lat="42.56581" lon="1.97407">
        <ele>2227</ele>
        <time>2011-05-04T09:46:36Z</time>
      </trkpt>
      <trkpt lat="42.56585" lon="1.974">
        <ele>2228</ele>
        <time>2011-05-04T09:47:08Z</time>
      </trkpt>
      <trkpt lat="42.56588" lon="1.97393">
        <ele>2229</ele>
        <time>2011-05-04T09:47:18Z</time>
      </trkpt>
      <trkpt lat="42.56593" lon="1.97387">
        <ele>2231</ele>
        <time>2011-05-04T09:47:56Z</time>
      </trkpt>
      <trkpt lat="42.56599" lon="1.97382">
        <ele>2231</ele>
        <time>2011-05-04T09:48:04Z</time>
      </trkpt>
      <trkpt lat="42.56604" lon="1.97376">
        <ele>2232</ele>
        <time>2011-05-04T09:48:18Z</time>
      </trkpt>
      <trkpt lat="42.56609" lon="1.9737">
        <ele>2233</ele>
        <time>2011-05-04T09:48:26Z</time>
      </trkpt>
      <trkpt lat="42.56615" lon="1.97365">
        <ele>2233</ele>
        <time>2011-05-04T09:49:21Z</time>
      </trkpt>
      <trkpt lat="42.56618" lon="1.97357">
        <ele>2234</ele>
        <time>2011-05-04T09:49:29Z</time>
      </trkpt>
      <trkpt lat="42.56622" lon="1.97351">
        <ele>2235</ele>
        <time>2011-05-04T09:49:36Z</time>
      </trkpt>
      <trkpt lat="42.56626" lon="1.97344">
        <ele>2235</ele>
        <time>2011-05-04T09:49:43Z</time>
      </trkpt>
      <trkpt lat="42.56632" lon="1.97338">
        <ele>2237</ele>
        <time>2011-05-04T09:50:45Z</time>
      </trkpt>
      <trkpt lat="42.56637" lon="1.97333">
        <ele>2238</ele>
        <time>2011-05-04T09:50:53Z</time>
      </trkpt>
      <trkpt lat="42.56642" lon="1.97328">
        <ele>2239</ele>
        <time>2011-05-04T09:51:00Z</time>
      </trkpt>
      <trkpt lat="42.56646" lon="1.9732">
        <ele>2241</ele>
        <time>2011-05-04T09:53:45Z</time>
      </trkpt>
      <trkpt lat="42.56652" lon="1.97316">
        <ele>2241</ele>
        <time>2011-05-04T09:53:51Z</time>
      </trkpt>
      <trkpt lat="42.56658" lon="1.97311">
        <ele>2242</ele>
        <time>2011-05-04T09:53:57Z</time>
      </trkpt>
      <trkpt lat="42.56663" lon="1.97305">
        <ele>2242</ele>
        <time>2011-05-04T09:54:03Z</time>
      </trkpt>
      <trkpt lat="42.56668" lon="1.973">
        <ele>2242</ele>
        <time>2011-05-04T09:54:09Z</time>
      </trkpt>
      <trkpt lat="42.56674" lon="1.97296">
        <ele>2242</ele>
        <time>2011-05-04T09:54:15Z</time>
      </trkpt>
      <trkpt lat="42.5668" lon="1.97293">
        <ele>2242</ele>
        <time>2011-05-04T09:54:22Z</time>
      </trkpt>
      <trkpt lat="42.56686" lon="1.9729">
        <ele>2243</ele>
        <time>2011-05-04T09:54:29Z</time>
      </trkpt>
      <trkpt lat="42.56693" lon="1.97288">
        <ele>2243</ele>
        <time>2011-05-04T09:54:36Z</time>
      </trkpt>
      <trkpt lat="42.56701" lon="1.97287">
        <ele>2244</ele>
        <time>2011-05-04T09:54:42Z</time>
      </trkpt>
      <trkpt lat="42.56707" lon="1.97289">
        <ele>2245</ele>
        <time>2011-05-04T09:55:18Z</time>
      </trkpt>
      <trkpt lat="42.56714" lon="1.97289">
        <ele>2246</ele>
        <time>2011-05-04T09:55:24Z</time>
      </trkpt>
      <trkpt lat="42.5672" lon="1.97287">
        <ele>2246</ele>
        <time>2011-05-04T09:55:30Z</time>
      </trkpt>
      <trkpt lat="42.56727" lon="1.97289">
        <ele>2247</ele>
        <time>2011-05-04T09:55:36Z</time>
      </trkpt>
      <trkpt lat="42.56734" lon="1.97289">
        <ele>2247</ele>
        <time>2011-05-04T09:55:42Z</time>
      </trkpt>
      <trkpt lat="42.5674" lon="1.97288">
        <ele>2248</ele>
        <time>2011-05-04T09:55:49Z</time>
      </trkpt>
      <trkpt lat="42.56747" lon="1.9729">
        <ele>2248</ele>
        <time>2011-05-04T09:55:59Z</time>
      </trkpt>
      <trkpt lat="42.56753" lon="1.97292">
        <ele>2249</ele>
        <time>2011-05-04T09:56:07Z</time>
      </trkpt>
      <trkpt lat="42.56759" lon="1.97286">
        <ele>2249</ele>
        <time>2011-05-04T09:56:14Z</time>
      </trkpt>
      <trkpt lat="42.56764" lon="1.97281">
        <ele>2250</ele>
        <time>2011-05-04T09:56:21Z</time>
      </trkpt>
      <trkpt lat="42.56769" lon="1.97275">
        <ele>2250</ele>
        <time>2011-05-04T09:56:27Z</time>
      </trkpt>
      <trkpt lat="42.56775" lon="1.9727">
        <ele>2251</ele>
        <time>2011-05-04T09:56:34Z</time>
      </trkpt>
      <trkpt lat="42.5678" lon="1.97263">
        <ele>2251</ele>
        <time>2011-05-04T09:56:41Z</time>
      </trkpt>
      <trkpt lat="42.56784" lon="1.97256">
        <ele>2252</ele>
        <time>2011-05-04T09:56:49Z</time>
      </trkpt>
      <trkpt lat="42.5679" lon="1.9725">
        <ele>2252</ele>
        <time>2011-05-04T09:56:56Z</time>
      </trkpt>
      <trkpt lat="42.56795" lon="1.97244">
        <ele>2252</ele>
        <time>2011-05-04T09:57:03Z</time>
      </trkpt>
      <trkpt lat="42.568" lon="1.97238">
        <ele>2252</ele>
        <time>2011-05-04T09:57:10Z</time>
      </trkpt>
      <trkpt lat="42.56806" lon="1.97232">
        <ele>2253</ele>
        <time>2011-05-04T09:57:18Z</time>
      </trkpt>
      <trkpt lat="42.5681" lon="1.97225">
        <ele>2253</ele>
        <time>2011-05-04T09:57:25Z</time>
      </trkpt>
      <trkpt lat="42.56816" lon="1.97224">
        <ele>2253</ele>
        <time>2011-05-04T09:57:33Z</time>
      </trkpt>
      <trkpt lat="42.56821" lon="1.97218">
        <ele>2254</ele>
        <time>2011-05-04T09:57:43Z</time>
      </trkpt>
      <trkpt lat="42.56827" lon="1.97214">
        <ele>2255</ele>
        <time>2011-05-04T09:57:52Z</time>
      </trkpt>
      <trkpt lat="42.56832" lon="1.97209">
        <ele>2255</ele>
        <time>2011-05-04T09:58:00Z</time>
      </trkpt>
      <trkpt lat="42.56837" lon="1.97202">
        <ele>2255</ele>
        <time>2011-05-04T09:58:08Z</time>
      </trkpt>
      <trkpt lat="42.56841" lon="1.97195">
        <ele>2256</ele>
        <time>2011-05-04T09:58:17Z</time>
      </trkpt>
      <trkpt lat="42.56848" lon="1.97195">
        <ele>2258</ele>
        <time>2011-05-04T09:58:50Z</time>
      </trkpt>
      <trkpt lat="42.56854" lon="1.97193">
        <ele>2259</ele>
        <time>2011-05-04T09:59:03Z</time>
      </trkpt>
      <trkpt lat="42.5686" lon="1.97188">
        <ele>2259</ele>
        <time>2011-05-04T09:59:11Z</time>
      </trkpt>
      <trkpt lat="42.56865" lon="1.97181">
        <ele>2260</ele>
        <time>2011-05-04T09:59:19Z</time>
      </trkpt>
      <trkpt lat="42.56872" lon="1.97179">
        <ele>2261</ele>
        <time>2011-05-04T09:59:29Z</time>
      </trkpt>
      <trkpt lat="42.56878" lon="1.97177">
        <ele>2262</ele>
        <time>2011-05-04T10:00:08Z</time>
      </trkpt>
      <trkpt lat="42.56884" lon="1.97173">
        <ele>2263</ele>
        <time>2011-05-04T10:00:15Z</time>
      </trkpt>
      <trkpt lat="42.56889" lon="1.97167">
        <ele>2264</ele>
        <time>2011-05-04T10:00:24Z</time>
      </trkpt>
      <trkpt lat="42.56895" lon="1.97164">
        <ele>2264</ele>
        <time>2011-05-04T10:00:32Z</time>
      </trkpt>
      <trkpt lat="42.56902" lon="1.9716">
        <ele>2265</ele>
        <time>2011-05-04T10:00:42Z</time>
      </trkpt>
      <trkpt lat="42.56907" lon="1.97154">
        <ele>2266</ele>
        <time>2011-05-04T10:00:51Z</time>
      </trkpt>
      <trkpt lat="42.5691" lon="1.97146">
        <ele>2267</ele>
        <time>2011-05-04T10:01:00Z</time>
      </trkpt>
      <trkpt lat="42.56917" lon="1.97143">
        <ele>2268</ele>
        <time>2011-05-04T10:01:17Z</time>
      </trkpt>
      <trkpt lat="42.56922" lon="1.97139">
        <ele>2269</ele>
        <time>2011-05-04T10:01:24Z</time>
      </trkpt>
      <trkpt lat="42.56926" lon="1.97131">
        <ele>2270</ele>
        <time>2011-05-04T10:01:32Z</time>
      </trkpt>
      <trkpt lat="42.56931" lon="1.97127">
        <ele>2271</ele>
        <time>2011-05-04T10:01:42Z</time>
      </trkpt>
      <trkpt lat="42.56938" lon="1.97126">
        <ele>2272</ele>
        <time>2011-05-04T10:03:12Z</time>
      </trkpt>
      <trkpt lat="42.56944" lon="1.97122">
        <ele>2273</ele>
        <time>2011-05-04T10:03:21Z</time>
      </trkpt>
      <trkpt lat="42.56951" lon="1.97119">
        <ele>2275</ele>
        <time>2011-05-04T10:03:30Z</time>
      </trkpt>
      <trkpt lat="42.56957" lon="1.97117">
        <ele>2275</ele>
        <time>2011-05-04T10:03:38Z</time>
      </trkpt>
      <trkpt lat="42.56964" lon="1.97115">
        <ele>2276</ele>
        <time>2011-05-04T10:03:46Z</time>
      </trkpt>
      <trkpt lat="42.5697" lon="1.97111">
        <ele>2277</ele>
        <time>2011-05-04T10:03:54Z</time>
      </trkpt>
      <trkpt lat="42.56975" lon="1.97105">
        <ele>2278</ele>
        <time>2011-05-04T10:04:02Z</time>
      </trkpt>
      <trkpt lat="42.56981" lon="1.97105">
        <ele>2280</ele>
        <time>2011-05-04T10:04:20Z</time>
      </trkpt>
      <trkpt lat="42.56987" lon="1.97101">
        <ele>2280</ele>
        <time>2011-05-04T10:04:27Z</time>
      </trkpt>
      <trkpt lat="42.56993" lon="1.97099">
        <ele>2282</ele>
        <time>2011-05-04T10:05:30Z</time>
      </trkpt>
      <trkpt lat="42.57" lon="1.97099">
        <ele>2285</ele>
        <time>2011-05-04T10:10:07Z</time>
      </trkpt>
      <trkpt lat="42.57007" lon="1.97097">
        <ele>2285</ele>
        <time>2011-05-04T10:10:14Z</time>
      </trkpt>
      <trkpt lat="42.57013" lon="1.97094">
        <ele>2286</ele>
        <time>2011-05-04T10:10:22Z</time>
      </trkpt>
      <trkpt lat="42.5702" lon="1.97091">
        <ele>2286</ele>
        <time>2011-05-04T10:10:30Z</time>
      </trkpt>
      <trkpt lat="42.57027" lon="1.97089">
        <ele>2287</ele>
        <time>2011-05-04T10:10:38Z</time>
      </trkpt>
      <trkpt lat="42.57033" lon="1.97088">
        <ele>2288</ele>
        <time>2011-05-04T10:10:46Z</time>
      </trkpt>
      <trkpt lat="42.5704" lon="1.97087">
        <ele>2288</ele>
        <time>2011-05-04T10:10:53Z</time>
      </trkpt>
      <trkpt lat="42.57047" lon="1.97085">
        <ele>2288</ele>
        <time>2011-05-04T10:11:00Z</time>
      </trkpt>
      <trkpt lat="42.57053" lon="1.97082">
        <ele>2289</ele>
        <time>2011-05-04T10:11:07Z</time>
      </trkpt>
      <trkpt lat="42.57059" lon="1.97079">
        <ele>2289</ele>
        <time>2011-05-04T10:11:14Z</time>
      </trkpt>
      <trkpt lat="42.57066" lon="1.97078">
        <ele>2289</ele>
        <time>2011-05-04T10:11:22Z</time>
      </trkpt>
      <trkpt lat="42.57072" lon="1.97078">
        <ele>2290</ele>
        <time>2011-05-04T10:11:30Z</time>
      </trkpt>
      <trkpt lat="42.57079" lon="1.97075">
        <ele>2290</ele>
        <time>2011-05-04T10:11:38Z</time>
      </trkpt>
      <trkpt lat="42.57085" lon="1.97072">
        <ele>2290</ele>
        <time>2011-05-04T10:11:45Z</time>
      </trkpt>
      <trkpt lat="42.57091" lon="1.9707">
        <ele>2290</ele>
        <time>2011-05-04T10:11:51Z</time>
      </trkpt>
      <trkpt lat="42.57098" lon="1.97068">
        <ele>2291</ele>
        <time>2011-05-04T10:11:57Z</time>
      </trkpt>
      <trkpt lat="42.57104" lon="1.97064">
        <ele>2291</ele>
        <time>2011-05-04T10:12:04Z</time>
      </trkpt>
      <trkpt lat="42.57111" lon="1.97061">
        <ele>2291</ele>
        <time>2011-05-04T10:12:11Z</time>
      </trkpt>
      <trkpt lat="42.57118" lon="1.97058">
        <ele>2291</ele>
        <time>2011-05-04T10:12:17Z</time>
      </trkpt>
      <trkpt lat="42.57124" lon="1.97055">
        <ele>2291</ele>
        <time>2011-05-04T10:12:24Z</time>
      </trkpt>
      <trkpt lat="42.5713" lon="1.9705">
        <ele>2292</ele>
        <time>2011-05-04T10:12:31Z</time>
      </trkpt>
      <trkpt lat="42.57137" lon="1.97046">
        <ele>2292</ele>
        <time>2011-05-04T10:12:55Z</time>
      </trkpt>
      <trkpt lat="42.57142" lon="1.97041">
        <ele>2292</ele>
        <time>2011-05-04T10:13:01Z</time>
      </trkpt>
      <trkpt lat="42.57147" lon="1.97034">
        <ele>2292</ele>
        <time>2011-05-04T10:13:07Z</time>
      </trkpt>
      <trkpt lat="42.57153" lon="1.97028">
        <ele>2292</ele>
        <time>2011-05-04T10:13:13Z</time>
      </trkpt>
      <trkpt lat="42.57158" lon="1.97022">
        <ele>2292</ele>
        <time>2011-05-04T10:13:19Z</time>
      </trkpt>
      <trkpt lat="42.57163" lon="1.97017">
        <ele>2293</ele>
        <time>2011-05-04T10:13:25Z</time>
      </trkpt>
      <trkpt lat="42.57169" lon="1.97011">
        <ele>2293</ele>
        <time>2011-05-04T10:13:31Z</time>
      </trkpt>
      <trkpt lat="42.57173" lon="1.97004">
        <ele>2293</ele>
        <time>2011-05-04T10:13:37Z</time>
      </trkpt>
      <trkpt lat="42.57178" lon="1.96998">
        <ele>2293</ele>
        <time>2011-05-04T10:13:43Z</time>
      </trkpt>
      <trkpt lat="42.57183" lon="1.96991">
        <ele>2293</ele>
        <time>2011-05-04T10:13:50Z</time>
      </trkpt>
      <trkpt lat="42.57188" lon="1.96985">
        <ele>2293</ele>
        <time>2011-05-04T10:13:57Z</time>
      </trkpt>
      <trkpt lat="42.57193" lon="1.96979">
        <ele>2294</ele>
        <time>2011-05-04T10:14:04Z</time>
      </trkpt>
      <trkpt lat="42.57199" lon="1.96974">
        <ele>2294</ele>
        <time>2011-05-04T10:14:11Z</time>
      </trkpt>
      <trkpt lat="42.57204" lon="1.96969">
        <ele>2293</ele>
        <time>2011-05-04T10:14:18Z</time>
      </trkpt>
      <trkpt lat="42.5721" lon="1.96965">
        <ele>2293</ele>
        <time>2011-05-04T10:14:30Z</time>
      </trkpt>
      <trkpt lat="42.57215" lon="1.9696">
        <ele>2293</ele>
        <time>2011-05-04T10:14:41Z</time>
      </trkpt>
      <trkpt lat="42.5722" lon="1.96954">
        <ele>2292</ele>
        <time>2011-05-04T10:16:55Z</time>
      </trkpt>
      <trkpt lat="42.57226" lon="1.96949">
        <ele>2292</ele>
        <time>2011-05-04T10:17:03Z</time>
      </trkpt>
      <trkpt lat="42.57232" lon="1.96943">
        <ele>2291</ele>
        <time>2011-05-04T10:17:12Z</time>
      </trkpt>
      <trkpt lat="42.57237" lon="1.96938">
        <ele>2291</ele>
        <time>2011-05-04T10:17:23Z</time>
      </trkpt>
      <trkpt lat="42.57241" lon="1.96932">
        <ele>2290</ele>
        <time>2011-05-04T10:17:43Z</time>
      </trkpt>
      <trkpt lat="42.57243" lon="1.96923">
        <ele>2290</ele>
        <time>2011-05-04T10:17:53Z</time>
      </trkpt>
      <trkpt lat="42.5725" lon="1.96921">
        <ele>2289</ele>
        <time>2011-05-04T10:18:28Z</time>
      </trkpt>
      <trkpt lat="42.57257" lon="1.9692">
        <ele>2288</ele>
        <time>2011-05-04T10:18:37Z</time>
      </trkpt>
      <trkpt lat="42.57261" lon="1.96912">
        <ele>2288</ele>
        <time>2011-05-04T10:18:47Z</time>
      </trkpt>
      <trkpt lat="42.57266" lon="1.96906">
        <ele>2288</ele>
        <time>2011-05-04T10:18:57Z</time>
      </trkpt>
      <trkpt lat="42.5727" lon="1.96899">
        <ele>2288</ele>
        <time>2011-05-04T10:19:07Z</time>
      </trkpt>
      <trkpt lat="42.57276" lon="1.96894">
        <ele>2287</ele>
        <time>2011-05-04T10:19:17Z</time>
      </trkpt>
      <trkpt lat="42.57282" lon="1.96891">
        <ele>2287</ele>
        <time>2011-05-04T10:19:25Z</time>
      </trkpt>
      <trkpt lat="42.57289" lon="1.9689">
        <ele>2287</ele>
        <time>2011-05-04T10:19:35Z</time>
      </trkpt>
      <trkpt lat="42.57295" lon="1.96887">
        <ele>2286</ele>
        <time>2011-05-04T10:19:49Z</time>
      </trkpt>
      <trkpt lat="42.57297" lon="1.96879">
        <ele>2286</ele>
        <time>2011-05-04T10:20:07Z</time>
      </trkpt>
      <trkpt lat="42.57301" lon="1.96872">
        <ele>2284</ele>
        <time>2011-05-04T10:20:35Z</time>
      </trkpt>
      <trkpt lat="42.57304" lon="1.96864">
        <ele>2283</ele>
        <time>2011-05-04T10:20:53Z</time>
      </trkpt>
      <trkpt lat="42.57305" lon="1.96856">
        <ele>2282</ele>
        <time>2011-05-04T10:21:05Z</time>
      </trkpt>
      <trkpt lat="42.57304" lon="1.96846">
        <ele>2281</ele>
        <time>2011-05-04T10:21:18Z</time>
      </trkpt>
      <trkpt lat="42.57307" lon="1.96839">
        <ele>2280</ele>
        <time>2011-05-04T10:21:31Z</time>
      </trkpt>
      <trkpt lat="42.57307" lon="1.9683">
        <ele>2279</ele>
        <time>2011-05-04T10:21:58Z</time>
      </trkpt>
      <trkpt lat="42.5731" lon="1.96821">
        <ele>2278</ele>
        <time>2011-05-04T10:22:08Z</time>
      </trkpt>
      <trkpt lat="42.5731" lon="1.96812">
        <ele>2278</ele>
        <time>2011-05-04T10:22:32Z</time>
      </trkpt>
      <trkpt lat="42.57307" lon="1.96804">
        <ele>2278</ele>
        <time>2011-05-04T10:23:21Z</time>
      </trkpt>
      <trkpt lat="42.57309" lon="1.96796">
        <ele>2278</ele>
        <time>2011-05-04T10:23:31Z</time>
      </trkpt>
      <trkpt lat="42.57314" lon="1.9679">
        <ele>2278</ele>
        <time>2011-05-04T10:23:40Z</time>
      </trkpt>
      <trkpt lat="42.57316" lon="1.96781">
        <ele>2278</ele>
        <time>2011-05-04T10:23:47Z</time>
      </trkpt>
      <trkpt lat="42.57317" lon="1.96772">
        <ele>2278</ele>
        <time>2011-05-04T10:23:55Z</time>
      </trkpt>
      <trkpt lat="42.57317" lon="1.96763">
        <ele>2278</ele>
        <time>2011-05-04T10:24:04Z</time>
      </trkpt>
      <trkpt lat="42.57317" lon="1.96754">
        <ele>2278</ele>
        <time>2011-05-04T10:24:13Z</time>
      </trkpt>
      <trkpt lat="42.57319" lon="1.96745">
        <ele>2278</ele>
        <time>2011-05-04T10:24:23Z</time>
      </trkpt>
      <trkpt lat="42.57319" lon="1.96735">
        <ele>2278</ele>
        <time>2011-05-04T10:24:32Z</time>
      </trkpt>
      <trkpt lat="42.57317" lon="1.96726">
        <ele>2278</ele>
        <time>2011-05-04T10:24:46Z</time>
      </trkpt>
      <trkpt lat="42.57315" lon="1.96717">
        <ele>2279</ele>
        <time>2011-05-04T10:24:57Z</time>
      </trkpt>
      <trkpt lat="42.57316" lon="1.96709">
        <ele>2279</ele>
        <time>2011-05-04T10:25:05Z</time>
      </trkpt>
      <trkpt lat="42.57315" lon="1.967">
        <ele>2279</ele>
        <time>2011-05-04T10:25:13Z</time>
      </trkpt>
      <trkpt lat="42.57312" lon="1.96693">
        <ele>2279</ele>
        <time>2011-05-04T10:25:26Z</time>
      </trkpt>
      <trkpt lat="42.57309" lon="1.96684">
        <ele>2279</ele>
        <time>2011-05-04T10:25:36Z</time>
      </trkpt>
      <trkpt lat="42.57307" lon="1.96676">
        <ele>2279</ele>
        <time>2011-05-04T10:25:44Z</time>
      </trkpt>
      <trkpt lat="42.57303" lon="1.96669">
        <ele>2279</ele>
        <time>2011-05-04T10:25:52Z</time>
      </trkpt>
      <trkpt lat="42.57298" lon="1.96663">
        <ele>2279</ele>
        <time>2011-05-04T10:26:01Z</time>
      </trkpt>
      <trkpt lat="42.57295" lon="1.96655">
        <ele>2280</ele>
        <time>2011-05-04T10:26:14Z</time>
      </trkpt>
      <trkpt lat="42.57295" lon="1.96655">
        <ele>2233.2</ele>
        <time>2011-05-04T10:27:06Z</time>
      </trkpt>
      <trkpt lat="42.57295" lon="1.96655">
        <ele>2233.2</ele>
        <time>2011-05-04T10:57:42Z</time>
      </trkpt>
      <trkpt lat="42.57252" lon="1.96472">
        <ele>2305</ele>
        <time>2011-05-04T10:58:40Z</time>
      </trkpt>
      <trkpt lat="42.57251" lon="1.96463">
        <ele>2307</ele>
        <time>2011-05-04T10:58:50Z</time>
      </trkpt>
      <trkpt lat="42.5725" lon="1.96454">
        <ele>2308</ele>
        <time>2011-05-04T10:58:59Z</time>
      </trkpt>
      <trkpt lat="42.57249" lon="1.96445">
        <ele>2310</ele>
        <time>2011-05-04T10:59:08Z</time>
      </trkpt>
      <trkpt lat="42.57247" lon="1.96437">
        <ele>2311</ele>
        <time>2011-05-04T10:59:17Z</time>
      </trkpt>
      <trkpt lat="42.57245" lon="1.96428">
        <ele>2313</ele>
        <time>2011-05-04T10:59:26Z</time>
      </trkpt>
      <trkpt lat="42.57244" lon="1.96419">
        <ele>2315</ele>
        <time>2011-05-04T10:59:35Z</time>
      </trkpt>
      <trkpt lat="42.57242" lon="1.96411">
        <ele>2316</ele>
        <time>2011-05-04T10:59:44Z</time>
      </trkpt>
      <trkpt lat="42.5724" lon="1.96403">
        <ele>2318</ele>
        <time>2011-05-04T10:59:54Z</time>
      </trkpt>
      <trkpt lat="42.57239" lon="1.96394">
        <ele>2319</ele>
        <time>2011-05-04T11:00:05Z</time>
      </trkpt>
      <trkpt lat="42.5724" lon="1.96385">
        <ele>2321</ele>
        <time>2011-05-04T11:00:14Z</time>
      </trkpt>
      <trkpt lat="42.5724" lon="1.96376">
        <ele>2322</ele>
        <time>2011-05-04T11:00:23Z</time>
      </trkpt>
      <trkpt lat="42.5724" lon="1.96367">
        <ele>2324</ele>
        <time>2011-05-04T11:00:35Z</time>
      </trkpt>
      <trkpt lat="42.57239" lon="1.96358">
        <ele>2326</ele>
        <time>2011-05-04T11:00:47Z</time>
      </trkpt>
      <trkpt lat="42.57239" lon="1.96349">
        <ele>2328</ele>
        <time>2011-05-04T11:00:58Z</time>
      </trkpt>
      <trkpt lat="42.57239" lon="1.9634">
        <ele>2329</ele>
        <time>2011-05-04T11:01:07Z</time>
      </trkpt>
      <trkpt lat="42.57239" lon="1.96331">
        <ele>2330</ele>
        <time>2011-05-04T11:01:17Z</time>
      </trkpt>
      <trkpt lat="42.57237" lon="1.96322">
        <ele>2331</ele>
        <time>2011-05-04T11:01:27Z</time>
      </trkpt>
      <trkpt lat="42.57235" lon="1.96314">
        <ele>2331</ele>
        <time>2011-05-04T11:01:38Z</time>
      </trkpt>
      <trkpt lat="42.5723" lon="1.96288">
        <ele>2332</ele>
        <time>2011-05-04T11:02:07Z</time>
      </trkpt>
      <trkpt lat="42.57226" lon="1.9628">
        <ele>2332</ele>
        <time>2011-05-04T11:02:16Z</time>
      </trkpt>
      <trkpt lat="42.57223" lon="1.96272">
        <ele>2333</ele>
        <time>2011-05-04T11:02:28Z</time>
      </trkpt>
      <trkpt lat="42.57224" lon="1.96263">
        <ele>2333</ele>
        <time>2011-05-04T11:02:40Z</time>
      </trkpt>
      <trkpt lat="42.57225" lon="1.96255">
        <ele>2333</ele>
        <time>2011-05-04T11:02:50Z</time>
      </trkpt>
      <trkpt lat="42.57223" lon="1.96246">
        <ele>2333</ele>
        <time>2011-05-04T11:03:05Z</time>
      </trkpt>
      <trkpt lat="42.57223" lon="1.96229">
        <ele>2333</ele>
        <time>2011-05-04T11:03:53Z</time>
      </trkpt>
      <trkpt lat="42.5722" lon="1.96221">
        <ele>2333</ele>
        <time>2011-05-04T11:04:03Z</time>
      </trkpt>
      <trkpt lat="42.57214" lon="1.96205">
        <ele>2332</ele>
        <time>2011-05-04T11:04:24Z</time>
      </trkpt>
      <trkpt lat="42.5721" lon="1.96199">
        <ele>2332</ele>
        <time>2011-05-04T11:04:33Z</time>
      </trkpt>
      <trkpt lat="42.57208" lon="1.9619">
        <ele>2332</ele>
        <time>2011-05-04T11:04:44Z</time>
      </trkpt>
      <trkpt lat="42.5721" lon="1.96173">
        <ele>2333</ele>
        <time>2011-05-04T11:05:04Z</time>
      </trkpt>
      <trkpt lat="42.57212" lon="1.96165">
        <ele>2334</ele>
        <time>2011-05-04T11:05:17Z</time>
      </trkpt>
      <trkpt lat="42.57214" lon="1.96139">
        <ele>2336</ele>
        <time>2011-05-04T11:07:04Z</time>
      </trkpt>
      <trkpt lat="42.57216" lon="1.96131">
        <ele>2336</ele>
        <time>2011-05-04T11:07:16Z</time>
      </trkpt>
      <trkpt lat="42.57222" lon="1.96106">
        <ele>2339</ele>
        <time>2011-05-04T11:07:59Z</time>
      </trkpt>
      <trkpt lat="42.57216" lon="1.96097">
        <ele>2341</ele>
        <time>2011-05-04T11:08:45Z</time>
      </trkpt>
      <trkpt lat="42.57214" lon="1.96089">
        <ele>2343</ele>
        <time>2011-05-04T11:09:16Z</time>
      </trkpt>
      <trkpt lat="42.57216" lon="1.96081">
        <ele>2344</ele>
        <time>2011-05-04T11:09:30Z</time>
      </trkpt>
      <trkpt lat="42.57216" lon="1.96072">
        <ele>2345</ele>
        <time>2011-05-04T11:09:43Z</time>
      </trkpt>
      <trkpt lat="42.57217" lon="1.96063">
        <ele>2347</ele>
        <time>2011-05-04T11:09:55Z</time>
      </trkpt>
      <trkpt lat="42.57217" lon="1.96053">
        <ele>2351</ele>
        <time>2011-05-04T11:11:03Z</time>
      </trkpt>
      <trkpt lat="42.57218" lon="1.96045">
        <ele>2353</ele>
        <time>2011-05-04T11:11:11Z</time>
      </trkpt>
      <trkpt lat="42.57221" lon="1.96028">
        <ele>2358</ele>
        <time>2011-05-04T11:11:46Z</time>
      </trkpt>
      <trkpt lat="42.57222" lon="1.96019">
        <ele>2359</ele>
        <time>2011-05-04T11:11:57Z</time>
      </trkpt>
      <trkpt lat="42.57226" lon="1.96011">
        <ele>2361</ele>
        <time>2011-05-04T11:12:16Z</time>
      </trkpt>
      <trkpt lat="42.57233" lon="1.95995">
        <ele>2363</ele>
        <time>2011-05-04T11:12:34Z</time>
      </trkpt>
      <trkpt lat="42.57236" lon="1.95987">
        <ele>2363</ele>
        <time>2011-05-04T11:12:44Z</time>
      </trkpt>
      <trkpt lat="42.57238" lon="1.95978">
        <ele>2363</ele>
        <time>2011-05-04T11:12:53Z</time>
      </trkpt>
      <trkpt lat="42.57246" lon="1.95953">
        <ele>2364</ele>
        <time>2011-05-04T11:13:15Z</time>
      </trkpt>
      <trkpt lat="42.57246" lon="1.95944">
        <ele>2365</ele>
        <time>2011-05-04T11:13:24Z</time>
      </trkpt>
      <trkpt lat="42.57246" lon="1.95936">
        <ele>2365</ele>
        <time>2011-05-04T11:13:33Z</time>
      </trkpt>
      <trkpt lat="42.57248" lon="1.95927">
        <ele>2366</ele>
        <time>2011-05-04T11:13:46Z</time>
      </trkpt>
      <trkpt lat="42.57248" lon="1.95918">
        <ele>2367</ele>
        <time>2011-05-04T11:14:02Z</time>
      </trkpt>
      <trkpt lat="42.57249" lon="1.95909">
        <ele>2368</ele>
        <time>2011-05-04T11:14:15Z</time>
      </trkpt>
      <trkpt lat="42.57251" lon="1.95901">
        <ele>2370</ele>
        <time>2011-05-04T11:14:34Z</time>
      </trkpt>
      <trkpt lat="42.57253" lon="1.95892">
        <ele>2372</ele>
        <time>2011-05-04T11:15:15Z</time>
      </trkpt>
      <trkpt lat="42.57255" lon="1.95884">
        <ele>2374</ele>
        <time>2011-05-04T11:15:44Z</time>
      </trkpt>
      <trkpt lat="42.57256" lon="1.95875">
        <ele>2376</ele>
        <time>2011-05-04T11:15:57Z</time>
      </trkpt>
      <trkpt lat="42.5725" lon="1.95852">
        <ele>2379</ele>
        <time>2011-05-04T11:17:04Z</time>
      </trkpt>
      <trkpt lat="42.57251" lon="1.95843">
        <ele>2381</ele>
        <time>2011-05-04T11:18:27Z</time>
      </trkpt>
      <trkpt lat="42.57253" lon="1.95835">
        <ele>2383</ele>
        <time>2011-05-04T11:18:36Z</time>
      </trkpt>
      <trkpt lat="42.57248" lon="1.95819">
        <ele>2385</ele>
        <time>2011-05-04T11:19:18Z</time>
      </trkpt>
      <trkpt lat="42.57249" lon="1.95811">
        <ele>2386</ele>
        <time>2011-05-04T11:19:31Z</time>
      </trkpt>
      <trkpt lat="42.5725" lon="1.95802">
        <ele>2386</ele>
        <time>2011-05-04T11:19:45Z</time>
      </trkpt>
      <trkpt lat="42.57251" lon="1.95794">
        <ele>2388</ele>
        <time>2011-05-04T11:20:02Z</time>
      </trkpt>
      <trkpt lat="42.57248" lon="1.95786">
        <ele>2390</ele>
        <time>2011-05-04T11:20:18Z</time>
      </trkpt>
      <trkpt lat="42.57242" lon="1.95785">
        <ele>2391</ele>
        <time>2011-05-04T11:20:32Z</time>
      </trkpt>
      <trkpt lat="42.57236" lon="1.95781">
        <ele>2392</ele>
        <time>2011-05-04T11:20:41Z</time>
      </trkpt>
      <trkpt lat="42.5723" lon="1.95777">
        <ele>2393</ele>
        <time>2011-05-04T11:20:50Z</time>
      </trkpt>
      <trkpt lat="42.57225" lon="1.95771">
        <ele>2395</ele>
        <time>2011-05-04T11:21:00Z</time>
      </trkpt>
      <trkpt lat="42.57218" lon="1.95767">
        <ele>2396</ele>
        <time>2011-05-04T11:21:10Z</time>
      </trkpt>
      <trkpt lat="42.57212" lon="1.95764">
        <ele>2396</ele>
        <time>2011-05-04T11:21:18Z</time>
      </trkpt>
      <trkpt lat="42.57206" lon="1.95759">
        <ele>2397</ele>
        <time>2011-05-04T11:21:28Z</time>
      </trkpt>
      <trkpt lat="42.57202" lon="1.95753">
        <ele>2399</ele>
        <time>2011-05-04T11:21:49Z</time>
      </trkpt>
      <trkpt lat="42.57201" lon="1.95745">
        <ele>2400</ele>
        <time>2011-05-04T11:22:00Z</time>
      </trkpt>
      <trkpt lat="42.57196" lon="1.95738">
        <ele>2401</ele>
        <time>2011-05-04T11:22:09Z</time>
      </trkpt>
      <trkpt lat="42.57191" lon="1.95733">
        <ele>2402</ele>
        <time>2011-05-04T11:22:19Z</time>
      </trkpt>
      <trkpt lat="42.57187" lon="1.95727">
        <ele>2403</ele>
        <time>2011-05-04T11:22:59Z</time>
      </trkpt>
      <trkpt lat="42.57182" lon="1.9572">
        <ele>2403</ele>
        <time>2011-05-04T11:23:15Z</time>
      </trkpt>
      <trkpt lat="42.57177" lon="1.95714">
        <ele>2403</ele>
        <time>2011-05-04T11:23:24Z</time>
      </trkpt>
      <trkpt lat="42.57172" lon="1.95709">
        <ele>2404</ele>
        <time>2011-05-04T11:23:33Z</time>
      </trkpt>
      <trkpt lat="42.57166" lon="1.95706">
        <ele>2404</ele>
        <time>2011-05-04T11:23:44Z</time>
      </trkpt>
      <trkpt lat="42.57163" lon="1.95698">
        <ele>2405</ele>
        <time>2011-05-04T11:23:59Z</time>
      </trkpt>
      <trkpt lat="42.57162" lon="1.95689">
        <ele>2406</ele>
        <time>2011-05-04T11:24:10Z</time>
      </trkpt>
      <trkpt lat="42.57157" lon="1.95683">
        <ele>2407</ele>
        <time>2011-05-04T11:24:20Z</time>
      </trkpt>
      <trkpt lat="42.57151" lon="1.9568">
        <ele>2407</ele>
        <time>2011-05-04T11:24:37Z</time>
      </trkpt>
      <trkpt lat="42.57146" lon="1.95674">
        <ele>2407</ele>
        <time>2011-05-04T11:24:49Z</time>
      </trkpt>
      <trkpt lat="42.57146" lon="1.95665">
        <ele>2407</ele>
        <time>2011-05-04T11:24:57Z</time>
      </trkpt>
      <trkpt lat="42.57145" lon="1.95656">
        <ele>2408</ele>
        <time>2011-05-04T11:25:06Z</time>
      </trkpt>
      <trkpt lat="42.57146" lon="1.95648">
        <ele>2408</ele>
        <time>2011-05-04T11:25:17Z</time>
      </trkpt>
      <trkpt lat="42.57143" lon="1.9564">
        <ele>2409</ele>
        <time>2011-05-04T11:25:45Z</time>
      </trkpt>
      <trkpt lat="42.57141" lon="1.95632">
        <ele>2409</ele>
        <time>2011-05-04T11:25:54Z</time>
      </trkpt>
      <trkpt lat="42.57141" lon="1.95623">
        <ele>2410</ele>
        <time>2011-05-04T11:26:04Z</time>
      </trkpt>
      <trkpt lat="42.57142" lon="1.95614">
        <ele>2410</ele>
        <time>2011-05-04T11:26:13Z</time>
      </trkpt>
      <trkpt lat="42.57142" lon="1.95605">
        <ele>2410</ele>
        <time>2011-05-04T11:26:23Z</time>
      </trkpt>
      <trkpt lat="42.57145" lon="1.95597">
        <ele>2411</ele>
        <time>2011-05-04T11:26:30Z</time>
      </trkpt>
      <trkpt lat="42.57145" lon="1.95588">
        <ele>2411</ele>
        <time>2011-05-04T11:26:38Z</time>
      </trkpt>
      <trkpt lat="42.57146" lon="1.9558">
        <ele>2412</ele>
        <time>2011-05-04T11:27:02Z</time>
      </trkpt>
      <trkpt lat="42.57147" lon="1.95571">
        <ele>2412</ele>
        <time>2011-05-04T11:27:13Z</time>
      </trkpt>
      <trkpt lat="42.57149" lon="1.95562">
        <ele>2413</ele>
        <time>2011-05-04T11:27:24Z</time>
      </trkpt>
      <trkpt lat="42.57149" lon="1.95553">
        <ele>2413</ele>
        <time>2011-05-04T11:27:35Z</time>
      </trkpt>
      <trkpt lat="42.57152" lon="1.95545">
        <ele>2414</ele>
        <time>2011-05-04T11:27:44Z</time>
      </trkpt>
      <trkpt lat="42.57154" lon="1.95536">
        <ele>2414</ele>
        <time>2011-05-04T11:27:59Z</time>
      </trkpt>
      <trkpt lat="42.57154" lon="1.95527">
        <ele>2415</ele>
        <time>2011-05-04T11:28:09Z</time>
      </trkpt>
      <trkpt lat="42.57155" lon="1.95519">
        <ele>2415</ele>
        <time>2011-05-04T11:28:45Z</time>
      </trkpt>
      <trkpt lat="42.57156" lon="1.9551">
        <ele>2416</ele>
        <time>2011-05-04T11:28:53Z</time>
      </trkpt>
      <trkpt lat="42.57156" lon="1.955">
        <ele>2416</ele>
        <time>2011-05-04T11:29:01Z</time>
      </trkpt>
      <trkpt lat="42.57155" lon="1.95491">
        <ele>2417</ele>
        <time>2011-05-04T11:29:09Z</time>
      </trkpt>
      <trkpt lat="42.57155" lon="1.95482">
        <ele>2417</ele>
        <time>2011-05-04T11:29:17Z</time>
      </trkpt>
      <trkpt lat="42.57156" lon="1.95472">
        <ele>2418</ele>
        <time>2011-05-04T11:29:40Z</time>
      </trkpt>
      <trkpt lat="42.57157" lon="1.95463">
        <ele>2419</ele>
        <time>2011-05-04T11:29:47Z</time>
      </trkpt>
      <trkpt lat="42.57157" lon="1.95453">
        <ele>2420</ele>
        <time>2011-05-04T11:29:55Z</time>
      </trkpt>
      <trkpt lat="42.57157" lon="1.95444">
        <ele>2421</ele>
        <time>2011-05-04T11:30:02Z</time>
      </trkpt>
      <trkpt lat="42.57159" lon="1.95434">
        <ele>2421</ele>
        <time>2011-05-04T11:30:09Z</time>
      </trkpt>
      <trkpt lat="42.57159" lon="1.95425">
        <ele>2422</ele>
        <time>2011-05-04T11:30:16Z</time>
      </trkpt>
      <trkpt lat="42.5716" lon="1.95416">
        <ele>2423</ele>
        <time>2011-05-04T11:30:24Z</time>
      </trkpt>
      <trkpt lat="42.57162" lon="1.95407">
        <ele>2423</ele>
        <time>2011-05-04T11:30:31Z</time>
      </trkpt>
      <trkpt lat="42.57162" lon="1.95398">
        <ele>2423</ele>
        <time>2011-05-04T11:30:38Z</time>
      </trkpt>
      <trkpt lat="42.57162" lon="1.95388">
        <ele>2424</ele>
        <time>2011-05-04T11:30:45Z</time>
      </trkpt>
      <trkpt lat="42.57162" lon="1.95379">
        <ele>2424</ele>
        <time>2011-05-04T11:30:52Z</time>
      </trkpt>
      <trkpt lat="42.57162" lon="1.9537">
        <ele>2424</ele>
        <time>2011-05-04T11:30:59Z</time>
      </trkpt>
      <trkpt lat="42.57161" lon="1.95362">
        <ele>2425</ele>
        <time>2011-05-04T11:31:05Z</time>
      </trkpt>
      <trkpt lat="42.57161" lon="1.95353">
        <ele>2425</ele>
        <time>2011-05-04T11:31:19Z</time>
      </trkpt>
      <trkpt lat="42.57162" lon="1.95343">
        <ele>2424</ele>
        <time>2011-05-04T11:32:07Z</time>
      </trkpt>
      <trkpt lat="42.57161" lon="1.95334">
        <ele>2424</ele>
        <time>2011-05-04T11:32:25Z</time>
      </trkpt>
      <trkpt lat="42.57162" lon="1.95325">
        <ele>2424</ele>
        <time>2011-05-04T11:32:31Z</time>
      </trkpt>
      <trkpt lat="42.57162" lon="1.95316">
        <ele>2424</ele>
        <time>2011-05-04T11:32:38Z</time>
      </trkpt>
      <trkpt lat="42.57163" lon="1.95307">
        <ele>2424</ele>
        <time>2011-05-04T11:32:46Z</time>
      </trkpt>
      <trkpt lat="42.57162" lon="1.95297">
        <ele>2425</ele>
        <time>2011-05-04T11:32:53Z</time>
      </trkpt>
      <trkpt lat="42.57161" lon="1.95289">
        <ele>2425</ele>
        <time>2011-05-04T11:33:00Z</time>
      </trkpt>
      <trkpt lat="42.5716" lon="1.9527">
        <ele>2425</ele>
        <time>2011-05-04T11:33:16Z</time>
      </trkpt>
      <trkpt lat="42.5716" lon="1.95261">
        <ele>2425</ele>
        <time>2011-05-04T11:33:24Z</time>
      </trkpt>
      <trkpt lat="42.57163" lon="1.9527">
        <ele>2424</ele>
        <time>2011-05-04T11:35:11Z</time>
      </trkpt>
      <trkpt lat="42.57172" lon="1.95294">
        <ele>2424</ele>
        <time>2011-05-04T11:35:32Z</time>
      </trkpt>
      <trkpt lat="42.57174" lon="1.95303">
        <ele>2424</ele>
        <time>2011-05-04T11:35:38Z</time>
      </trkpt>
      <trkpt lat="42.57175" lon="1.95311">
        <ele>2424</ele>
        <time>2011-05-04T11:35:44Z</time>
      </trkpt>
      <trkpt lat="42.57174" lon="1.9532">
        <ele>2424</ele>
        <time>2011-05-04T11:35:50Z</time>
      </trkpt>
      <trkpt lat="42.57174" lon="1.9533">
        <ele>2424</ele>
        <time>2011-05-04T11:35:56Z</time>
      </trkpt>
      <trkpt lat="42.57175" lon="1.95339">
        <ele>2423</ele>
        <time>2011-05-04T11:36:03Z</time>
      </trkpt>
      <trkpt lat="42.57177" lon="1.95347">
        <ele>2423</ele>
        <time>2011-05-04T11:36:10Z</time>
      </trkpt>
      <trkpt lat="42.57179" lon="1.95365">
        <ele>2423</ele>
        <time>2011-05-04T11:36:24Z</time>
      </trkpt>
      <trkpt lat="42.57183" lon="1.95392">
        <ele>2421</ele>
        <time>2011-05-04T11:36:47Z</time>
      </trkpt>
      <trkpt lat="42.57187" lon="1.95399">
        <ele>2421</ele>
        <time>2011-05-04T11:37:01Z</time>
      </trkpt>
      <trkpt lat="42.57189" lon="1.95407">
        <ele>2421</ele>
        <time>2011-05-04T11:37:12Z</time>
      </trkpt>
      <trkpt lat="42.57192" lon="1.95416">
        <ele>2420</ele>
        <time>2011-05-04T11:37:22Z</time>
      </trkpt>
      <trkpt lat="42.57194" lon="1.95424">
        <ele>2420</ele>
        <time>2011-05-04T11:37:34Z</time>
      </trkpt>
      <trkpt lat="42.57195" lon="1.95433">
        <ele>2419</ele>
        <time>2011-05-04T11:38:02Z</time>
      </trkpt>
      <trkpt lat="42.57205" lon="1.95455">
        <ele>2416</ele>
        <time>2011-05-04T11:38:31Z</time>
      </trkpt>
      <trkpt lat="42.57206" lon="1.95463">
        <ele>2415</ele>
        <time>2011-05-04T11:38:48Z</time>
      </trkpt>
      <trkpt lat="42.5721" lon="1.95471">
        <ele>2414</ele>
        <time>2011-05-04T11:39:05Z</time>
      </trkpt>
      <trkpt lat="42.57216" lon="1.95476">
        <ele>2412</ele>
        <time>2011-05-04T11:39:24Z</time>
      </trkpt>
      <trkpt lat="42.57226" lon="1.95499">
        <ele>2408</ele>
        <time>2011-05-04T11:40:09Z</time>
      </trkpt>
      <trkpt lat="42.57229" lon="1.95507">
        <ele>2408</ele>
        <time>2011-05-04T11:40:17Z</time>
      </trkpt>
      <trkpt lat="42.57233" lon="1.95515">
        <ele>2407</ele>
        <time>2011-05-04T11:40:25Z</time>
      </trkpt>
      <trkpt lat="42.57235" lon="1.95524">
        <ele>2407</ele>
        <time>2011-05-04T11:40:33Z</time>
      </trkpt>
      <trkpt lat="42.57236" lon="1.95533">
        <ele>2406</ele>
        <time>2011-05-04T11:40:42Z</time>
      </trkpt>
      <trkpt lat="42.57235" lon="1.95542">
        <ele>2406</ele>
        <time>2011-05-04T11:40:53Z</time>
      </trkpt>
      <trkpt lat="42.57235" lon="1.9555">
        <ele>2406</ele>
        <time>2011-05-04T11:41:00Z</time>
      </trkpt>
      <trkpt lat="42.57236" lon="1.95559">
        <ele>2406</ele>
        <time>2011-05-04T11:41:08Z</time>
      </trkpt>
      <trkpt lat="42.57244" lon="1.95574">
        <ele>2405</ele>
        <time>2011-05-04T11:41:24Z</time>
      </trkpt>
      <trkpt lat="42.5725" lon="1.9558">
        <ele>2404</ele>
        <time>2011-05-04T11:41:33Z</time>
      </trkpt>
      <trkpt lat="42.57255" lon="1.95587">
        <ele>2404</ele>
        <time>2011-05-04T11:41:40Z</time>
      </trkpt>
      <trkpt lat="42.57259" lon="1.95594">
        <ele>2403</ele>
        <time>2011-05-04T11:41:48Z</time>
      </trkpt>
      <trkpt lat="42.57264" lon="1.95599">
        <ele>2402</ele>
        <time>2011-05-04T11:41:56Z</time>
      </trkpt>
      <trkpt lat="42.57268" lon="1.95606">
        <ele>2401</ele>
        <time>2011-05-04T11:42:06Z</time>
      </trkpt>
      <trkpt lat="42.57274" lon="1.95609">
        <ele>2400</ele>
        <time>2011-05-04T11:42:17Z</time>
      </trkpt>
      <trkpt lat="42.57281" lon="1.95608">
        <ele>2400</ele>
        <time>2011-05-04T11:42:27Z</time>
      </trkpt>
      <trkpt lat="42.57285" lon="1.95601">
        <ele>2399</ele>
        <time>2011-05-04T11:42:35Z</time>
      </trkpt>
      <trkpt lat="42.57292" lon="1.95599">
        <ele>2398</ele>
        <time>2011-05-04T11:43:38Z</time>
      </trkpt>
      <trkpt lat="42.57297" lon="1.95595">
        <ele>2397</ele>
        <time>2011-05-04T11:43:51Z</time>
      </trkpt>
      <trkpt lat="42.57303" lon="1.95599">
        <ele>2395</ele>
        <time>2011-05-04T11:44:00Z</time>
      </trkpt>
      <trkpt lat="42.5731" lon="1.956">
        <ele>2394</ele>
        <time>2011-05-04T11:44:25Z</time>
      </trkpt>
      <trkpt lat="42.57316" lon="1.956">
        <ele>2393</ele>
        <time>2011-05-04T11:44:35Z</time>
      </trkpt>
      <trkpt lat="42.57323" lon="1.95603">
        <ele>2392</ele>
        <time>2011-05-04T11:45:38Z</time>
      </trkpt>
      <trkpt lat="42.57328" lon="1.95607">
        <ele>2391</ele>
        <time>2011-05-04T11:45:45Z</time>
      </trkpt>
      <trkpt lat="42.57335" lon="1.9561">
        <ele>2391</ele>
        <time>2011-05-04T11:45:51Z</time>
      </trkpt>
      <trkpt lat="42.5734" lon="1.95614">
        <ele>2391</ele>
        <time>2011-05-04T11:46:07Z</time>
      </trkpt>
      <trkpt lat="42.57345" lon="1.9562">
        <ele>2391</ele>
        <time>2011-05-04T11:46:28Z</time>
      </trkpt>
      <trkpt lat="42.57352" lon="1.95622">
        <ele>2391</ele>
        <time>2011-05-04T11:46:37Z</time>
      </trkpt>
      <trkpt lat="42.57359" lon="1.95622">
        <ele>2391</ele>
        <time>2011-05-04T11:46:53Z</time>
      </trkpt>
      <trkpt lat="42.57365" lon="1.95624">
        <ele>2391</ele>
        <time>2011-05-04T11:47:00Z</time>
      </trkpt>
      <trkpt lat="42.57377" lon="1.95632">
        <ele>2391</ele>
        <time>2011-05-04T11:47:14Z</time>
      </trkpt>
      <trkpt lat="42.57383" lon="1.95635">
        <ele>2391</ele>
        <time>2011-05-04T11:47:21Z</time>
      </trkpt>
      <trkpt lat="42.5739" lon="1.95639">
        <ele>2391</ele>
        <time>2011-05-04T11:47:29Z</time>
      </trkpt>
      <trkpt lat="42.57396" lon="1.95642">
        <ele>2391</ele>
        <time>2011-05-04T11:47:36Z</time>
      </trkpt>
      <trkpt lat="42.57407" lon="1.95651">
        <ele>2391</ele>
        <time>2011-05-04T11:47:49Z</time>
      </trkpt>
      <trkpt lat="42.57412" lon="1.95657">
        <ele>2391</ele>
        <time>2011-05-04T11:47:56Z</time>
      </trkpt>
      <trkpt lat="42.57427" lon="1.95675">
        <ele>2392</ele>
        <time>2011-05-04T11:48:37Z</time>
      </trkpt>
      <trkpt lat="42.57433" lon="1.95679">
        <ele>2393</ele>
        <time>2011-05-04T11:48:47Z</time>
      </trkpt>
      <trkpt lat="42.57438" lon="1.95699">
        <ele>2395</ele>
        <time>2011-05-04T11:49:48Z</time>
      </trkpt>
      <trkpt lat="42.57442" lon="1.95706">
        <ele>2396</ele>
        <time>2011-05-04T11:49:56Z</time>
      </trkpt>
      <trkpt lat="42.57445" lon="1.95714">
        <ele>2396</ele>
        <time>2011-05-04T11:50:05Z</time>
      </trkpt>
      <trkpt lat="42.57451" lon="1.95716">
        <ele>2396</ele>
        <time>2011-05-04T11:50:14Z</time>
      </trkpt>
      <trkpt lat="42.57457" lon="1.95719">
        <ele>2396</ele>
        <time>2011-05-04T11:50:32Z</time>
      </trkpt>
      <trkpt lat="42.57464" lon="1.9572">
        <ele>2396</ele>
        <time>2011-05-04T11:50:41Z</time>
      </trkpt>
      <trkpt lat="42.5747" lon="1.95723">
        <ele>2396</ele>
        <time>2011-05-04T11:50:49Z</time>
      </trkpt>
      <trkpt lat="42.57476" lon="1.95728">
        <ele>2396</ele>
        <time>2011-05-04T11:51:00Z</time>
      </trkpt>
      <trkpt lat="42.57482" lon="1.95733">
        <ele>2396</ele>
        <time>2011-05-04T11:51:09Z</time>
      </trkpt>
      <trkpt lat="42.57487" lon="1.95737">
        <ele>2396</ele>
        <time>2011-05-04T11:51:26Z</time>
      </trkpt>
      <trkpt lat="42.57491" lon="1.95744">
        <ele>2395</ele>
        <time>2011-05-04T11:51:33Z</time>
      </trkpt>
      <trkpt lat="42.57494" lon="1.95752">
        <ele>2395</ele>
        <time>2011-05-04T11:51:40Z</time>
      </trkpt>
      <trkpt lat="42.57495" lon="1.95761">
        <ele>2395</ele>
        <time>2011-05-04T11:51:54Z</time>
      </trkpt>
      <trkpt lat="42.57499" lon="1.95768">
        <ele>2394</ele>
        <time>2011-05-04T11:52:28Z</time>
      </trkpt>
      <trkpt lat="42.57502" lon="1.95776">
        <ele>2394</ele>
        <time>2011-05-04T11:52:35Z</time>
      </trkpt>
      <trkpt lat="42.57505" lon="1.95784">
        <ele>2393</ele>
        <time>2011-05-04T11:52:43Z</time>
      </trkpt>
      <trkpt lat="42.57508" lon="1.95792">
        <ele>2392</ele>
        <time>2011-05-04T11:52:51Z</time>
      </trkpt>
      <trkpt lat="42.57509" lon="1.95802">
        <ele>2392</ele>
        <time>2011-05-04T11:52:58Z</time>
      </trkpt>
      <trkpt lat="42.57509" lon="1.9581">
        <ele>2392</ele>
        <time>2011-05-04T11:53:07Z</time>
      </trkpt>
      <trkpt lat="42.57516" lon="1.95825">
        <ele>2391</ele>
        <time>2011-05-04T11:53:21Z</time>
      </trkpt>
      <trkpt lat="42.57518" lon="1.95834">
        <ele>2391</ele>
        <time>2011-05-04T11:53:30Z</time>
      </trkpt>
      <trkpt lat="42.57515" lon="1.95843">
        <ele>2391</ele>
        <time>2011-05-04T11:53:37Z</time>
      </trkpt>
      <trkpt lat="42.57521" lon="1.95845">
        <ele>2391</ele>
        <time>2011-05-04T11:53:50Z</time>
      </trkpt>
      <trkpt lat="42.57521" lon="1.95854">
        <ele>2391</ele>
        <time>2011-05-04T11:54:01Z</time>
      </trkpt>
      <trkpt lat="42.57525" lon="1.95878">
        <ele>2390</ele>
        <time>2011-05-04T11:55:00Z</time>
      </trkpt>
      <trkpt lat="42.57525" lon="1.95887">
        <ele>2390</ele>
        <time>2011-05-04T11:55:09Z</time>
      </trkpt>
      <trkpt lat="42.57526" lon="1.95905">
        <ele>2390</ele>
        <time>2011-05-04T11:55:26Z</time>
      </trkpt>
      <trkpt lat="42.57527" lon="1.95914">
        <ele>2389</ele>
        <time>2011-05-04T11:55:37Z</time>
      </trkpt>
      <trkpt lat="42.5753" lon="1.95923">
        <ele>2388</ele>
        <time>2011-05-04T11:56:12Z</time>
      </trkpt>
      <trkpt lat="42.57531" lon="1.9594">
        <ele>2387</ele>
        <time>2011-05-04T11:56:26Z</time>
      </trkpt>
      <trkpt lat="42.57532" lon="1.95949">
        <ele>2386</ele>
        <time>2011-05-04T11:56:35Z</time>
      </trkpt>
      <trkpt lat="42.57538" lon="1.95954">
        <ele>2386</ele>
        <time>2011-05-04T11:57:07Z</time>
      </trkpt>
      <trkpt lat="42.57538" lon="1.95963">
        <ele>2385</ele>
        <time>2011-05-04T11:57:14Z</time>
      </trkpt>
      <trkpt lat="42.57538" lon="1.95973">
        <ele>2385</ele>
        <time>2011-05-04T11:57:21Z</time>
      </trkpt>
      <trkpt lat="42.5754" lon="1.95982">
        <ele>2385</ele>
        <time>2011-05-04T11:57:28Z</time>
      </trkpt>
      <trkpt lat="42.57544" lon="1.96007">
        <ele>2386</ele>
        <time>2011-05-04T11:57:59Z</time>
      </trkpt>
      <trkpt lat="42.57545" lon="1.96025">
        <ele>2383</ele>
        <time>2011-05-04T11:58:25Z</time>
      </trkpt>
      <trkpt lat="42.57551" lon="1.9604">
        <ele>2382</ele>
        <time>2011-05-04T11:58:56Z</time>
      </trkpt>
      <trkpt lat="42.57556" lon="1.96045">
        <ele>2381</ele>
        <time>2011-05-04T11:59:41Z</time>
      </trkpt>
      <trkpt lat="42.57558" lon="1.96054">
        <ele>2380</ele>
        <time>2011-05-04T11:59:51Z</time>
      </trkpt>
      <trkpt lat="42.57554" lon="1.96061">
        <ele>2380</ele>
        <time>2011-05-04T12:00:04Z</time>
      </trkpt>
      <trkpt lat="42.57557" lon="1.96068">
        <ele>2380</ele>
        <time>2011-05-04T12:00:23Z</time>
      </trkpt>
      <trkpt lat="42.57563" lon="1.96068">
        <ele>2379</ele>
        <time>2011-05-04T12:01:14Z</time>
      </trkpt>
      <trkpt lat="42.57564" lon="1.96077">
        <ele>2378</ele>
        <time>2011-05-04T12:01:57Z</time>
      </trkpt>
      <trkpt lat="42.57562" lon="1.96086">
        <ele>2378</ele>
        <time>2011-05-04T12:02:04Z</time>
      </trkpt>
      <trkpt lat="42.57565" lon="1.96113">
        <ele>2377</ele>
        <time>2011-05-04T12:02:31Z</time>
      </trkpt>
      <trkpt lat="42.57565" lon="1.96122">
        <ele>2377</ele>
        <time>2011-05-04T12:02:38Z</time>
      </trkpt>
      <trkpt lat="42.57567" lon="1.96131">
        <ele>2377</ele>
        <time>2011-05-04T12:02:47Z</time>
      </trkpt>
      <trkpt lat="42.57571" lon="1.96138">
        <ele>2378</ele>
        <time>2011-05-04T12:02:56Z</time>
      </trkpt>
      <trkpt lat="42.57577" lon="1.96143">
        <ele>2377</ele>
        <time>2011-05-04T12:03:03Z</time>
      </trkpt>
      <trkpt lat="42.57579" lon="1.96151">
        <ele>2377</ele>
        <time>2011-05-04T12:03:11Z</time>
      </trkpt>
      <trkpt lat="42.57579" lon="1.9616">
        <ele>2376</ele>
        <time>2011-05-04T12:03:20Z</time>
      </trkpt>
      <trkpt lat="42.5758" lon="1.96168">
        <ele>2375</ele>
        <time>2011-05-04T12:03:32Z</time>
      </trkpt>
      <trkpt lat="42.57585" lon="1.96185">
        <ele>2375</ele>
        <time>2011-05-04T12:03:53Z</time>
      </trkpt>
      <trkpt lat="42.57586" lon="1.96194">
        <ele>2375</ele>
        <time>2011-05-04T12:04:02Z</time>
      </trkpt>
      <trkpt lat="42.5759" lon="1.96202">
        <ele>2375</ele>
        <time>2011-05-04T12:04:13Z</time>
      </trkpt>
      <trkpt lat="42.57596" lon="1.96198">
        <ele>2374</ele>
        <time>2011-05-04T12:04:43Z</time>
      </trkpt>
      <trkpt lat="42.57602" lon="1.96203">
        <ele>2374</ele>
        <time>2011-05-04T12:04:50Z</time>
      </trkpt>
      <trkpt lat="42.57607" lon="1.96207">
        <ele>2373</ele>
        <time>2011-05-04T12:05:01Z</time>
      </trkpt>
      <trkpt lat="42.57612" lon="1.96213">
        <ele>2373</ele>
        <time>2011-05-04T12:05:09Z</time>
      </trkpt>
      <trkpt lat="42.57623" lon="1.96237">
        <ele>2373</ele>
        <time>2011-05-04T12:05:33Z</time>
      </trkpt>
      <trkpt lat="42.57627" lon="1.96245">
        <ele>2373</ele>
        <time>2011-05-04T12:05:40Z</time>
      </trkpt>
      <trkpt lat="42.5763" lon="1.96252">
        <ele>2373</ele>
        <time>2011-05-04T12:05:46Z</time>
      </trkpt>
      <trkpt lat="42.57634" lon="1.9626">
        <ele>2373</ele>
        <time>2011-05-04T12:05:52Z</time>
      </trkpt>
      <trkpt lat="42.57638" lon="1.96278">
        <ele>2373</ele>
        <time>2011-05-04T12:06:05Z</time>
      </trkpt>
      <trkpt lat="42.57641" lon="1.96285">
        <ele>2373</ele>
        <time>2011-05-04T12:06:11Z</time>
      </trkpt>
      <trkpt lat="42.57646" lon="1.96292">
        <ele>2373</ele>
        <time>2011-05-04T12:06:17Z</time>
      </trkpt>
      <trkpt lat="42.57649" lon="1.963">
        <ele>2373</ele>
        <time>2011-05-04T12:06:23Z</time>
      </trkpt>
      <trkpt lat="42.57648" lon="1.96309">
        <ele>2373</ele>
        <time>2011-05-04T12:06:29Z</time>
      </trkpt>
      <trkpt lat="42.57648" lon="1.96319">
        <ele>2373</ele>
        <time>2011-05-04T12:06:36Z</time>
      </trkpt>
      <trkpt lat="42.57648" lon="1.96327">
        <ele>2373</ele>
        <time>2011-05-04T12:06:42Z</time>
      </trkpt>
      <trkpt lat="42.57651" lon="1.96344">
        <ele>2373</ele>
        <time>2011-05-04T12:06:54Z</time>
      </trkpt>
      <trkpt lat="42.57653" lon="1.96353">
        <ele>2373</ele>
        <time>2011-05-04T12:07:00Z</time>
      </trkpt>
      <trkpt lat="42.57656" lon="1.96361">
        <ele>2373</ele>
        <time>2011-05-04T12:07:06Z</time>
      </trkpt>
      <trkpt lat="42.57657" lon="1.96371">
        <ele>2373</ele>
        <time>2011-05-04T12:07:13Z</time>
      </trkpt>
      <trkpt lat="42.57656" lon="1.9638">
        <ele>2373</ele>
        <time>2011-05-04T12:07:20Z</time>
      </trkpt>
      <trkpt lat="42.57654" lon="1.96388">
        <ele>2372</ele>
        <time>2011-05-04T12:07:38Z</time>
      </trkpt>
      <trkpt lat="42.57659" lon="1.96395">
        <ele>2371</ele>
        <time>2011-05-04T12:08:10Z</time>
      </trkpt>
      <trkpt lat="42.57665" lon="1.96398">
        <ele>2371</ele>
        <time>2011-05-04T12:08:25Z</time>
      </trkpt>
      <trkpt lat="42.57671" lon="1.96393">
        <ele>2371</ele>
        <time>2011-05-04T12:08:43Z</time>
      </trkpt>
      <trkpt lat="42.57671" lon="1.96403">
        <ele>2370</ele>
        <time>2011-05-04T12:09:38Z</time>
      </trkpt>
      <trkpt lat="42.5767" lon="1.96412">
        <ele>2370</ele>
        <time>2011-05-04T12:09:45Z</time>
      </trkpt>
      <trkpt lat="42.5767" lon="1.96422">
        <ele>2370</ele>
        <time>2011-05-04T12:09:53Z</time>
      </trkpt>
      <trkpt lat="42.57669" lon="1.9644">
        <ele>2370</ele>
        <time>2011-05-04T12:10:08Z</time>
      </trkpt>
      <trkpt lat="42.57669" lon="1.96449">
        <ele>2370</ele>
        <time>2011-05-04T12:10:15Z</time>
      </trkpt>
      <trkpt lat="42.57668" lon="1.96458">
        <ele>2370</ele>
        <time>2011-05-04T12:10:22Z</time>
      </trkpt>
      <trkpt lat="42.57666" lon="1.96467">
        <ele>2370</ele>
        <time>2011-05-04T12:10:29Z</time>
      </trkpt>
      <trkpt lat="42.57665" lon="1.96475">
        <ele>2371</ele>
        <time>2011-05-04T12:10:34Z</time>
      </trkpt>
      <trkpt lat="42.57662" lon="1.96484">
        <ele>2370</ele>
        <time>2011-05-04T12:10:39Z</time>
      </trkpt>
      <trkpt lat="42.5766" lon="1.96493">
        <ele>2370</ele>
        <time>2011-05-04T12:10:45Z</time>
      </trkpt>
      <trkpt lat="42.57657" lon="1.965">
        <ele>2370</ele>
        <time>2011-05-04T12:10:52Z</time>
      </trkpt>
      <trkpt lat="42.57654" lon="1.96507">
        <ele>2370</ele>
        <time>2011-05-04T12:11:08Z</time>
      </trkpt>
      <trkpt lat="42.5765" lon="1.96515">
        <ele>2370</ele>
        <time>2011-05-04T12:11:16Z</time>
      </trkpt>
      <trkpt lat="42.57647" lon="1.96524">
        <ele>2370</ele>
        <time>2011-05-04T12:11:23Z</time>
      </trkpt>
      <trkpt lat="42.57644" lon="1.96532">
        <ele>2370</ele>
        <time>2011-05-04T12:11:30Z</time>
      </trkpt>
      <trkpt lat="42.57647" lon="1.96541">
        <ele>2370</ele>
        <time>2011-05-04T12:11:48Z</time>
      </trkpt>
      <trkpt lat="42.57654" lon="1.96546">
        <ele>2370</ele>
        <time>2011-05-04T12:11:55Z</time>
      </trkpt>
      <trkpt lat="42.57659" lon="1.96551">
        <ele>2370</ele>
        <time>2011-05-04T12:12:01Z</time>
      </trkpt>
      <trkpt lat="42.57656" lon="1.96544">
        <ele>2368</ele>
        <time>2011-05-04T12:13:35Z</time>
      </trkpt>
      <trkpt lat="42.57649" lon="1.96539">
        <ele>2368</ele>
        <time>2011-05-04T12:13:45Z</time>
      </trkpt>
      <trkpt lat="42.57643" lon="1.96538">
        <ele>2368</ele>
        <time>2011-05-04T12:13:59Z</time>
      </trkpt>
      <trkpt lat="42.57637" lon="1.96536">
        <ele>2368</ele>
        <time>2011-05-04T12:14:22Z</time>
      </trkpt>
      <trkpt lat="42.57631" lon="1.96534">
        <ele>2368</ele>
        <time>2011-05-04T12:14:35Z</time>
      </trkpt>
      <trkpt lat="42.57624" lon="1.96535">
        <ele>2368</ele>
        <time>2011-05-04T12:14:46Z</time>
      </trkpt>
      <trkpt lat="42.57619" lon="1.96541">
        <ele>2368</ele>
        <time>2011-05-04T12:15:03Z</time>
      </trkpt>
      <trkpt lat="42.57616" lon="1.96549">
        <ele>2369</ele>
        <time>2011-05-04T12:15:13Z</time>
      </trkpt>
      <trkpt lat="42.57614" lon="1.96558">
        <ele>2369</ele>
        <time>2011-05-04T12:15:34Z</time>
      </trkpt>
      <trkpt lat="42.57613" lon="1.96567">
        <ele>2369</ele>
        <time>2011-05-04T12:15:41Z</time>
      </trkpt>
      <trkpt lat="42.57613" lon="1.96577">
        <ele>2369</ele>
        <time>2011-05-04T12:15:48Z</time>
      </trkpt>
      <trkpt lat="42.57609" lon="1.96593">
        <ele>2369</ele>
        <time>2011-05-04T12:16:01Z</time>
      </trkpt>
      <trkpt lat="42.57606" lon="1.96601">
        <ele>2369</ele>
        <time>2011-05-04T12:16:07Z</time>
      </trkpt>
      <trkpt lat="42.57606" lon="1.9661">
        <ele>2368</ele>
        <time>2011-05-04T12:16:48Z</time>
      </trkpt>
      <trkpt lat="42.576" lon="1.96613">
        <ele>2368</ele>
        <time>2011-05-04T12:16:58Z</time>
      </trkpt>
      <trkpt lat="42.57601" lon="1.96621">
        <ele>2369</ele>
        <time>2011-05-04T12:17:08Z</time>
      </trkpt>
      <trkpt lat="42.57606" lon="1.96626">
        <ele>2369</ele>
        <time>2011-05-04T12:17:29Z</time>
      </trkpt>
      <trkpt lat="42.57612" lon="1.9663">
        <ele>2369</ele>
        <time>2011-05-04T12:17:50Z</time>
      </trkpt>
      <trkpt lat="42.57616" lon="1.96637">
        <ele>2369</ele>
        <time>2011-05-04T12:18:14Z</time>
      </trkpt>
      <trkpt lat="42.57615" lon="1.96646">
        <ele>2368</ele>
        <time>2011-05-04T12:18:22Z</time>
      </trkpt>
      <trkpt lat="42.57615" lon="1.96655">
        <ele>2368</ele>
        <time>2011-05-04T12:18:31Z</time>
      </trkpt>
      <trkpt lat="42.57613" lon="1.96664">
        <ele>2368</ele>
        <time>2011-05-04T12:18:47Z</time>
      </trkpt>
      <trkpt lat="42.57614" lon="1.96672">
        <ele>2369</ele>
        <time>2011-05-04T12:19:02Z</time>
      </trkpt>
      <trkpt lat="42.57615" lon="1.96681">
        <ele>2370</ele>
        <time>2011-05-04T12:20:24Z</time>
      </trkpt>
      <trkpt lat="42.57613" lon="1.96689">
        <ele>2370</ele>
        <time>2011-05-04T12:20:46Z</time>
      </trkpt>
      <trkpt lat="42.57609" lon="1.96697">
        <ele>2371</ele>
        <time>2011-05-04T12:21:04Z</time>
      </trkpt>
      <trkpt lat="42.57599" lon="1.96708">
        <ele>2373</ele>
        <time>2011-05-04T12:21:39Z</time>
      </trkpt>
      <trkpt lat="42.57593" lon="1.96707">
        <ele>2374</ele>
        <time>2011-05-04T12:21:52Z</time>
      </trkpt>
      <trkpt lat="42.57582" lon="1.96716">
        <ele>2374</ele>
        <time>2011-05-04T12:22:22Z</time>
      </trkpt>
      <trkpt lat="42.57578" lon="1.96724">
        <ele>2375</ele>
        <time>2011-05-04T12:22:56Z</time>
      </trkpt>
      <trkpt lat="42.57575" lon="1.96732">
        <ele>2376</ele>
        <time>2011-05-04T12:23:13Z</time>
      </trkpt>
      <trkpt lat="42.57576" lon="1.9674">
        <ele>2376</ele>
        <time>2011-05-04T12:24:07Z</time>
      </trkpt>
      <trkpt lat="42.57577" lon="1.96749">
        <ele>2376</ele>
        <time>2011-05-04T12:24:56Z</time>
      </trkpt>
      <trkpt lat="42.5758" lon="1.96757">
        <ele>2375</ele>
        <time>2011-05-04T12:25:20Z</time>
      </trkpt>
      <trkpt lat="42.57582" lon="1.96765">
        <ele>2375</ele>
        <time>2011-05-04T12:25:36Z</time>
      </trkpt>
      <trkpt lat="42.57584" lon="1.96774">
        <ele>2375</ele>
        <time>2011-05-04T12:25:50Z</time>
      </trkpt>
      <trkpt lat="42.57589" lon="1.9678">
        <ele>2374</ele>
        <time>2011-05-04T12:26:02Z</time>
      </trkpt>
      <trkpt lat="42.57589" lon="1.96789">
        <ele>2374</ele>
        <time>2011-05-04T12:26:12Z</time>
      </trkpt>
      <trkpt lat="42.57588" lon="1.96799">
        <ele>2374</ele>
        <time>2011-05-04T12:26:20Z</time>
      </trkpt>
      <trkpt lat="42.57586" lon="1.96807">
        <ele>2374</ele>
        <time>2011-05-04T12:26:30Z</time>
      </trkpt>
      <trkpt lat="42.57583" lon="1.96815">
        <ele>2373</ele>
        <time>2011-05-04T12:26:37Z</time>
      </trkpt>
      <trkpt lat="42.57581" lon="1.96824">
        <ele>2373</ele>
        <time>2011-05-04T12:26:45Z</time>
      </trkpt>
      <trkpt lat="42.5758" lon="1.96834">
        <ele>2373</ele>
        <time>2011-05-04T12:26:52Z</time>
      </trkpt>
      <trkpt lat="42.57579" lon="1.96843">
        <ele>2373</ele>
        <time>2011-05-04T12:27:00Z</time>
      </trkpt>
      <trkpt lat="42.57577" lon="1.96851">
        <ele>2373</ele>
        <time>2011-05-04T12:27:10Z</time>
      </trkpt>
      <trkpt lat="42.57577" lon="1.9686">
        <ele>2372</ele>
        <time>2011-05-04T12:27:19Z</time>
      </trkpt>
      <trkpt lat="42.57574" lon="1.96868">
        <ele>2371</ele>
        <time>2011-05-04T12:27:28Z</time>
      </trkpt>
      <trkpt lat="42.5757" lon="1.96875">
        <ele>2369</ele>
        <time>2011-05-04T12:27:46Z</time>
      </trkpt>
      <trkpt lat="42.57564" lon="1.9688">
        <ele>2369</ele>
        <time>2011-05-04T12:28:02Z</time>
      </trkpt>
      <trkpt lat="42.5756" lon="1.96887">
        <ele>2367</ele>
        <time>2011-05-04T12:28:11Z</time>
      </trkpt>
      <trkpt lat="42.57559" lon="1.96895">
        <ele>2366</ele>
        <time>2011-05-04T12:28:20Z</time>
      </trkpt>
      <trkpt lat="42.57557" lon="1.96904">
        <ele>2365</ele>
        <time>2011-05-04T12:28:29Z</time>
      </trkpt>
      <trkpt lat="42.57554" lon="1.96912">
        <ele>2364</ele>
        <time>2011-05-04T12:28:39Z</time>
      </trkpt>
      <trkpt lat="42.57555" lon="1.96921">
        <ele>2363</ele>
        <time>2011-05-04T12:29:17Z</time>
      </trkpt>
      <trkpt lat="42.57558" lon="1.96929">
        <ele>2362</ele>
        <time>2011-05-04T12:29:25Z</time>
      </trkpt>
      <trkpt lat="42.57559" lon="1.96938">
        <ele>2361</ele>
        <time>2011-05-04T12:29:39Z</time>
      </trkpt>
      <trkpt lat="42.57561" lon="1.96946">
        <ele>2360</ele>
        <time>2011-05-04T12:30:04Z</time>
      </trkpt>
      <trkpt lat="42.57557" lon="1.96953">
        <ele>2358</ele>
        <time>2011-05-04T12:30:20Z</time>
      </trkpt>
      <trkpt lat="42.57545" lon="1.96957">
        <ele>2357</ele>
        <time>2011-05-04T12:30:54Z</time>
      </trkpt>
      <trkpt lat="42.57541" lon="1.96964">
        <ele>2355</ele>
        <time>2011-05-04T12:31:10Z</time>
      </trkpt>
      <trkpt lat="42.57538" lon="1.96972">
        <ele>2354</ele>
        <time>2011-05-04T12:31:20Z</time>
      </trkpt>
      <trkpt lat="42.57536" lon="1.96981">
        <ele>2353</ele>
        <time>2011-05-04T12:31:29Z</time>
      </trkpt>
      <trkpt lat="42.57535" lon="1.9699">
        <ele>2353</ele>
        <time>2011-05-04T12:31:46Z</time>
      </trkpt>
      <trkpt lat="42.5753" lon="1.96997">
        <ele>2352</ele>
        <time>2011-05-04T12:32:04Z</time>
      </trkpt>
      <trkpt lat="42.57525" lon="1.97003">
        <ele>2351</ele>
        <time>2011-05-04T12:32:23Z</time>
      </trkpt>
      <trkpt lat="42.57524" lon="1.9702">
        <ele>2348</ele>
        <time>2011-05-04T12:32:49Z</time>
      </trkpt>
      <trkpt lat="42.57522" lon="1.97028">
        <ele>2348</ele>
        <time>2011-05-04T12:32:58Z</time>
      </trkpt>
      <trkpt lat="42.57518" lon="1.97036">
        <ele>2347</ele>
        <time>2011-05-04T12:33:07Z</time>
      </trkpt>
      <trkpt lat="42.57515" lon="1.97044">
        <ele>2347</ele>
        <time>2011-05-04T12:33:15Z</time>
      </trkpt>
      <trkpt lat="42.5751" lon="1.97051">
        <ele>2346</ele>
        <time>2011-05-04T12:33:26Z</time>
      </trkpt>
      <trkpt lat="42.57508" lon="1.97059">
        <ele>2345</ele>
        <time>2011-05-04T12:33:36Z</time>
      </trkpt>
      <trkpt lat="42.57505" lon="1.97067">
        <ele>2343</ele>
        <time>2011-05-04T12:33:50Z</time>
      </trkpt>
      <trkpt lat="42.57502" lon="1.97074">
        <ele>2340</ele>
        <time>2011-05-04T12:34:01Z</time>
      </trkpt>
      <trkpt lat="42.57498" lon="1.97082">
        <ele>2338</ele>
        <time>2011-05-04T12:34:12Z</time>
      </trkpt>
      <trkpt lat="42.57497" lon="1.97091">
        <ele>2336</ele>
        <time>2011-05-04T12:34:22Z</time>
      </trkpt>
      <trkpt lat="42.57494" lon="1.97099">
        <ele>2333</ele>
        <time>2011-05-04T12:34:35Z</time>
      </trkpt>
      <trkpt lat="42.57493" lon="1.97107">
        <ele>2331</ele>
        <time>2011-05-04T12:34:48Z</time>
      </trkpt>
      <trkpt lat="42.5749" lon="1.97116">
        <ele>2329</ele>
        <time>2011-05-04T12:34:57Z</time>
      </trkpt>
      <trkpt lat="42.57487" lon="1.97123">
        <ele>2327</ele>
        <time>2011-05-04T12:35:05Z</time>
      </trkpt>
      <trkpt lat="42.57484" lon="1.97131">
        <ele>2325</ele>
        <time>2011-05-04T12:35:17Z</time>
      </trkpt>
      <trkpt lat="42.57483" lon="1.9714">
        <ele>2323</ele>
        <time>2011-05-04T12:35:25Z</time>
      </trkpt>
      <trkpt lat="42.57481" lon="1.97148">
        <ele>2321</ele>
        <time>2011-05-04T12:35:35Z</time>
      </trkpt>
      <trkpt lat="42.57479" lon="1.97157">
        <ele>2319</ele>
        <time>2011-05-04T12:35:47Z</time>
      </trkpt>
      <trkpt lat="42.57477" lon="1.97166">
        <ele>2317</ele>
        <time>2011-05-04T12:35:59Z</time>
      </trkpt>
      <trkpt lat="42.57475" lon="1.97174">
        <ele>2316</ele>
        <time>2011-05-04T12:36:06Z</time>
      </trkpt>
      <trkpt lat="42.57471" lon="1.97181">
        <ele>2314</ele>
        <time>2011-05-04T12:36:14Z</time>
      </trkpt>
      <trkpt lat="42.57467" lon="1.97188">
        <ele>2312</ele>
        <time>2011-05-04T12:36:22Z</time>
      </trkpt>
      <trkpt lat="42.57461" lon="1.97194">
        <ele>2310</ele>
        <time>2011-05-04T12:36:38Z</time>
      </trkpt>
      <trkpt lat="42.57456" lon="1.97201">
        <ele>2309</ele>
        <time>2011-05-04T12:36:48Z</time>
      </trkpt>
      <trkpt lat="42.57452" lon="1.97206">
        <ele>2308</ele>
        <time>2011-05-04T12:36:56Z</time>
      </trkpt>
      <trkpt lat="42.57449" lon="1.97214">
        <ele>2307</ele>
        <time>2011-05-04T12:37:05Z</time>
      </trkpt>
      <trkpt lat="42.57446" lon="1.97222">
        <ele>2307</ele>
        <time>2011-05-04T12:37:17Z</time>
      </trkpt>
      <trkpt lat="42.57447" lon="1.9723">
        <ele>2306</ele>
        <time>2011-05-04T12:37:30Z</time>
      </trkpt>
      <trkpt lat="42.57446" lon="1.97239">
        <ele>2304</ele>
        <time>2011-05-04T12:37:43Z</time>
      </trkpt>
      <trkpt lat="42.5744" lon="1.97243">
        <ele>2303</ele>
        <time>2011-05-04T12:37:54Z</time>
      </trkpt>
      <trkpt lat="42.57428" lon="1.97247">
        <ele>2301</ele>
        <time>2011-05-04T12:38:20Z</time>
      </trkpt>
      <trkpt lat="42.57423" lon="1.97252">
        <ele>2299</ele>
        <time>2011-05-04T12:38:34Z</time>
      </trkpt>
      <trkpt lat="42.57417" lon="1.97257">
        <ele>2298</ele>
        <time>2011-05-04T12:38:44Z</time>
      </trkpt>
      <trkpt lat="42.57413" lon="1.97265">
        <ele>2297</ele>
        <time>2011-05-04T12:38:57Z</time>
      </trkpt>
      <trkpt lat="42.5741" lon="1.97271">
        <ele>2297</ele>
        <time>2011-05-04T12:39:04Z</time>
      </trkpt>
      <trkpt lat="42.57402" lon="1.97287">
        <ele>2296</ele>
        <time>2011-05-04T12:39:19Z</time>
      </trkpt>
      <trkpt lat="42.57399" lon="1.97295">
        <ele>2295</ele>
        <time>2011-05-04T12:39:26Z</time>
      </trkpt>
      <trkpt lat="42.57395" lon="1.97302">
        <ele>2295</ele>
        <time>2011-05-04T12:39:33Z</time>
      </trkpt>
      <trkpt lat="42.57394" lon="1.97311">
        <ele>2295</ele>
        <time>2011-05-04T12:39:40Z</time>
      </trkpt>
      <trkpt lat="42.57392" lon="1.9732">
        <ele>2294</ele>
        <time>2011-05-04T12:39:47Z</time>
      </trkpt>
      <trkpt lat="42.57391" lon="1.97329">
        <ele>2294</ele>
        <time>2011-05-04T12:39:54Z</time>
      </trkpt>
      <trkpt lat="42.5739" lon="1.97338">
        <ele>2294</ele>
        <time>2011-05-04T12:40:01Z</time>
      </trkpt>
      <trkpt lat="42.5739" lon="1.97346">
        <ele>2294</ele>
        <time>2011-05-04T12:40:08Z</time>
      </trkpt>
      <trkpt lat="42.5739" lon="1.97355">
        <ele>2293</ele>
        <time>2011-05-04T12:40:15Z</time>
      </trkpt>
      <trkpt lat="42.57389" lon="1.97364">
        <ele>2294</ele>
        <time>2011-05-04T12:40:25Z</time>
      </trkpt>
      <trkpt lat="42.57384" lon="1.97369">
        <ele>2294</ele>
        <time>2011-05-04T12:41:19Z</time>
      </trkpt>
      <trkpt lat="42.57382" lon="1.97378">
        <ele>2295</ele>
        <time>2011-05-04T12:41:26Z</time>
      </trkpt>
      <trkpt lat="42.57379" lon="1.97386">
        <ele>2295</ele>
        <time>2011-05-04T12:41:34Z</time>
      </trkpt>
      <trkpt lat="42.57376" lon="1.97394">
        <ele>2295</ele>
        <time>2011-05-04T12:41:40Z</time>
      </trkpt>
      <trkpt lat="42.57372" lon="1.97402">
        <ele>2295</ele>
        <time>2011-05-04T12:41:47Z</time>
      </trkpt>
      <trkpt lat="42.5737" lon="1.97411">
        <ele>2295</ele>
        <time>2011-05-04T12:41:54Z</time>
      </trkpt>
      <trkpt lat="42.57368" lon="1.97421">
        <ele>2295</ele>
        <time>2011-05-04T12:42:01Z</time>
      </trkpt>
      <trkpt lat="42.57365" lon="1.97429">
        <ele>2295</ele>
        <time>2011-05-04T12:42:07Z</time>
      </trkpt>
      <trkpt lat="42.57363" lon="1.97439">
        <ele>2295</ele>
        <time>2011-05-04T12:42:13Z</time>
      </trkpt>
      <trkpt lat="42.5736" lon="1.97447">
        <ele>2295</ele>
        <time>2011-05-04T12:42:19Z</time>
      </trkpt>
      <trkpt lat="42.57356" lon="1.97454">
        <ele>2295</ele>
        <time>2011-05-04T12:42:25Z</time>
      </trkpt>
      <trkpt lat="42.57353" lon="1.97462">
        <ele>2295</ele>
        <time>2011-05-04T12:42:31Z</time>
      </trkpt>
      <trkpt lat="42.57349" lon="1.97469">
        <ele>2295</ele>
        <time>2011-05-04T12:42:37Z</time>
      </trkpt>
      <trkpt lat="42.57344" lon="1.97476">
        <ele>2295</ele>
        <time>2011-05-04T12:42:44Z</time>
      </trkpt>
      <trkpt lat="42.5734" lon="1.97482">
        <ele>2295</ele>
        <time>2011-05-04T12:42:51Z</time>
      </trkpt>
      <trkpt lat="42.57335" lon="1.97489">
        <ele>2295</ele>
        <time>2011-05-04T12:42:58Z</time>
      </trkpt>
      <trkpt lat="42.5733" lon="1.97496">
        <ele>2295</ele>
        <time>2011-05-04T12:43:05Z</time>
      </trkpt>
      <trkpt lat="42.57324" lon="1.97501">
        <ele>2295</ele>
        <time>2011-05-04T12:43:12Z</time>
      </trkpt>
      <trkpt lat="42.57319" lon="1.97507">
        <ele>2295</ele>
        <time>2011-05-04T12:43:19Z</time>
      </trkpt>
      <trkpt lat="42.57315" lon="1.97514">
        <ele>2295</ele>
        <time>2011-05-04T12:43:27Z</time>
      </trkpt>
      <trkpt lat="42.57313" lon="1.97522">
        <ele>2295</ele>
        <time>2011-05-04T12:43:44Z</time>
      </trkpt>
      <trkpt lat="42.57313" lon="1.97532">
        <ele>2294</ele>
        <time>2011-05-04T12:44:00Z</time>
      </trkpt>
      <trkpt lat="42.5731" lon="1.97539">
        <ele>2294</ele>
        <time>2011-05-04T12:44:07Z</time>
      </trkpt>
      <trkpt lat="42.57305" lon="1.97546">
        <ele>2293</ele>
        <time>2011-05-04T12:44:16Z</time>
      </trkpt>
      <trkpt lat="42.57302" lon="1.97553">
        <ele>2293</ele>
        <time>2011-05-04T12:44:28Z</time>
      </trkpt>
      <trkpt lat="42.57298" lon="1.9756">
        <ele>2292</ele>
        <time>2011-05-04T12:44:41Z</time>
      </trkpt>
      <trkpt lat="42.57296" lon="1.97568">
        <ele>2292</ele>
        <time>2011-05-04T12:44:58Z</time>
      </trkpt>
      <trkpt lat="42.57293" lon="1.97576">
        <ele>2291</ele>
        <time>2011-05-04T12:45:15Z</time>
      </trkpt>
      <trkpt lat="42.57289" lon="1.97583">
        <ele>2290</ele>
        <time>2011-05-04T12:45:27Z</time>
      </trkpt>
      <trkpt lat="42.57285" lon="1.9759">
        <ele>2289</ele>
        <time>2011-05-04T12:45:40Z</time>
      </trkpt>
      <trkpt lat="42.57279" lon="1.97595">
        <ele>2287</ele>
        <time>2011-05-04T12:45:57Z</time>
      </trkpt>
      <trkpt lat="42.57276" lon="1.97602">
        <ele>2287</ele>
        <time>2011-05-04T12:46:06Z</time>
      </trkpt>
      <trkpt lat="42.57273" lon="1.97611">
        <ele>2286</ele>
        <time>2011-05-04T12:46:16Z</time>
      </trkpt>
      <trkpt lat="42.57269" lon="1.9762">
        <ele>2285</ele>
        <time>2011-05-04T12:46:25Z</time>
      </trkpt>
      <trkpt lat="42.57267" lon="1.97628">
        <ele>2285</ele>
        <time>2011-05-04T12:46:31Z</time>
      </trkpt>
      <trkpt lat="42.57266" lon="1.97636">
        <ele>2284</ele>
        <time>2011-05-04T12:46:38Z</time>
      </trkpt>
      <trkpt lat="42.57267" lon="1.97645">
        <ele>2284</ele>
        <time>2011-05-04T12:46:51Z</time>
      </trkpt>
      <trkpt lat="42.57264" lon="1.97653">
        <ele>2283</ele>
        <time>2011-05-04T12:47:07Z</time>
      </trkpt>
      <trkpt lat="42.57258" lon="1.97658">
        <ele>2283</ele>
        <time>2011-05-04T12:47:21Z</time>
      </trkpt>
      <trkpt lat="42.57255" lon="1.97665">
        <ele>2282</ele>
        <time>2011-05-04T12:47:29Z</time>
      </trkpt>
      <trkpt lat="42.57252" lon="1.97673">
        <ele>2282</ele>
        <time>2011-05-04T12:47:36Z</time>
      </trkpt>
      <trkpt lat="42.57247" lon="1.9768">
        <ele>2281</ele>
        <time>2011-05-04T12:47:47Z</time>
      </trkpt>
      <trkpt lat="42.57242" lon="1.97686">
        <ele>2280</ele>
        <time>2011-05-04T12:47:55Z</time>
      </trkpt>
      <trkpt lat="42.57233" lon="1.97698">
        <ele>2279</ele>
        <time>2011-05-04T12:48:17Z</time>
      </trkpt>
      <trkpt lat="42.57231" lon="1.97707">
        <ele>2278</ele>
        <time>2011-05-04T12:48:29Z</time>
      </trkpt>
      <trkpt lat="42.57226" lon="1.97713">
        <ele>2277</ele>
        <time>2011-05-04T12:48:40Z</time>
      </trkpt>
      <trkpt lat="42.57221" lon="1.97718">
        <ele>2276</ele>
        <time>2011-05-04T12:48:56Z</time>
      </trkpt>
      <trkpt lat="42.57217" lon="1.97725">
        <ele>2276</ele>
        <time>2011-05-04T12:49:05Z</time>
      </trkpt>
      <trkpt lat="42.57211" lon="1.97741">
        <ele>2274</ele>
        <time>2011-05-04T12:49:28Z</time>
      </trkpt>
      <trkpt lat="42.57207" lon="1.97748">
        <ele>2273</ele>
        <time>2011-05-04T12:49:36Z</time>
      </trkpt>
      <trkpt lat="42.57202" lon="1.97753">
        <ele>2273</ele>
        <time>2011-05-04T12:49:43Z</time>
      </trkpt>
      <trkpt lat="42.57197" lon="1.9776">
        <ele>2272</ele>
        <time>2011-05-04T12:49:51Z</time>
      </trkpt>
      <trkpt lat="42.57193" lon="1.97765">
        <ele>2271</ele>
        <time>2011-05-04T12:50:02Z</time>
      </trkpt>
      <trkpt lat="42.57188" lon="1.97772">
        <ele>2271</ele>
        <time>2011-05-04T12:50:13Z</time>
      </trkpt>
      <trkpt lat="42.57183" lon="1.97778">
        <ele>2270</ele>
        <time>2011-05-04T12:50:22Z</time>
      </trkpt>
      <trkpt lat="42.57178" lon="1.97784">
        <ele>2269</ele>
        <time>2011-05-04T12:50:30Z</time>
      </trkpt>
      <trkpt lat="42.57173" lon="1.97788">
        <ele>2269</ele>
        <time>2011-05-04T12:50:37Z</time>
      </trkpt>
      <trkpt lat="42.57167" lon="1.97792">
        <ele>2269</ele>
        <time>2011-05-04T12:50:44Z</time>
      </trkpt>
      <trkpt lat="42.57162" lon="1.97798">
        <ele>2268</ele>
        <time>2011-05-04T12:50:53Z</time>
      </trkpt>
      <trkpt lat="42.57157" lon="1.97804">
        <ele>2268</ele>
        <time>2011-05-04T12:51:03Z</time>
      </trkpt>
      <trkpt lat="42.57152" lon="1.9781">
        <ele>2268</ele>
        <time>2011-05-04T12:51:12Z</time>
      </trkpt>
      <trkpt lat="42.57144" lon="1.97824">
        <ele>2266</ele>
        <time>2011-05-04T12:51:34Z</time>
      </trkpt>
      <trkpt lat="42.57139" lon="1.97829">
        <ele>2266</ele>
        <time>2011-05-04T12:51:42Z</time>
      </trkpt>
      <trkpt lat="42.57134" lon="1.97836">
        <ele>2265</ele>
        <time>2011-05-04T12:51:52Z</time>
      </trkpt>
      <trkpt lat="42.57126" lon="1.97849">
        <ele>2264</ele>
        <time>2011-05-04T12:52:29Z</time>
      </trkpt>
      <trkpt lat="42.57121" lon="1.97855">
        <ele>2264</ele>
        <time>2011-05-04T12:52:47Z</time>
      </trkpt>
      <trkpt lat="42.57116" lon="1.9786">
        <ele>2263</ele>
        <time>2011-05-04T12:53:04Z</time>
      </trkpt>
      <trkpt lat="42.5711" lon="1.97864">
        <ele>2262</ele>
        <time>2011-05-04T12:53:17Z</time>
      </trkpt>
      <trkpt lat="42.57104" lon="1.97868">
        <ele>2262</ele>
        <time>2011-05-04T12:53:36Z</time>
      </trkpt>
      <trkpt lat="42.57099" lon="1.97874">
        <ele>2261</ele>
        <time>2011-05-04T12:54:00Z</time>
      </trkpt>
      <trkpt lat="42.57094" lon="1.97879">
        <ele>2261</ele>
        <time>2011-05-04T12:54:37Z</time>
      </trkpt>
      <trkpt lat="42.57089" lon="1.97885">
        <ele>2260</ele>
        <time>2011-05-04T12:54:54Z</time>
      </trkpt>
      <trkpt lat="42.57087" lon="1.97893">
        <ele>2259</ele>
        <time>2011-05-04T12:55:17Z</time>
      </trkpt>
      <trkpt lat="42.57075" lon="1.97897">
        <ele>2259</ele>
        <time>2011-05-04T12:55:42Z</time>
      </trkpt>
      <trkpt lat="42.57065" lon="1.97906">
        <ele>2258</ele>
        <time>2011-05-04T12:56:00Z</time>
      </trkpt>
      <trkpt lat="42.57059" lon="1.97911">
        <ele>2257</ele>
        <time>2011-05-04T12:56:09Z</time>
      </trkpt>
      <trkpt lat="42.57052" lon="1.97915">
        <ele>2257</ele>
        <time>2011-05-04T12:56:17Z</time>
      </trkpt>
      <trkpt lat="42.57045" lon="1.97916">
        <ele>2255</ele>
        <time>2011-05-04T12:56:26Z</time>
      </trkpt>
      <trkpt lat="42.5704" lon="1.9792">
        <ele>2254</ele>
        <time>2011-05-04T12:56:33Z</time>
      </trkpt>
      <trkpt lat="42.57034" lon="1.97925">
        <ele>2251</ele>
        <time>2011-05-04T12:56:43Z</time>
      </trkpt>
      <trkpt lat="42.57029" lon="1.97933">
        <ele>2250</ele>
        <time>2011-05-04T12:56:51Z</time>
      </trkpt>
      <trkpt lat="42.57029" lon="1.97942">
        <ele>2248</ele>
        <time>2011-05-04T12:57:01Z</time>
      </trkpt>
      <trkpt lat="42.57023" lon="1.97946">
        <ele>2246</ele>
        <time>2011-05-04T12:57:09Z</time>
      </trkpt>
      <trkpt lat="42.57016" lon="1.97947">
        <ele>2244</ele>
        <time>2011-05-04T12:57:19Z</time>
      </trkpt>
      <trkpt lat="42.57004" lon="1.97948">
        <ele>2242</ele>
        <time>2011-05-04T12:57:33Z</time>
      </trkpt>
      <trkpt lat="42.56997" lon="1.97946">
        <ele>2241</ele>
        <time>2011-05-04T12:57:42Z</time>
      </trkpt>
      <trkpt lat="42.56992" lon="1.9794">
        <ele>2240</ele>
        <time>2011-05-04T12:57:51Z</time>
      </trkpt>
      <trkpt lat="42.56988" lon="1.97933">
        <ele>2239</ele>
        <time>2011-05-04T12:57:59Z</time>
      </trkpt>
      <trkpt lat="42.56982" lon="1.97931">
        <ele>2239</ele>
        <time>2011-05-04T12:58:08Z</time>
      </trkpt>
      <trkpt lat="42.56975" lon="1.97933">
        <ele>2238</ele>
        <time>2011-05-04T12:58:20Z</time>
      </trkpt>
      <trkpt lat="42.56971" lon="1.97939">
        <ele>2238</ele>
        <time>2011-05-04T12:58:34Z</time>
      </trkpt>
      <trkpt lat="42.56967" lon="1.97947">
        <ele>2237</ele>
        <time>2011-05-04T12:58:43Z</time>
      </trkpt>
      <trkpt lat="42.56955" lon="1.97953">
        <ele>2237</ele>
        <time>2011-05-04T12:59:02Z</time>
      </trkpt>
      <trkpt lat="42.56943" lon="1.97968">
        <ele>2236</ele>
        <time>2011-05-04T12:59:49Z</time>
      </trkpt>
      <trkpt lat="42.56943" lon="1.97977">
        <ele>2237</ele>
        <time>2011-05-04T13:00:02Z</time>
      </trkpt>
      <trkpt lat="42.56944" lon="1.97986">
        <ele>2237</ele>
        <time>2011-05-04T13:00:09Z</time>
      </trkpt>
      <trkpt lat="42.56942" lon="1.97995">
        <ele>2237</ele>
        <time>2011-05-04T13:00:19Z</time>
      </trkpt>
      <trkpt lat="42.56936" lon="1.98">
        <ele>2237</ele>
        <time>2011-05-04T13:00:34Z</time>
      </trkpt>
      <trkpt lat="42.56931" lon="1.98005">
        <ele>2237</ele>
        <time>2011-05-04T13:00:42Z</time>
      </trkpt>
      <trkpt lat="42.56927" lon="1.98013">
        <ele>2237</ele>
        <time>2011-05-04T13:00:49Z</time>
      </trkpt>
      <trkpt lat="42.56913" lon="1.98032">
        <ele>2236</ele>
        <time>2011-05-04T13:01:09Z</time>
      </trkpt>
      <trkpt lat="42.56897" lon="1.98051">
        <ele>2235</ele>
        <time>2011-05-04T13:01:30Z</time>
      </trkpt>
      <trkpt lat="42.56892" lon="1.98057">
        <ele>2235</ele>
        <time>2011-05-04T13:01:37Z</time>
      </trkpt>
      <trkpt lat="42.56886" lon="1.98063">
        <ele>2235</ele>
        <time>2011-05-04T13:01:45Z</time>
      </trkpt>
      <trkpt lat="42.56879" lon="1.98065">
        <ele>2234</ele>
        <time>2011-05-04T13:01:53Z</time>
      </trkpt>
      <trkpt lat="42.56873" lon="1.98068">
        <ele>2234</ele>
        <time>2011-05-04T13:02:00Z</time>
      </trkpt>
      <trkpt lat="42.56866" lon="1.98072">
        <ele>2234</ele>
        <time>2011-05-04T13:02:08Z</time>
      </trkpt>
      <trkpt lat="42.5686" lon="1.98075">
        <ele>2233</ele>
        <time>2011-05-04T13:02:15Z</time>
      </trkpt>
      <trkpt lat="42.56854" lon="1.98077">
        <ele>2233</ele>
        <time>2011-05-04T13:02:22Z</time>
      </trkpt>
      <trkpt lat="42.56847" lon="1.98079">
        <ele>2233</ele>
        <time>2011-05-04T13:02:29Z</time>
      </trkpt>
      <trkpt lat="42.5684" lon="1.98081">
        <ele>2232</ele>
        <time>2011-05-04T13:02:37Z</time>
      </trkpt>
      <trkpt lat="42.56834" lon="1.98085">
        <ele>2232</ele>
        <time>2011-05-04T13:02:45Z</time>
      </trkpt>
      <trkpt lat="42.56823" lon="1.98096">
        <ele>2231</ele>
        <time>2011-05-04T13:03:03Z</time>
      </trkpt>
      <trkpt lat="42.5681" lon="1.98115">
        <ele>2230</ele>
        <time>2011-05-04T13:03:31Z</time>
      </trkpt>
      <trkpt lat="42.56804" lon="1.9812">
        <ele>2230</ele>
        <time>2011-05-04T13:03:38Z</time>
      </trkpt>
      <trkpt lat="42.56798" lon="1.98125">
        <ele>2230</ele>
        <time>2011-05-04T13:03:44Z</time>
      </trkpt>
      <trkpt lat="42.56793" lon="1.98131">
        <ele>2230</ele>
        <time>2011-05-04T13:03:51Z</time>
      </trkpt>
      <trkpt lat="42.56786" lon="1.98136">
        <ele>2229</ele>
        <time>2011-05-04T13:03:58Z</time>
      </trkpt>
      <trkpt lat="42.5678" lon="1.98138">
        <ele>2229</ele>
        <time>2011-05-04T13:04:04Z</time>
      </trkpt>
      <trkpt lat="42.56775" lon="1.98144">
        <ele>2229</ele>
        <time>2011-05-04T13:04:12Z</time>
      </trkpt>
      <trkpt lat="42.56771" lon="1.98151">
        <ele>2228</ele>
        <time>2011-05-04T13:04:22Z</time>
      </trkpt>
      <trkpt lat="42.56768" lon="1.9816">
        <ele>2228</ele>
        <time>2011-05-04T13:04:31Z</time>
      </trkpt>
      <trkpt lat="42.56756" lon="1.98181">
        <ele>2227</ele>
        <time>2011-05-04T13:05:09Z</time>
      </trkpt>
      <trkpt lat="42.56753" lon="1.98189">
        <ele>2227</ele>
        <time>2011-05-04T13:05:17Z</time>
      </trkpt>
      <trkpt lat="42.56752" lon="1.98198">
        <ele>2227</ele>
        <time>2011-05-04T13:05:26Z</time>
      </trkpt>
      <trkpt lat="42.56752" lon="1.98207">
        <ele>2227</ele>
        <time>2011-05-04T13:05:35Z</time>
      </trkpt>
      <trkpt lat="42.56749" lon="1.98216">
        <ele>2227</ele>
        <time>2011-05-04T13:05:46Z</time>
      </trkpt>
      <trkpt lat="42.56744" lon="1.98222">
        <ele>2227</ele>
        <time>2011-05-04T13:05:58Z</time>
      </trkpt>
      <trkpt lat="42.56738" lon="1.98225">
        <ele>2227</ele>
        <time>2011-05-04T13:06:05Z</time>
      </trkpt>
      <trkpt lat="42.56732" lon="1.98229">
        <ele>2226</ele>
        <time>2011-05-04T13:06:12Z</time>
      </trkpt>
      <trkpt lat="42.56719" lon="1.98235">
        <ele>2226</ele>
        <time>2011-05-04T13:06:28Z</time>
      </trkpt>
      <trkpt lat="42.56713" lon="1.98235">
        <ele>2226</ele>
        <time>2011-05-04T13:06:37Z</time>
      </trkpt>
      <trkpt lat="42.56706" lon="1.98237">
        <ele>2226</ele>
        <time>2011-05-04T13:06:49Z</time>
      </trkpt>
      <trkpt lat="42.56694" lon="1.98244">
        <ele>2225</ele>
        <time>2011-05-04T13:07:13Z</time>
      </trkpt>
      <trkpt lat="42.56688" lon="1.98243">
        <ele>2224</ele>
        <time>2011-05-04T13:07:30Z</time>
      </trkpt>
      <trkpt lat="42.56682" lon="1.98247">
        <ele>2224</ele>
        <time>2011-05-04T13:07:43Z</time>
      </trkpt>
      <trkpt lat="42.56676" lon="1.98249">
        <ele>2224</ele>
        <time>2011-05-04T13:07:54Z</time>
      </trkpt>
      <trkpt lat="42.5667" lon="1.98253">
        <ele>2224</ele>
        <time>2011-05-04T13:08:05Z</time>
      </trkpt>
      <trkpt lat="42.56666" lon="1.98259">
        <ele>2223</ele>
        <time>2011-05-04T13:08:45Z</time>
      </trkpt>
      <trkpt lat="42.56653" lon="1.9826">
        <ele>2220</ele>
        <time>2011-05-04T13:09:29Z</time>
      </trkpt>
      <trkpt lat="42.56641" lon="1.98262">
        <ele>2218</ele>
        <time>2011-05-04T13:10:04Z</time>
      </trkpt>
      <trkpt lat="42.56635" lon="1.98266">
        <ele>2216</ele>
        <time>2011-05-04T13:10:26Z</time>
      </trkpt>
      <trkpt lat="42.56628" lon="1.98268">
        <ele>2215</ele>
        <time>2011-05-04T13:10:35Z</time>
      </trkpt>
      <trkpt lat="42.56615" lon="1.98268">
        <ele>2214</ele>
        <time>2011-05-04T13:10:51Z</time>
      </trkpt>
      <trkpt lat="42.56609" lon="1.98269">
        <ele>2213</ele>
        <time>2011-05-04T13:10:59Z</time>
      </trkpt>
      <trkpt lat="42.56602" lon="1.98269">
        <ele>2213</ele>
        <time>2011-05-04T13:11:10Z</time>
      </trkpt>
      <trkpt lat="42.56595" lon="1.98271">
        <ele>2212</ele>
        <time>2011-05-04T13:11:17Z</time>
      </trkpt>
      <trkpt lat="42.56588" lon="1.98273">
        <ele>2211</ele>
        <time>2011-05-04T13:11:23Z</time>
      </trkpt>
      <trkpt lat="42.56582" lon="1.98275">
        <ele>2210</ele>
        <time>2011-05-04T13:11:30Z</time>
      </trkpt>
      <trkpt lat="42.56577" lon="1.98281">
        <ele>2209</ele>
        <time>2011-05-04T13:11:38Z</time>
      </trkpt>
      <trkpt lat="42.56572" lon="1.98288">
        <ele>2208</ele>
        <time>2011-05-04T13:11:45Z</time>
      </trkpt>
      <trkpt lat="42.56567" lon="1.98293">
        <ele>2207</ele>
        <time>2011-05-04T13:11:52Z</time>
      </trkpt>
      <trkpt lat="42.56561" lon="1.98298">
        <ele>2206</ele>
        <time>2011-05-04T13:12:00Z</time>
      </trkpt>
      <trkpt lat="42.56557" lon="1.98304">
        <ele>2205</ele>
        <time>2011-05-04T13:12:20Z</time>
      </trkpt>
      <trkpt lat="42.56553" lon="1.98311">
        <ele>2205</ele>
        <time>2011-05-04T13:12:30Z</time>
      </trkpt>
      <trkpt lat="42.56546" lon="1.98314">
        <ele>2204</ele>
        <time>2011-05-04T13:12:39Z</time>
      </trkpt>
      <trkpt lat="42.56539" lon="1.98317">
        <ele>2203</ele>
        <time>2011-05-04T13:12:47Z</time>
      </trkpt>
      <trkpt lat="42.56534" lon="1.98321">
        <ele>2203</ele>
        <time>2011-05-04T13:12:54Z</time>
      </trkpt>
      <trkpt lat="42.56531" lon="1.98329">
        <ele>2202</ele>
        <time>2011-05-04T13:13:02Z</time>
      </trkpt>
      <trkpt lat="42.56531" lon="1.98338">
        <ele>2201</ele>
        <time>2011-05-04T13:13:13Z</time>
      </trkpt>
      <trkpt lat="42.5653" lon="1.98347">
        <ele>2201</ele>
        <time>2011-05-04T13:13:23Z</time>
      </trkpt>
      <trkpt lat="42.56525" lon="1.98354">
        <ele>2201</ele>
        <time>2011-05-04T13:13:32Z</time>
      </trkpt>
      <trkpt lat="42.56522" lon="1.98362">
        <ele>2201</ele>
        <time>2011-05-04T13:13:42Z</time>
      </trkpt>
      <trkpt lat="42.56518" lon="1.98369">
        <ele>2201</ele>
        <time>2011-05-04T13:13:49Z</time>
      </trkpt>
      <trkpt lat="42.56513" lon="1.98375">
        <ele>2201</ele>
        <time>2011-05-04T13:13:56Z</time>
      </trkpt>
      <trkpt lat="42.56508" lon="1.98382">
        <ele>2201</ele>
        <time>2011-05-04T13:14:06Z</time>
      </trkpt>
      <trkpt lat="42.565" lon="1.98395">
        <ele>2201</ele>
        <time>2011-05-04T13:14:42Z</time>
      </trkpt>
      <trkpt lat="42.56497" lon="1.98403">
        <ele>2201</ele>
        <time>2011-05-04T13:14:48Z</time>
      </trkpt>
      <trkpt lat="42.56492" lon="1.9841">
        <ele>2201</ele>
        <time>2011-05-04T13:14:55Z</time>
      </trkpt>
      <trkpt lat="42.56488" lon="1.98417">
        <ele>2201</ele>
        <time>2011-05-04T13:15:02Z</time>
      </trkpt>
      <trkpt lat="42.56485" lon="1.98425">
        <ele>2201</ele>
        <time>2011-05-04T13:15:09Z</time>
      </trkpt>
      <trkpt lat="42.56482" lon="1.98432">
        <ele>2201</ele>
        <time>2011-05-04T13:15:15Z</time>
      </trkpt>
      <trkpt lat="42.56481" lon="1.98441">
        <ele>2201</ele>
        <time>2011-05-04T13:15:21Z</time>
      </trkpt>
      <trkpt lat="42.56478" lon="1.98459">
        <ele>2202</ele>
        <time>2011-05-04T13:15:35Z</time>
      </trkpt>
      <trkpt lat="42.56475" lon="1.98468">
        <ele>2202</ele>
        <time>2011-05-04T13:15:43Z</time>
      </trkpt>
      <trkpt lat="42.56473" lon="1.98477">
        <ele>2203</ele>
        <time>2011-05-04T13:15:51Z</time>
      </trkpt>
      <trkpt lat="42.5647" lon="1.98485">
        <ele>2203</ele>
        <time>2011-05-04T13:15:58Z</time>
      </trkpt>
      <trkpt lat="42.56466" lon="1.98493">
        <ele>2203</ele>
        <time>2011-05-04T13:16:05Z</time>
      </trkpt>
      <trkpt lat="42.5646" lon="1.98498">
        <ele>2203</ele>
        <time>2011-05-04T13:16:11Z</time>
      </trkpt>
      <trkpt lat="42.56454" lon="1.98503">
        <ele>2203</ele>
        <time>2011-05-04T13:16:18Z</time>
      </trkpt>
      <trkpt lat="42.56449" lon="1.98508">
        <ele>2203</ele>
        <time>2011-05-04T13:16:26Z</time>
      </trkpt>
      <trkpt lat="42.56444" lon="1.98513">
        <ele>2203</ele>
        <time>2011-05-04T13:16:33Z</time>
      </trkpt>
      <trkpt lat="42.56439" lon="1.98519">
        <ele>2203</ele>
        <time>2011-05-04T13:16:48Z</time>
      </trkpt>
      <trkpt lat="42.56434" lon="1.98526">
        <ele>2202</ele>
        <time>2011-05-04T13:16:58Z</time>
      </trkpt>
      <trkpt lat="42.56432" lon="1.98534">
        <ele>2202</ele>
        <time>2011-05-04T13:17:07Z</time>
      </trkpt>
      <trkpt lat="42.56429" lon="1.98543">
        <ele>2202</ele>
        <time>2011-05-04T13:17:24Z</time>
      </trkpt>
      <trkpt lat="42.56425" lon="1.9855">
        <ele>2202</ele>
        <time>2011-05-04T13:17:32Z</time>
      </trkpt>
      <trkpt lat="42.5642" lon="1.98555">
        <ele>2201</ele>
        <time>2011-05-04T13:17:39Z</time>
      </trkpt>
      <trkpt lat="42.56415" lon="1.9856">
        <ele>2201</ele>
        <time>2011-05-04T13:17:47Z</time>
      </trkpt>
      <trkpt lat="42.56411" lon="1.98568">
        <ele>2200</ele>
        <time>2011-05-04T13:17:59Z</time>
      </trkpt>
      <trkpt lat="42.56408" lon="1.98575">
        <ele>2199</ele>
        <time>2011-05-04T13:18:06Z</time>
      </trkpt>
      <trkpt lat="42.56403" lon="1.9858">
        <ele>2199</ele>
        <time>2011-05-04T13:18:15Z</time>
      </trkpt>
      <trkpt lat="42.56396" lon="1.98583">
        <ele>2199</ele>
        <time>2011-05-04T13:18:23Z</time>
      </trkpt>
      <trkpt lat="42.56391" lon="1.98586">
        <ele>2198</ele>
        <time>2011-05-04T13:18:30Z</time>
      </trkpt>
      <trkpt lat="42.56385" lon="1.9859">
        <ele>2198</ele>
        <time>2011-05-04T13:18:38Z</time>
      </trkpt>
      <trkpt lat="42.56379" lon="1.98596">
        <ele>2198</ele>
        <time>2011-05-04T13:18:46Z</time>
      </trkpt>
      <trkpt lat="42.56375" lon="1.98602">
        <ele>2197</ele>
        <time>2011-05-04T13:18:56Z</time>
      </trkpt>
      <trkpt lat="42.56371" lon="1.98609">
        <ele>2196</ele>
        <time>2011-05-04T13:19:19Z</time>
      </trkpt>
      <trkpt lat="42.56367" lon="1.98616">
        <ele>2196</ele>
        <time>2011-05-04T13:19:29Z</time>
      </trkpt>
      <trkpt lat="42.56361" lon="1.98621">
        <ele>2195</ele>
        <time>2011-05-04T13:19:40Z</time>
      </trkpt>
      <trkpt lat="42.56355" lon="1.98626">
        <ele>2194</ele>
        <time>2011-05-04T13:19:50Z</time>
      </trkpt>
      <trkpt lat="42.56351" lon="1.98632">
        <ele>2194</ele>
        <time>2011-05-04T13:19:59Z</time>
      </trkpt>
      <trkpt lat="42.56345" lon="1.98637">
        <ele>2193</ele>
        <time>2011-05-04T13:20:08Z</time>
      </trkpt>
      <trkpt lat="42.56341" lon="1.98644">
        <ele>2192</ele>
        <time>2011-05-04T13:20:18Z</time>
      </trkpt>
      <trkpt lat="42.56338" lon="1.98652">
        <ele>2191</ele>
        <time>2011-05-04T13:20:28Z</time>
      </trkpt>
      <trkpt lat="42.5634" lon="1.98661">
        <ele>2191</ele>
        <time>2011-05-04T13:20:42Z</time>
      </trkpt>
      <trkpt lat="42.56337" lon="1.98669">
        <ele>2189</ele>
        <time>2011-05-04T13:20:58Z</time>
      </trkpt>
      <trkpt lat="42.56331" lon="1.98671">
        <ele>2188</ele>
        <time>2011-05-04T13:21:10Z</time>
      </trkpt>
      <trkpt lat="42.56327" lon="1.98678">
        <ele>2188</ele>
        <time>2011-05-04T13:21:33Z</time>
      </trkpt>
      <trkpt lat="42.56323" lon="1.98685">
        <ele>2186</ele>
        <time>2011-05-04T13:21:48Z</time>
      </trkpt>
      <trkpt lat="42.5632" lon="1.98693">
        <ele>2185</ele>
        <time>2011-05-04T13:22:05Z</time>
      </trkpt>
      <trkpt lat="42.56315" lon="1.987">
        <ele>2185</ele>
        <time>2011-05-04T13:22:21Z</time>
      </trkpt>
      <trkpt lat="42.5631" lon="1.98706">
        <ele>2184</ele>
        <time>2011-05-04T13:22:31Z</time>
      </trkpt>
      <trkpt lat="42.56304" lon="1.9871">
        <ele>2183</ele>
        <time>2011-05-04T13:22:40Z</time>
      </trkpt>
      <trkpt lat="42.56298" lon="1.98714">
        <ele>2182</ele>
        <time>2011-05-04T13:22:48Z</time>
      </trkpt>
      <trkpt lat="42.56292" lon="1.98717">
        <ele>2181</ele>
        <time>2011-05-04T13:22:55Z</time>
      </trkpt>
      <trkpt lat="42.56278" lon="1.9872">
        <ele>2180</ele>
        <time>2011-05-04T13:23:10Z</time>
      </trkpt>
      <trkpt lat="42.56274" lon="1.98726">
        <ele>2179</ele>
        <time>2011-05-04T13:23:21Z</time>
      </trkpt>
      <trkpt lat="42.56266" lon="1.98739">
        <ele>2176</ele>
        <time>2011-05-04T13:23:54Z</time>
      </trkpt>
      <trkpt lat="42.56265" lon="1.98747">
        <ele>2175</ele>
        <time>2011-05-04T13:24:19Z</time>
      </trkpt>
      <trkpt lat="42.56263" lon="1.98756">
        <ele>2174</ele>
        <time>2011-05-04T13:24:37Z</time>
      </trkpt>
      <trkpt lat="42.56261" lon="1.98764">
        <ele>2173</ele>
        <time>2011-05-04T13:24:59Z</time>
      </trkpt>
      <trkpt lat="42.56257" lon="1.98771">
        <ele>2171</ele>
        <time>2011-05-04T13:25:14Z</time>
      </trkpt>
      <trkpt lat="42.56253" lon="1.98778">
        <ele>2169</ele>
        <time>2011-05-04T13:25:29Z</time>
      </trkpt>
      <trkpt lat="42.56247" lon="1.98783">
        <ele>2168</ele>
        <time>2011-05-04T13:25:47Z</time>
      </trkpt>
      <trkpt lat="42.56242" lon="1.98787">
        <ele>2167</ele>
        <time>2011-05-04T13:25:59Z</time>
      </trkpt>
      <trkpt lat="42.56236" lon="1.98792">
        <ele>2166</ele>
        <time>2011-05-04T13:26:13Z</time>
      </trkpt>
      <trkpt lat="42.5623" lon="1.98796">
        <ele>2166</ele>
        <time>2011-05-04T13:26:23Z</time>
      </trkpt>
      <trkpt lat="42.56224" lon="1.98799">
        <ele>2165</ele>
        <time>2011-05-04T13:26:33Z</time>
      </trkpt>
      <trkpt lat="42.56219" lon="1.98805">
        <ele>2164</ele>
        <time>2011-05-04T13:26:41Z</time>
      </trkpt>
      <trkpt lat="42.56213" lon="1.9881">
        <ele>2163</ele>
        <time>2011-05-04T13:26:50Z</time>
      </trkpt>
      <trkpt lat="42.56206" lon="1.98812">
        <ele>2162</ele>
        <time>2011-05-04T13:27:00Z</time>
      </trkpt>
      <trkpt lat="42.56199" lon="1.98812">
        <ele>2161</ele>
        <time>2011-05-04T13:27:11Z</time>
      </trkpt>
      <trkpt lat="42.56194" lon="1.98815">
        <ele>2160</ele>
        <time>2011-05-04T13:27:33Z</time>
      </trkpt>
      <trkpt lat="42.56191" lon="1.98823">
        <ele>2160</ele>
        <time>2011-05-04T13:28:07Z</time>
      </trkpt>
      <trkpt lat="42.56187" lon="1.9883">
        <ele>2161</ele>
        <time>2011-05-04T13:28:26Z</time>
      </trkpt>
      <trkpt lat="42.56182" lon="1.98835">
        <ele>2161</ele>
        <time>2011-05-04T13:28:40Z</time>
      </trkpt>
      <trkpt lat="42.56177" lon="1.9884">
        <ele>2160</ele>
        <time>2011-05-04T13:29:11Z</time>
      </trkpt>
      <trkpt lat="42.56171" lon="1.98845">
        <ele>2159</ele>
        <time>2011-05-04T13:30:25Z</time>
      </trkpt>
      <trkpt lat="42.56167" lon="1.98852">
        <ele>2159</ele>
        <time>2011-05-04T13:30:36Z</time>
      </trkpt>
      <trkpt lat="42.56164" lon="1.9886">
        <ele>2159</ele>
        <time>2011-05-04T13:31:01Z</time>
      </trkpt>
      <trkpt lat="42.56159" lon="1.98866">
        <ele>2158</ele>
        <time>2011-05-04T13:31:14Z</time>
      </trkpt>
      <trkpt lat="42.56156" lon="1.98873">
        <ele>2157</ele>
        <time>2011-05-04T13:31:29Z</time>
      </trkpt>
      <trkpt lat="42.56154" lon="1.98882">
        <ele>2156</ele>
        <time>2011-05-04T13:31:48Z</time>
      </trkpt>
      <trkpt lat="42.56152" lon="1.9889">
        <ele>2155</ele>
        <time>2011-05-04T13:31:58Z</time>
      </trkpt>
      <trkpt lat="42.56148" lon="1.98897">
        <ele>2155</ele>
        <time>2011-05-04T13:32:07Z</time>
      </trkpt>
      <trkpt lat="42.56142" lon="1.98902">
        <ele>2154</ele>
        <time>2011-05-04T13:32:15Z</time>
      </trkpt>
      <trkpt lat="42.56136" lon="1.98907">
        <ele>2153</ele>
        <time>2011-05-04T13:32:23Z</time>
      </trkpt>
      <trkpt lat="42.56132" lon="1.98914">
        <ele>2152</ele>
        <time>2011-05-04T13:32:32Z</time>
      </trkpt>
      <trkpt lat="42.56129" lon="1.98921">
        <ele>2151</ele>
        <time>2011-05-04T13:32:43Z</time>
      </trkpt>
      <trkpt lat="42.56123" lon="1.98925">
        <ele>2151</ele>
        <time>2011-05-04T13:32:57Z</time>
      </trkpt>
      <trkpt lat="42.5612" lon="1.98933">
        <ele>2150</ele>
        <time>2011-05-04T13:33:09Z</time>
      </trkpt>
      <trkpt lat="42.56115" lon="1.98939">
        <ele>2150</ele>
        <time>2011-05-04T13:33:21Z</time>
      </trkpt>
      <trkpt lat="42.56109" lon="1.98944">
        <ele>2149</ele>
        <time>2011-05-04T13:33:31Z</time>
      </trkpt>
      <trkpt lat="42.56104" lon="1.98949">
        <ele>2149</ele>
        <time>2011-05-04T13:33:45Z</time>
      </trkpt>
      <trkpt lat="42.56098" lon="1.98954">
        <ele>2149</ele>
        <time>2011-05-04T13:33:58Z</time>
      </trkpt>
      <trkpt lat="42.56094" lon="1.98962">
        <ele>2149</ele>
        <time>2011-05-04T13:34:05Z</time>
      </trkpt>
      <trkpt lat="42.5609" lon="1.98969">
        <ele>2149</ele>
        <time>2011-05-04T13:34:14Z</time>
      </trkpt>
      <trkpt lat="42.56086" lon="1.98977">
        <ele>2149</ele>
        <time>2011-05-04T13:34:23Z</time>
      </trkpt>
      <trkpt lat="42.56082" lon="1.99003">
        <ele>2149</ele>
        <time>2011-05-04T13:35:01Z</time>
      </trkpt>
      <trkpt lat="42.56081" lon="1.99011">
        <ele>2148</ele>
        <time>2011-05-04T13:35:09Z</time>
      </trkpt>
      <trkpt lat="42.56078" lon="1.99019">
        <ele>2148</ele>
        <time>2011-05-04T13:35:17Z</time>
      </trkpt>
      <trkpt lat="42.56072" lon="1.99023">
        <ele>2148</ele>
        <time>2011-05-04T13:35:24Z</time>
      </trkpt>
      <trkpt lat="42.56057" lon="1.99039">
        <ele>2148</ele>
        <time>2011-05-04T13:35:53Z</time>
      </trkpt>
      <trkpt lat="42.56052" lon="1.99046">
        <ele>2148</ele>
        <time>2011-05-04T13:36:03Z</time>
      </trkpt>
      <trkpt lat="42.56047" lon="1.99051">
        <ele>2148</ele>
        <time>2011-05-04T13:36:10Z</time>
      </trkpt>
      <trkpt lat="42.56037" lon="1.99063">
        <ele>2148</ele>
        <time>2011-05-04T13:36:28Z</time>
      </trkpt>
      <trkpt lat="42.56031" lon="1.99069">
        <ele>2147</ele>
        <time>2011-05-04T13:36:42Z</time>
      </trkpt>
      <trkpt lat="42.56027" lon="1.99076">
        <ele>2146</ele>
        <time>2011-05-04T13:36:57Z</time>
      </trkpt>
      <trkpt lat="42.56026" lon="1.99085">
        <ele>2146</ele>
        <time>2011-05-04T13:37:09Z</time>
      </trkpt>
      <trkpt lat="42.56024" lon="1.99094">
        <ele>2146</ele>
        <time>2011-05-04T13:37:25Z</time>
      </trkpt>
      <trkpt lat="42.56023" lon="1.99102">
        <ele>2145</ele>
        <time>2011-05-04T13:37:36Z</time>
      </trkpt>
      <trkpt lat="42.56022" lon="1.99111">
        <ele>2145</ele>
        <time>2011-05-04T13:37:58Z</time>
      </trkpt>
      <trkpt lat="42.56017" lon="1.99116">
        <ele>2145</ele>
        <time>2011-05-04T13:39:05Z</time>
      </trkpt>
      <trkpt lat="42.56015" lon="1.99125">
        <ele>2145</ele>
        <time>2011-05-04T13:39:21Z</time>
      </trkpt>
      <trkpt lat="42.56013" lon="1.99134">
        <ele>2144</ele>
        <time>2011-05-04T13:39:33Z</time>
      </trkpt>
      <trkpt lat="42.56013" lon="1.99142">
        <ele>2144</ele>
        <time>2011-05-04T13:39:44Z</time>
      </trkpt>
      <trkpt lat="42.56014" lon="1.99151">
        <ele>2143</ele>
        <time>2011-05-04T13:39:57Z</time>
      </trkpt>
      <trkpt lat="42.56012" lon="1.99159">
        <ele>2141</ele>
        <time>2011-05-04T13:40:16Z</time>
      </trkpt>
      <trkpt lat="42.56011" lon="1.99169">
        <ele>2140</ele>
        <time>2011-05-04T13:40:24Z</time>
      </trkpt>
      <trkpt lat="42.5601" lon="1.99177">
        <ele>2140</ele>
        <time>2011-05-04T13:40:34Z</time>
      </trkpt>
      <trkpt lat="42.56007" lon="1.99195">
        <ele>2140</ele>
        <time>2011-05-04T13:41:03Z</time>
      </trkpt>
      <trkpt lat="42.56006" lon="1.99204">
        <ele>2141</ele>
        <time>2011-05-04T13:41:13Z</time>
      </trkpt>
      <trkpt lat="42.55997" lon="1.99229">
        <ele>2141</ele>
        <time>2011-05-04T13:41:50Z</time>
      </trkpt>
      <trkpt lat="42.55994" lon="1.99236">
        <ele>2141</ele>
        <time>2011-05-04T13:41:56Z</time>
      </trkpt>
      <trkpt lat="42.55993" lon="1.99245">
        <ele>2141</ele>
        <time>2011-05-04T13:42:06Z</time>
      </trkpt>
      <trkpt lat="42.55994" lon="1.99254">
        <ele>2141</ele>
        <time>2011-05-04T13:42:18Z</time>
      </trkpt>
      <trkpt lat="42.55995" lon="1.99263">
        <ele>2141</ele>
        <time>2011-05-04T13:42:27Z</time>
      </trkpt>
      <trkpt lat="42.55994" lon="1.99272">
        <ele>2140</ele>
        <time>2011-05-04T13:42:40Z</time>
      </trkpt>
      <trkpt lat="42.55995" lon="1.99281">
        <ele>2140</ele>
        <time>2011-05-04T13:42:52Z</time>
      </trkpt>
      <trkpt lat="42.55998" lon="1.99306">
        <ele>2140</ele>
        <time>2011-05-04T13:43:31Z</time>
      </trkpt>
      <trkpt lat="42.55998" lon="1.99314">
        <ele>2140</ele>
        <time>2011-05-04T13:43:43Z</time>
      </trkpt>
      <trkpt lat="42.56" lon="1.99322">
        <ele>2140</ele>
        <time>2011-05-04T13:43:56Z</time>
      </trkpt>
      <trkpt lat="42.56001" lon="1.99331">
        <ele>2140</ele>
        <time>2011-05-04T13:44:06Z</time>
      </trkpt>
      <trkpt lat="42.56007" lon="1.99348">
        <ele>2140</ele>
        <time>2011-05-04T13:44:25Z</time>
      </trkpt>
      <trkpt lat="42.5601" lon="1.99355">
        <ele>2139</ele>
        <time>2011-05-04T13:44:33Z</time>
      </trkpt>
      <trkpt lat="42.56011" lon="1.99381">
        <ele>2139</ele>
        <time>2011-05-04T13:45:25Z</time>
      </trkpt>
      <trkpt lat="42.56009" lon="1.99389">
        <ele>2139</ele>
        <time>2011-05-04T13:45:43Z</time>
      </trkpt>
      <trkpt lat="42.5601" lon="1.99398">
        <ele>2139</ele>
        <time>2011-05-04T13:46:12Z</time>
      </trkpt>
      <trkpt lat="42.56014" lon="1.99404">
        <ele>2136</ele>
        <time>2011-05-04T13:46:52Z</time>
      </trkpt>
      <trkpt lat="42.56018" lon="1.99411">
        <ele>2136</ele>
        <time>2011-05-04T13:47:23Z</time>
      </trkpt>
      <trkpt lat="42.56019" lon="1.9942">
        <ele>2133</ele>
        <time>2011-05-04T13:48:34Z</time>
      </trkpt>
      <trkpt lat="42.56028" lon="1.99431">
        <ele>2131</ele>
        <time>2011-05-04T13:49:25Z</time>
      </trkpt>
      <trkpt lat="42.5603" lon="1.99439">
        <ele>2129</ele>
        <time>2011-05-04T13:50:03Z</time>
      </trkpt>
      <trkpt lat="42.56026" lon="1.99461">
        <ele>2127</ele>
        <time>2011-05-04T13:51:38Z</time>
      </trkpt>
      <trkpt lat="42.56027" lon="1.9947">
        <ele>2126</ele>
        <time>2011-05-04T13:51:48Z</time>
      </trkpt>
      <trkpt lat="42.56027" lon="1.99496">
        <ele>2125</ele>
        <time>2011-05-04T13:52:32Z</time>
      </trkpt>
      <trkpt lat="42.56023" lon="1.99503">
        <ele>2125</ele>
        <time>2011-05-04T13:52:51Z</time>
      </trkpt>
      <trkpt lat="42.5602" lon="1.9951">
        <ele>2125</ele>
        <time>2011-05-04T13:53:07Z</time>
      </trkpt>
      <trkpt lat="42.56017" lon="1.99519">
        <ele>2124</ele>
        <time>2011-05-04T13:53:16Z</time>
      </trkpt>
      <trkpt lat="42.56014" lon="1.99528">
        <ele>2123</ele>
        <time>2011-05-04T13:53:23Z</time>
      </trkpt>
      <trkpt lat="42.56008" lon="1.99543">
        <ele>2120</ele>
        <time>2011-05-04T13:53:43Z</time>
      </trkpt>
      <trkpt lat="42.56006" lon="1.99553">
        <ele>2120</ele>
        <time>2011-05-04T13:53:50Z</time>
      </trkpt>
      <trkpt lat="42.56002" lon="1.99569">
        <ele>2118</ele>
        <time>2011-05-04T13:54:12Z</time>
      </trkpt>
      <trkpt lat="42.56" lon="1.99595">
        <ele>2115</ele>
        <time>2011-05-04T13:54:49Z</time>
      </trkpt>
      <trkpt lat="42.55996" lon="1.99603">
        <ele>2113</ele>
        <time>2011-05-04T13:54:57Z</time>
      </trkpt>
      <trkpt lat="42.55995" lon="1.99612">
        <ele>2111</ele>
        <time>2011-05-04T13:55:07Z</time>
      </trkpt>
      <trkpt lat="42.55992" lon="1.9962">
        <ele>2109</ele>
        <time>2011-05-04T13:55:16Z</time>
      </trkpt>
      <trkpt lat="42.5599" lon="1.99628">
        <ele>2108</ele>
        <time>2011-05-04T13:55:24Z</time>
      </trkpt>
      <trkpt lat="42.55988" lon="1.99637">
        <ele>2106</ele>
        <time>2011-05-04T13:55:31Z</time>
      </trkpt>
      <trkpt lat="42.55987" lon="1.99646">
        <ele>2104</ele>
        <time>2011-05-04T13:55:38Z</time>
      </trkpt>
      <trkpt lat="42.55985" lon="1.99656">
        <ele>2102</ele>
        <time>2011-05-04T13:55:44Z</time>
      </trkpt>
      <trkpt lat="42.55982" lon="1.99664">
        <ele>2100</ele>
        <time>2011-05-04T13:55:50Z</time>
      </trkpt>
      <trkpt lat="42.55979" lon="1.99672">
        <ele>2098</ele>
        <time>2011-05-04T13:55:56Z</time>
      </trkpt>
      <trkpt lat="42.55977" lon="1.99681">
        <ele>2096</ele>
        <time>2011-05-04T13:56:03Z</time>
      </trkpt>
      <trkpt lat="42.55978" lon="1.99691">
        <ele>2095</ele>
        <time>2011-05-04T13:56:10Z</time>
      </trkpt>
      <trkpt lat="42.5598" lon="1.99699">
        <ele>2094</ele>
        <time>2011-05-04T13:56:16Z</time>
      </trkpt>
      <trkpt lat="42.55982" lon="1.99708">
        <ele>2093</ele>
        <time>2011-05-04T13:56:23Z</time>
      </trkpt>
      <trkpt lat="42.55984" lon="1.99716">
        <ele>2092</ele>
        <time>2011-05-04T13:56:29Z</time>
      </trkpt>
      <trkpt lat="42.55986" lon="1.99725">
        <ele>2091</ele>
        <time>2011-05-04T13:56:36Z</time>
      </trkpt>
      <trkpt lat="42.5599" lon="1.99732">
        <ele>2090</ele>
        <time>2011-05-04T13:56:44Z</time>
      </trkpt>
      <trkpt lat="42.55997" lon="1.99734">
        <ele>2090</ele>
        <time>2011-05-04T13:56:52Z</time>
      </trkpt>
      <trkpt lat="42.56004" lon="1.99736">
        <ele>2089</ele>
        <time>2011-05-04T13:56:59Z</time>
      </trkpt>
      <trkpt lat="42.5601" lon="1.99736">
        <ele>2088</ele>
        <time>2011-05-04T13:57:10Z</time>
      </trkpt>
      <trkpt lat="42.56018" lon="1.99738">
        <ele>2088</ele>
        <time>2011-05-04T13:57:17Z</time>
      </trkpt>
      <trkpt lat="42.56025" lon="1.9974">
        <ele>2088</ele>
        <time>2011-05-04T13:57:24Z</time>
      </trkpt>
      <trkpt lat="42.5603" lon="1.99746">
        <ele>2088</ele>
        <time>2011-05-04T13:57:31Z</time>
      </trkpt>
      <trkpt lat="42.56034" lon="1.99753">
        <ele>2087</ele>
        <time>2011-05-04T13:57:39Z</time>
      </trkpt>
      <trkpt lat="42.56037" lon="1.99761">
        <ele>2087</ele>
        <time>2011-05-04T13:57:47Z</time>
      </trkpt>
      <trkpt lat="42.56039" lon="1.9977">
        <ele>2087</ele>
        <time>2011-05-04T13:57:54Z</time>
      </trkpt>
      <trkpt lat="42.5604" lon="1.99779">
        <ele>2087</ele>
        <time>2011-05-04T13:58:01Z</time>
      </trkpt>
      <trkpt lat="42.56038" lon="1.99788">
        <ele>2086</ele>
        <time>2011-05-04T13:58:09Z</time>
      </trkpt>
      <trkpt lat="42.56034" lon="1.99796">
        <ele>2086</ele>
        <time>2011-05-04T13:58:16Z</time>
      </trkpt>
      <trkpt lat="42.5603" lon="1.99803">
        <ele>2085</ele>
        <time>2011-05-04T13:58:23Z</time>
      </trkpt>
      <trkpt lat="42.56028" lon="1.99811">
        <ele>2084</ele>
        <time>2011-05-04T13:58:34Z</time>
      </trkpt>
      <trkpt lat="42.56024" lon="1.9982">
        <ele>2083</ele>
        <time>2011-05-04T13:58:42Z</time>
      </trkpt>
      <trkpt lat="42.56021" lon="1.99827">
        <ele>2082</ele>
        <time>2011-05-04T13:58:48Z</time>
      </trkpt>
      <trkpt lat="42.56017" lon="1.99835">
        <ele>2082</ele>
        <time>2011-05-04T13:58:54Z</time>
      </trkpt>
      <trkpt lat="42.56012" lon="1.99841">
        <ele>2081</ele>
        <time>2011-05-04T13:59:00Z</time>
      </trkpt>
      <trkpt lat="42.56007" lon="1.99846">
        <ele>2080</ele>
        <time>2011-05-04T13:59:06Z</time>
      </trkpt>
      <trkpt lat="42.56001" lon="1.99851">
        <ele>2080</ele>
        <time>2011-05-04T13:59:12Z</time>
      </trkpt>
      <trkpt lat="42.55994" lon="1.99854">
        <ele>2079</ele>
        <time>2011-05-04T13:59:18Z</time>
      </trkpt>
      <trkpt lat="42.55988" lon="1.99858">
        <ele>2079</ele>
        <time>2011-05-04T13:59:24Z</time>
      </trkpt>
      <trkpt lat="42.55983" lon="1.99862">
        <ele>2078</ele>
        <time>2011-05-04T13:59:30Z</time>
      </trkpt>
      <trkpt lat="42.55976" lon="1.99867">
        <ele>2078</ele>
        <time>2011-05-04T13:59:37Z</time>
      </trkpt>
      <trkpt lat="42.55971" lon="1.99873">
        <ele>2078</ele>
        <time>2011-05-04T13:59:44Z</time>
      </trkpt>
      <trkpt lat="42.55965" lon="1.99878">
        <ele>2078</ele>
        <time>2011-05-04T13:59:50Z</time>
      </trkpt>
      <trkpt lat="42.5596" lon="1.99884">
        <ele>2077</ele>
        <time>2011-05-04T13:59:56Z</time>
      </trkpt>
      <trkpt lat="42.55955" lon="1.9989">
        <ele>2077</ele>
        <time>2011-05-04T14:00:02Z</time>
      </trkpt>
      <trkpt lat="42.5595" lon="1.99896">
        <ele>2077</ele>
        <time>2011-05-04T14:00:08Z</time>
      </trkpt>
      <trkpt lat="42.55944" lon="1.99902">
        <ele>2077</ele>
        <time>2011-05-04T14:00:14Z</time>
      </trkpt>
      <trkpt lat="42.55939" lon="1.99908">
        <ele>2077</ele>
        <time>2011-05-04T14:00:20Z</time>
      </trkpt>
      <trkpt lat="42.55934" lon="1.99914">
        <ele>2077</ele>
        <time>2011-05-04T14:00:26Z</time>
      </trkpt>
      <trkpt lat="42.5593" lon="1.9992">
        <ele>2076</ele>
        <time>2011-05-04T14:00:32Z</time>
      </trkpt>
      <trkpt lat="42.55924" lon="1.99927">
        <ele>2076</ele>
        <time>2011-05-04T14:00:39Z</time>
      </trkpt>
      <trkpt lat="42.55918" lon="1.99933">
        <ele>2076</ele>
        <time>2011-05-04T14:00:46Z</time>
      </trkpt>
      <trkpt lat="42.55913" lon="1.99937">
        <ele>2076</ele>
        <time>2011-05-04T14:00:52Z</time>
      </trkpt>
      <trkpt lat="42.55907" lon="1.99941">
        <ele>2075</ele>
        <time>2011-05-04T14:00:58Z</time>
      </trkpt>
      <trkpt lat="42.559" lon="1.99945">
        <ele>2075</ele>
        <time>2011-05-04T14:01:04Z</time>
      </trkpt>
      <trkpt lat="42.55894" lon="1.99949">
        <ele>2075</ele>
        <time>2011-05-04T14:01:10Z</time>
      </trkpt>
      <trkpt lat="42.55888" lon="1.99953">
        <ele>2075</ele>
        <time>2011-05-04T14:01:16Z</time>
      </trkpt>
      <trkpt lat="42.55881" lon="1.99957">
        <ele>2075</ele>
        <time>2011-05-04T14:01:23Z</time>
      </trkpt>
      <trkpt lat="42.55875" lon="1.99962">
        <ele>2075</ele>
        <time>2011-05-04T14:01:30Z</time>
      </trkpt>
      <trkpt lat="42.55869" lon="1.99966">
        <ele>2075</ele>
        <time>2011-05-04T14:01:38Z</time>
      </trkpt>
      <trkpt lat="42.55863" lon="1.99967">
        <ele>2075</ele>
        <time>2011-05-04T14:01:47Z</time>
      </trkpt>
      <trkpt lat="42.55864" lon="1.99976">
        <ele>2073</ele>
        <time>2011-05-04T14:02:17Z</time>
      </trkpt>
      <trkpt lat="42.55865" lon="1.99986">
        <ele>2072</ele>
        <time>2011-05-04T14:02:24Z</time>
      </trkpt>
      <trkpt lat="42.55868" lon="1.99994">
        <ele>2072</ele>
        <time>2011-05-04T14:02:31Z</time>
      </trkpt>
      <trkpt lat="42.55873" lon="2.00002">
        <ele>2071</ele>
        <time>2011-05-04T14:02:38Z</time>
      </trkpt>
      <trkpt lat="42.55878" lon="2.00007">
        <ele>2071</ele>
        <time>2011-05-04T14:02:44Z</time>
      </trkpt>
      <trkpt lat="42.55884" lon="2.00012">
        <ele>2070</ele>
        <time>2011-05-04T14:02:51Z</time>
      </trkpt>
      <trkpt lat="42.55891" lon="2.00014">
        <ele>2070</ele>
        <time>2011-05-04T14:02:58Z</time>
      </trkpt>
      <trkpt lat="42.55898" lon="2.00016">
        <ele>2070</ele>
        <time>2011-05-04T14:03:05Z</time>
      </trkpt>
      <trkpt lat="42.55912" lon="2.00016">
        <ele>2069</ele>
        <time>2011-05-04T14:03:19Z</time>
      </trkpt>
      <trkpt lat="42.55918" lon="2.00018">
        <ele>2069</ele>
        <time>2011-05-04T14:04:00Z</time>
      </trkpt>
      <trkpt lat="42.55918" lon="2.00018">
        <ele>2005</ele>
        <time>2011-05-04T14:04:18Z</time>
      </trkpt>
    </trkseg>
  </trk>
</gpx>